<?xml version="1.0" encoding="UTF-8" standalone="no" ?>
<gpx xmlns="http://www.topografix.com/GPX/1/1" xmlns:xsi="http://www.w3.org/2001/XMLSchema-instance" xsi:schemaLocation="http://www.topografix.com/GPX/1/1 http://www.topografix.com/GPX/1/1/gpx.xsd" version="1.1" creator="VisuGPX - https://www.visugpx.com">
  <metadata>
    <name>Fourane =&amp;gt; plateau d'Iroire</name>
    <desc><![CDATA[recherche d'itinéraire pédestre au départ de Seyne, pour création de circuits de 2 à 4-5h de marche.
sentier nettoyé par un groupe de 8 bénévoles le 28/08/2020.
Départ de Fourane, maison au dessus de Haut Chardavon, sentier très (très...) raide empruntant principalement une piste d'exploitation forestière, puis rejoignant le sentier reliant le plateau d'Iroire au Clots (station de de ski de Chabanon), juste avant la balise indiquant la direction de Chabanon depuis Négron.]]></desc>
  </metadata>
  <wpt lat="44.33567" lon="6.318">
    <ele>1278.7</ele>
    <name><![CDATA[xXUq~AyA--.1.jpg]]></name>
  </wpt>
  <wpt lat="44.33402" lon="6.30984">
    <ele>1567.6</ele>
    <name><![CDATA[xXUq8ci0--.1.jpg]]></name>
  </wpt>
  <trk>
    <name><![CDATA[Fourane =&gt; plateau d'Iroire_1]]></name>
    <trkseg>
      <trkpt lat="44.33903" lon="6.32299">
        <ele>1185.5</ele>
        <time>2020-08-28T06:04:40Z</time>
      </trkpt>
      <trkpt lat="44.33903" lon="6.32299">
        <ele>1185.5</ele>
        <time>2020-08-28T06:04:46Z</time>
      </trkpt>
      <trkpt lat="44.33903" lon="6.32297">
        <ele>1185.6</ele>
        <time>2020-08-28T06:04:52Z</time>
      </trkpt>
      <trkpt lat="44.33903" lon="6.32297">
        <ele>1185.6</ele>
        <time>2020-08-28T06:04:58Z</time>
      </trkpt>
      <trkpt lat="44.33903" lon="6.32297">
        <ele>1185.6</ele>
        <time>2020-08-28T06:05:03Z</time>
      </trkpt>
      <trkpt lat="44.33904" lon="6.32306">
        <ele>1184.9</ele>
        <time>2020-08-28T06:05:09Z</time>
      </trkpt>
      <trkpt lat="44.33902" lon="6.32311">
        <ele>1184.5</ele>
        <time>2020-08-28T06:05:15Z</time>
      </trkpt>
      <trkpt lat="44.33897" lon="6.32315">
        <ele>1184.6</ele>
        <time>2020-08-28T06:05:20Z</time>
      </trkpt>
      <trkpt lat="44.33895" lon="6.32316">
        <ele>1184.7</ele>
        <time>2020-08-28T06:05:25Z</time>
      </trkpt>
      <trkpt lat="44.33893" lon="6.32317">
        <ele>1184.9</ele>
        <time>2020-08-28T06:05:31Z</time>
      </trkpt>
      <trkpt lat="44.33893" lon="6.32318">
        <ele>1184.8</ele>
        <time>2020-08-28T06:05:36Z</time>
      </trkpt>
      <trkpt lat="44.33893" lon="6.32318">
        <ele>1184.8</ele>
        <time>2020-08-28T06:05:42Z</time>
      </trkpt>
      <trkpt lat="44.33893" lon="6.32318">
        <ele>1184.8</ele>
        <time>2020-08-28T06:05:48Z</time>
      </trkpt>
      <trkpt lat="44.33888" lon="6.3232">
        <ele>1185.2</ele>
        <time>2020-08-28T06:05:53Z</time>
      </trkpt>
      <trkpt lat="44.33884" lon="6.3232">
        <ele>1185.6</ele>
        <time>2020-08-28T06:05:59Z</time>
      </trkpt>
      <trkpt lat="44.33879" lon="6.32318">
        <ele>1186.1</ele>
        <time>2020-08-28T06:06:05Z</time>
      </trkpt>
      <trkpt lat="44.33874" lon="6.32314">
        <ele>1186.6</ele>
        <time>2020-08-28T06:06:11Z</time>
      </trkpt>
      <trkpt lat="44.3387" lon="6.32315">
        <ele>1186.9</ele>
        <time>2020-08-28T06:06:16Z</time>
      </trkpt>
      <trkpt lat="44.33866" lon="6.32314">
        <ele>1187.2</ele>
        <time>2020-08-28T06:06:22Z</time>
      </trkpt>
      <trkpt lat="44.33862" lon="6.3231">
        <ele>1187.5</ele>
        <time>2020-08-28T06:06:27Z</time>
      </trkpt>
      <trkpt lat="44.33856" lon="6.32307">
        <ele>1187.9</ele>
        <time>2020-08-28T06:06:33Z</time>
      </trkpt>
      <trkpt lat="44.33849" lon="6.32306">
        <ele>1188.2</ele>
        <time>2020-08-28T06:06:38Z</time>
      </trkpt>
      <trkpt lat="44.33844" lon="6.32301">
        <ele>1188.4</ele>
        <time>2020-08-28T06:06:43Z</time>
      </trkpt>
      <trkpt lat="44.33838" lon="6.323">
        <ele>1188.6</ele>
        <time>2020-08-28T06:06:49Z</time>
      </trkpt>
      <trkpt lat="44.33834" lon="6.32296">
        <ele>1188.7</ele>
        <time>2020-08-28T06:06:54Z</time>
      </trkpt>
      <trkpt lat="44.3383" lon="6.32287">
        <ele>1196.8</ele>
        <time>2020-08-28T06:07:00Z</time>
      </trkpt>
      <trkpt lat="44.33825" lon="6.32283">
        <ele>1197</ele>
        <time>2020-08-28T06:07:05Z</time>
      </trkpt>
      <trkpt lat="44.33821" lon="6.32278">
        <ele>1197.1</ele>
        <time>2020-08-28T06:07:10Z</time>
      </trkpt>
      <trkpt lat="44.33817" lon="6.32273">
        <ele>1197.1</ele>
        <time>2020-08-28T06:07:15Z</time>
      </trkpt>
      <trkpt lat="44.33813" lon="6.32268">
        <ele>1197.3</ele>
        <time>2020-08-28T06:07:21Z</time>
      </trkpt>
      <trkpt lat="44.33805" lon="6.32269">
        <ele>1198.1</ele>
        <time>2020-08-28T06:07:27Z</time>
      </trkpt>
      <trkpt lat="44.33803" lon="6.32269">
        <ele>1198.3</ele>
        <time>2020-08-28T06:07:32Z</time>
      </trkpt>
      <trkpt lat="44.33799" lon="6.32265">
        <ele>1198.6</ele>
        <time>2020-08-28T06:07:38Z</time>
      </trkpt>
      <trkpt lat="44.33799" lon="6.32266">
        <ele>1198.7</ele>
        <time>2020-08-28T06:07:44Z</time>
      </trkpt>
      <trkpt lat="44.33793" lon="6.32259">
        <ele>1199.2</ele>
        <time>2020-08-28T06:07:49Z</time>
      </trkpt>
      <trkpt lat="44.3379" lon="6.32255">
        <ele>1199.5</ele>
        <time>2020-08-28T06:07:55Z</time>
      </trkpt>
      <trkpt lat="44.33789" lon="6.3225">
        <ele>1200.3</ele>
        <time>2020-08-28T06:08:01Z</time>
      </trkpt>
      <trkpt lat="44.33784" lon="6.32244">
        <ele>1200.8</ele>
        <time>2020-08-28T06:08:07Z</time>
      </trkpt>
      <trkpt lat="44.33779" lon="6.32238">
        <ele>1201.2</ele>
        <time>2020-08-28T06:08:13Z</time>
      </trkpt>
      <trkpt lat="44.33777" lon="6.32229">
        <ele>1201.4</ele>
        <time>2020-08-28T06:08:19Z</time>
      </trkpt>
      <trkpt lat="44.33774" lon="6.3222">
        <ele>1201.5</ele>
        <time>2020-08-28T06:08:25Z</time>
      </trkpt>
      <trkpt lat="44.33772" lon="6.32212">
        <ele>1201.7</ele>
        <time>2020-08-28T06:08:30Z</time>
      </trkpt>
      <trkpt lat="44.33769" lon="6.32209">
        <ele>1201.9</ele>
        <time>2020-08-28T06:08:36Z</time>
      </trkpt>
      <trkpt lat="44.33768" lon="6.32201">
        <ele>1202.1</ele>
        <time>2020-08-28T06:08:41Z</time>
      </trkpt>
      <trkpt lat="44.33767" lon="6.32191">
        <ele>1202.4</ele>
        <time>2020-08-28T06:08:47Z</time>
      </trkpt>
      <trkpt lat="44.33762" lon="6.32186">
        <ele>1202.8</ele>
        <time>2020-08-28T06:08:53Z</time>
      </trkpt>
      <trkpt lat="44.33757" lon="6.32178">
        <ele>1203.5</ele>
        <time>2020-08-28T06:08:59Z</time>
      </trkpt>
      <trkpt lat="44.33753" lon="6.32177">
        <ele>1203.7</ele>
        <time>2020-08-28T06:09:04Z</time>
      </trkpt>
      <trkpt lat="44.3375" lon="6.3217">
        <ele>1206.3</ele>
        <time>2020-08-28T06:09:09Z</time>
      </trkpt>
      <trkpt lat="44.33748" lon="6.32164">
        <ele>1206.7</ele>
        <time>2020-08-28T06:09:14Z</time>
      </trkpt>
      <trkpt lat="44.33748" lon="6.3216">
        <ele>1208.2</ele>
        <time>2020-08-28T06:09:20Z</time>
      </trkpt>
      <trkpt lat="44.33746" lon="6.32158">
        <ele>1209.1</ele>
        <time>2020-08-28T06:09:25Z</time>
      </trkpt>
      <trkpt lat="44.33744" lon="6.32156">
        <ele>1210</ele>
        <time>2020-08-28T06:09:30Z</time>
      </trkpt>
      <trkpt lat="44.33743" lon="6.32151">
        <ele>1211.4</ele>
        <time>2020-08-28T06:09:36Z</time>
      </trkpt>
      <trkpt lat="44.33742" lon="6.32144">
        <ele>1212.8</ele>
        <time>2020-08-28T06:09:42Z</time>
      </trkpt>
      <trkpt lat="44.33739" lon="6.32138">
        <ele>1213.9</ele>
        <time>2020-08-28T06:09:48Z</time>
      </trkpt>
      <trkpt lat="44.33736" lon="6.32133">
        <ele>1214.7</ele>
        <time>2020-08-28T06:09:54Z</time>
      </trkpt>
      <trkpt lat="44.33735" lon="6.32132">
        <ele>1214.9</ele>
        <time>2020-08-28T06:10:00Z</time>
      </trkpt>
      <trkpt lat="44.33732" lon="6.32129">
        <ele>1215.4</ele>
        <time>2020-08-28T06:10:05Z</time>
      </trkpt>
      <trkpt lat="44.33729" lon="6.32124">
        <ele>1216</ele>
        <time>2020-08-28T06:10:11Z</time>
      </trkpt>
      <trkpt lat="44.33725" lon="6.32119">
        <ele>1216.5</ele>
        <time>2020-08-28T06:10:17Z</time>
      </trkpt>
      <trkpt lat="44.33721" lon="6.32113">
        <ele>1217.1</ele>
        <time>2020-08-28T06:10:23Z</time>
      </trkpt>
      <trkpt lat="44.3372" lon="6.32104">
        <ele>1217.3</ele>
        <time>2020-08-28T06:10:29Z</time>
      </trkpt>
      <trkpt lat="44.33718" lon="6.32094">
        <ele>1217.7</ele>
        <time>2020-08-28T06:10:34Z</time>
      </trkpt>
      <trkpt lat="44.33718" lon="6.32084">
        <ele>1217.8</ele>
        <time>2020-08-28T06:10:40Z</time>
      </trkpt>
      <trkpt lat="44.33716" lon="6.32077">
        <ele>1222.2</ele>
        <time>2020-08-28T06:10:45Z</time>
      </trkpt>
      <trkpt lat="44.33713" lon="6.32068">
        <ele>1222.9</ele>
        <time>2020-08-28T06:10:51Z</time>
      </trkpt>
      <trkpt lat="44.33709" lon="6.32065">
        <ele>1223.5</ele>
        <time>2020-08-28T06:10:56Z</time>
      </trkpt>
      <trkpt lat="44.33703" lon="6.32062">
        <ele>1224.2</ele>
        <time>2020-08-28T06:11:02Z</time>
      </trkpt>
      <trkpt lat="44.33701" lon="6.3206">
        <ele>1224.5</ele>
        <time>2020-08-28T06:11:07Z</time>
      </trkpt>
      <trkpt lat="44.33696" lon="6.3206">
        <ele>1224.9</ele>
        <time>2020-08-28T06:11:12Z</time>
      </trkpt>
      <trkpt lat="44.33696" lon="6.32057">
        <ele>1224.9</ele>
        <time>2020-08-28T06:11:18Z</time>
      </trkpt>
      <trkpt lat="44.33694" lon="6.32054">
        <ele>1225.1</ele>
        <time>2020-08-28T06:11:24Z</time>
      </trkpt>
      <trkpt lat="44.33693" lon="6.32052">
        <ele>1225.2</ele>
        <time>2020-08-28T06:11:30Z</time>
      </trkpt>
      <trkpt lat="44.33696" lon="6.32049">
        <ele>1225.1</ele>
        <time>2020-08-28T06:11:35Z</time>
      </trkpt>
      <trkpt lat="44.33697" lon="6.32049">
        <ele>1225</ele>
        <time>2020-08-28T06:11:41Z</time>
      </trkpt>
      <trkpt lat="44.33697" lon="6.32049">
        <ele>1225</ele>
        <time>2020-08-28T06:11:46Z</time>
      </trkpt>
      <trkpt lat="44.33694" lon="6.32047">
        <ele>1225.3</ele>
        <time>2020-08-28T06:11:52Z</time>
      </trkpt>
      <trkpt lat="44.33688" lon="6.32048">
        <ele>1225.6</ele>
        <time>2020-08-28T06:11:57Z</time>
      </trkpt>
      <trkpt lat="44.33682" lon="6.32044">
        <ele>1226</ele>
        <time>2020-08-28T06:12:03Z</time>
      </trkpt>
      <trkpt lat="44.33675" lon="6.3204">
        <ele>1226.4</ele>
        <time>2020-08-28T06:12:09Z</time>
      </trkpt>
      <trkpt lat="44.33674" lon="6.32033">
        <ele>1226.7</ele>
        <time>2020-08-28T06:12:15Z</time>
      </trkpt>
      <trkpt lat="44.33672" lon="6.32026">
        <ele>1227.2</ele>
        <time>2020-08-28T06:12:21Z</time>
      </trkpt>
      <trkpt lat="44.3367" lon="6.32017">
        <ele>1228.1</ele>
        <time>2020-08-28T06:12:27Z</time>
      </trkpt>
      <trkpt lat="44.33667" lon="6.32014">
        <ele>1228.5</ele>
        <time>2020-08-28T06:12:33Z</time>
      </trkpt>
      <trkpt lat="44.33666" lon="6.32006">
        <ele>1235.3</ele>
        <time>2020-08-28T06:12:38Z</time>
      </trkpt>
      <trkpt lat="44.3366" lon="6.32001">
        <ele>1236</ele>
        <time>2020-08-28T06:12:44Z</time>
      </trkpt>
      <trkpt lat="44.33661" lon="6.31998">
        <ele>1235.5</ele>
        <time>2020-08-28T06:12:50Z</time>
      </trkpt>
      <trkpt lat="44.33661" lon="6.31992">
        <ele>1237.6</ele>
        <time>2020-08-28T06:12:56Z</time>
      </trkpt>
      <trkpt lat="44.33659" lon="6.31985">
        <ele>1240.8</ele>
        <time>2020-08-28T06:13:01Z</time>
      </trkpt>
      <trkpt lat="44.33658" lon="6.31978">
        <ele>1242.8</ele>
        <time>2020-08-28T06:13:06Z</time>
      </trkpt>
      <trkpt lat="44.33655" lon="6.31971">
        <ele>1244.5</ele>
        <time>2020-08-28T06:13:12Z</time>
      </trkpt>
      <trkpt lat="44.33652" lon="6.31964">
        <ele>1245.7</ele>
        <time>2020-08-28T06:13:18Z</time>
      </trkpt>
      <trkpt lat="44.33651" lon="6.31963">
        <ele>1245.9</ele>
        <time>2020-08-28T06:13:24Z</time>
      </trkpt>
      <trkpt lat="44.3365" lon="6.31958">
        <ele>1246.3</ele>
        <time>2020-08-28T06:13:29Z</time>
      </trkpt>
      <trkpt lat="44.33648" lon="6.31953">
        <ele>1246.6</ele>
        <time>2020-08-28T06:13:35Z</time>
      </trkpt>
      <trkpt lat="44.33647" lon="6.31947">
        <ele>1246.6</ele>
        <time>2020-08-28T06:13:41Z</time>
      </trkpt>
      <trkpt lat="44.33641" lon="6.31944">
        <ele>1247.6</ele>
        <time>2020-08-28T06:13:46Z</time>
      </trkpt>
      <trkpt lat="44.33643" lon="6.31944">
        <ele>1247.2</ele>
        <time>2020-08-28T06:13:52Z</time>
      </trkpt>
      <trkpt lat="44.33645" lon="6.31942">
        <ele>1246.7</ele>
        <time>2020-08-28T06:13:58Z</time>
      </trkpt>
      <trkpt lat="44.33646" lon="6.31941">
        <ele>1246.4</ele>
        <time>2020-08-28T06:14:03Z</time>
      </trkpt>
      <trkpt lat="44.33647" lon="6.31943">
        <ele>1246.3</ele>
        <time>2020-08-28T06:14:09Z</time>
      </trkpt>
      <trkpt lat="44.33651" lon="6.31939">
        <ele>1245.2</ele>
        <time>2020-08-28T06:14:15Z</time>
      </trkpt>
      <trkpt lat="44.33652" lon="6.31938">
        <ele>1244.9</ele>
        <time>2020-08-28T06:14:20Z</time>
      </trkpt>
      <trkpt lat="44.33653" lon="6.31935">
        <ele>1244.3</ele>
        <time>2020-08-28T06:14:26Z</time>
      </trkpt>
      <trkpt lat="44.33655" lon="6.31931">
        <ele>1243.2</ele>
        <time>2020-08-28T06:14:32Z</time>
      </trkpt>
      <trkpt lat="44.3365" lon="6.31926">
        <ele>1243.8</ele>
        <time>2020-08-28T06:14:38Z</time>
      </trkpt>
      <trkpt lat="44.33644" lon="6.31924">
        <ele>1245.5</ele>
        <time>2020-08-28T06:14:44Z</time>
      </trkpt>
      <trkpt lat="44.33642" lon="6.31924">
        <ele>1246.1</ele>
        <time>2020-08-28T06:14:49Z</time>
      </trkpt>
      <trkpt lat="44.33642" lon="6.31922">
        <ele>1246</ele>
        <time>2020-08-28T06:14:55Z</time>
      </trkpt>
      <trkpt lat="44.33638" lon="6.31922">
        <ele>1247.3</ele>
        <time>2020-08-28T06:15:00Z</time>
      </trkpt>
      <trkpt lat="44.33631" lon="6.31924">
        <ele>1249.4</ele>
        <time>2020-08-28T06:15:06Z</time>
      </trkpt>
      <trkpt lat="44.33625" lon="6.31926">
        <ele>1251.2</ele>
        <time>2020-08-28T06:15:12Z</time>
      </trkpt>
      <trkpt lat="44.33625" lon="6.3193">
        <ele>1251.2</ele>
        <time>2020-08-28T06:15:18Z</time>
      </trkpt>
      <trkpt lat="44.33625" lon="6.31934">
        <ele>1251.2</ele>
        <time>2020-08-28T06:15:23Z</time>
      </trkpt>
      <trkpt lat="44.33622" lon="6.31939">
        <ele>1251.9</ele>
        <time>2020-08-28T06:15:29Z</time>
      </trkpt>
      <trkpt lat="44.33622" lon="6.31942">
        <ele>1251.9</ele>
        <time>2020-08-28T06:15:35Z</time>
      </trkpt>
      <trkpt lat="44.33621" lon="6.31944">
        <ele>1252.1</ele>
        <time>2020-08-28T06:15:41Z</time>
      </trkpt>
      <trkpt lat="44.3362" lon="6.31945">
        <ele>1252.3</ele>
        <time>2020-08-28T06:15:46Z</time>
      </trkpt>
      <trkpt lat="44.33618" lon="6.31946">
        <ele>1252.8</ele>
        <time>2020-08-28T06:15:52Z</time>
      </trkpt>
      <trkpt lat="44.33617" lon="6.31945">
        <ele>1253</ele>
        <time>2020-08-28T06:15:58Z</time>
      </trkpt>
      <trkpt lat="44.33609" lon="6.31942">
        <ele>1254.9</ele>
        <time>2020-08-28T06:16:03Z</time>
      </trkpt>
      <trkpt lat="44.33605" lon="6.31941">
        <ele>1255.8</ele>
        <time>2020-08-28T06:16:09Z</time>
      </trkpt>
      <trkpt lat="44.33602" lon="6.31938">
        <ele>1256.6</ele>
        <time>2020-08-28T06:16:14Z</time>
      </trkpt>
      <trkpt lat="44.33599" lon="6.31938">
        <ele>1257.2</ele>
        <time>2020-08-28T06:16:20Z</time>
      </trkpt>
      <trkpt lat="44.33597" lon="6.31939">
        <ele>1257.5</ele>
        <time>2020-08-28T06:16:26Z</time>
      </trkpt>
      <trkpt lat="44.33593" lon="6.31935">
        <ele>1258.8</ele>
        <time>2020-08-28T06:16:32Z</time>
      </trkpt>
      <trkpt lat="44.33593" lon="6.31931">
        <ele>1259.5</ele>
        <time>2020-08-28T06:16:37Z</time>
      </trkpt>
      <trkpt lat="44.33592" lon="6.31925">
        <ele>1261.1</ele>
        <time>2020-08-28T06:16:43Z</time>
      </trkpt>
      <trkpt lat="44.33589" lon="6.31922">
        <ele>1262.9</ele>
        <time>2020-08-28T06:16:49Z</time>
      </trkpt>
      <trkpt lat="44.33589" lon="6.31922">
        <ele>1262.9</ele>
        <time>2020-08-28T06:16:54Z</time>
      </trkpt>
      <trkpt lat="44.33589" lon="6.3192">
        <ele>1263.4</ele>
        <time>2020-08-28T06:16:59Z</time>
      </trkpt>
      <trkpt lat="44.33585" lon="6.31915">
        <ele>1265.9</ele>
        <time>2020-08-28T06:17:05Z</time>
      </trkpt>
      <trkpt lat="44.33591" lon="6.31911">
        <ele>1263.3</ele>
        <time>2020-08-28T06:17:11Z</time>
      </trkpt>
      <trkpt lat="44.33593" lon="6.31909">
        <ele>1262.5</ele>
        <time>2020-08-28T06:17:16Z</time>
      </trkpt>
      <trkpt lat="44.33595" lon="6.3191">
        <ele>1262.1</ele>
        <time>2020-08-28T06:17:21Z</time>
      </trkpt>
      <trkpt lat="44.33592" lon="6.31908">
        <ele>1262.5</ele>
        <time>2020-08-28T06:17:27Z</time>
      </trkpt>
      <trkpt lat="44.33589" lon="6.31908">
        <ele>1263.2</ele>
        <time>2020-08-28T06:17:32Z</time>
      </trkpt>
      <trkpt lat="44.33588" lon="6.31906">
        <ele>1262.9</ele>
        <time>2020-08-28T06:17:38Z</time>
      </trkpt>
      <trkpt lat="44.33589" lon="6.31905">
        <ele>1262.6</ele>
        <time>2020-08-28T06:17:44Z</time>
      </trkpt>
      <trkpt lat="44.33591" lon="6.31901">
        <ele>1261.6</ele>
        <time>2020-08-28T06:17:49Z</time>
      </trkpt>
      <trkpt lat="44.3359" lon="6.31899">
        <ele>1261.4</ele>
        <time>2020-08-28T06:17:54Z</time>
      </trkpt>
      <trkpt lat="44.33593" lon="6.31899">
        <ele>1261</ele>
        <time>2020-08-28T06:18:00Z</time>
      </trkpt>
      <trkpt lat="44.3359" lon="6.31898">
        <ele>1261.3</ele>
        <time>2020-08-28T06:18:06Z</time>
      </trkpt>
      <trkpt lat="44.3359" lon="6.31895">
        <ele>1261</ele>
        <time>2020-08-28T06:18:11Z</time>
      </trkpt>
      <trkpt lat="44.33592" lon="6.31892">
        <ele>1260.5</ele>
        <time>2020-08-28T06:18:17Z</time>
      </trkpt>
      <trkpt lat="44.33588" lon="6.31892">
        <ele>1260.9</ele>
        <time>2020-08-28T06:18:23Z</time>
      </trkpt>
      <trkpt lat="44.33585" lon="6.31889">
        <ele>1260.9</ele>
        <time>2020-08-28T06:18:28Z</time>
      </trkpt>
      <trkpt lat="44.33579" lon="6.31888">
        <ele>1279.6</ele>
        <time>2020-08-28T06:18:33Z</time>
      </trkpt>
      <trkpt lat="44.33577" lon="6.31885">
        <ele>1280.2</ele>
        <time>2020-08-28T06:18:39Z</time>
      </trkpt>
      <trkpt lat="44.33574" lon="6.31885">
        <ele>1280.6</ele>
        <time>2020-08-28T06:18:44Z</time>
      </trkpt>
      <trkpt lat="44.33574" lon="6.31884">
        <ele>1280.7</ele>
        <time>2020-08-28T06:18:49Z</time>
      </trkpt>
      <trkpt lat="44.33576" lon="6.31881">
        <ele>1280.7</ele>
        <time>2020-08-28T06:18:54Z</time>
      </trkpt>
      <trkpt lat="44.33575" lon="6.31877">
        <ele>1281</ele>
        <time>2020-08-28T06:19:00Z</time>
      </trkpt>
      <trkpt lat="44.33572" lon="6.31875">
        <ele>1281.5</ele>
        <time>2020-08-28T06:19:06Z</time>
      </trkpt>
      <trkpt lat="44.33571" lon="6.31873">
        <ele>1281.6</ele>
        <time>2020-08-28T06:19:11Z</time>
      </trkpt>
      <trkpt lat="44.33573" lon="6.31868">
        <ele>1281.2</ele>
        <time>2020-08-28T06:19:16Z</time>
      </trkpt>
      <trkpt lat="44.33571" lon="6.31862">
        <ele>1281.1</ele>
        <time>2020-08-28T06:19:22Z</time>
      </trkpt>
      <trkpt lat="44.33573" lon="6.31859">
        <ele>1280.5</ele>
        <time>2020-08-28T06:19:27Z</time>
      </trkpt>
      <trkpt lat="44.3357" lon="6.31854">
        <ele>1280.3</ele>
        <time>2020-08-28T06:19:33Z</time>
      </trkpt>
      <trkpt lat="44.33568" lon="6.31853">
        <ele>1280.6</ele>
        <time>2020-08-28T06:19:38Z</time>
      </trkpt>
      <trkpt lat="44.33568" lon="6.31851">
        <ele>1280.3</ele>
        <time>2020-08-28T06:19:44Z</time>
      </trkpt>
      <trkpt lat="44.33565" lon="6.31846">
        <ele>1280.3</ele>
        <time>2020-08-28T06:19:50Z</time>
      </trkpt>
      <trkpt lat="44.3357" lon="6.31841">
        <ele>1278.2</ele>
        <time>2020-08-28T06:19:56Z</time>
      </trkpt>
      <trkpt lat="44.33571" lon="6.31838">
        <ele>1277.4</ele>
        <time>2020-08-28T06:20:01Z</time>
      </trkpt>
      <trkpt lat="44.33567" lon="6.31831">
        <ele>1276.7</ele>
        <time>2020-08-28T06:20:07Z</time>
      </trkpt>
      <trkpt lat="44.33569" lon="6.31826">
        <ele>1276.4</ele>
        <time>2020-08-28T06:20:13Z</time>
      </trkpt>
      <trkpt lat="44.33569" lon="6.31822">
        <ele>1276.9</ele>
        <time>2020-08-28T06:20:19Z</time>
      </trkpt>
      <trkpt lat="44.3357" lon="6.31816">
        <ele>1277.3</ele>
        <time>2020-08-28T06:20:25Z</time>
      </trkpt>
      <trkpt lat="44.33567" lon="6.31815">
        <ele>1277.9</ele>
        <time>2020-08-28T06:20:30Z</time>
      </trkpt>
      <trkpt lat="44.33567" lon="6.3181">
        <ele>1278.3</ele>
        <time>2020-08-28T06:20:36Z</time>
      </trkpt>
      <trkpt lat="44.33568" lon="6.31805">
        <ele>1278.4</ele>
        <time>2020-08-28T06:20:42Z</time>
      </trkpt>
      <trkpt lat="44.33567" lon="6.31801">
        <ele>1278.7</ele>
        <time>2020-08-28T06:20:48Z</time>
      </trkpt>
      <trkpt lat="44.33565" lon="6.31797">
        <ele>1279</ele>
        <time>2020-08-28T06:20:54Z</time>
      </trkpt>
      <trkpt lat="44.33563" lon="6.31797">
        <ele>1279.2</ele>
        <time>2020-08-28T06:21:00Z</time>
      </trkpt>
      <trkpt lat="44.33564" lon="6.31796">
        <ele>1279.1</ele>
        <time>2020-08-28T06:21:05Z</time>
      </trkpt>
      <trkpt lat="44.33566" lon="6.31795">
        <ele>1278.9</ele>
        <time>2020-08-28T06:21:11Z</time>
      </trkpt>
      <trkpt lat="44.33567" lon="6.31796">
        <ele>1278.8</ele>
        <time>2020-08-28T06:21:17Z</time>
      </trkpt>
      <trkpt lat="44.33567" lon="6.31798">
        <ele>1278.8</ele>
        <time>2020-08-28T06:21:23Z</time>
      </trkpt>
      <trkpt lat="44.33568" lon="6.31801">
        <ele>1278.6</ele>
        <time>2020-08-28T06:21:29Z</time>
      </trkpt>
      <trkpt lat="44.33567" lon="6.31801">
        <ele>1278.7</ele>
        <time>2020-08-28T06:21:35Z</time>
      </trkpt>
      <trkpt lat="44.33566" lon="6.31801">
        <ele>1278.8</ele>
        <time>2020-08-28T06:21:41Z</time>
      </trkpt>
      <trkpt lat="44.33565" lon="6.31801">
        <ele>1278.9</ele>
        <time>2020-08-28T06:21:46Z</time>
      </trkpt>
      <trkpt lat="44.33559" lon="6.318">
        <ele>1279.6</ele>
        <time>2020-08-28T06:21:52Z</time>
      </trkpt>
      <trkpt lat="44.33557" lon="6.318">
        <ele>1279.9</ele>
        <time>2020-08-28T06:21:58Z</time>
      </trkpt>
      <trkpt lat="44.33556" lon="6.31799">
        <ele>1280</ele>
        <time>2020-08-28T06:22:03Z</time>
      </trkpt>
      <trkpt lat="44.33556" lon="6.31799">
        <ele>1280</ele>
        <time>2020-08-28T06:22:09Z</time>
      </trkpt>
      <trkpt lat="44.33551" lon="6.31799">
        <ele>1280.7</ele>
        <time>2020-08-28T06:22:14Z</time>
      </trkpt>
      <trkpt lat="44.33547" lon="6.318">
        <ele>1281.2</ele>
        <time>2020-08-28T06:22:20Z</time>
      </trkpt>
      <trkpt lat="44.33546" lon="6.31801">
        <ele>1281.4</ele>
        <time>2020-08-28T06:22:25Z</time>
      </trkpt>
      <trkpt lat="44.33542" lon="6.31802">
        <ele>1282</ele>
        <time>2020-08-28T06:22:31Z</time>
      </trkpt>
      <trkpt lat="44.33539" lon="6.31804">
        <ele>1282.5</ele>
        <time>2020-08-28T06:22:37Z</time>
      </trkpt>
      <trkpt lat="44.33529" lon="6.31806">
        <ele>1284.1</ele>
        <time>2020-08-28T06:22:43Z</time>
      </trkpt>
      <trkpt lat="44.33534" lon="6.31807">
        <ele>1283.4</ele>
        <time>2020-08-28T06:22:48Z</time>
      </trkpt>
      <trkpt lat="44.33535" lon="6.31807">
        <ele>1283.2</ele>
        <time>2020-08-28T06:22:54Z</time>
      </trkpt>
      <trkpt lat="44.33535" lon="6.31807">
        <ele>1283.2</ele>
        <time>2020-08-28T06:23:00Z</time>
      </trkpt>
      <trkpt lat="44.33535" lon="6.31807">
        <ele>1283.2</ele>
        <time>2020-08-28T06:23:05Z</time>
      </trkpt>
      <trkpt lat="44.33535" lon="6.31808">
        <ele>1283.3</ele>
        <time>2020-08-28T06:23:11Z</time>
      </trkpt>
      <trkpt lat="44.33534" lon="6.3181">
        <ele>1283.5</ele>
        <time>2020-08-28T06:23:16Z</time>
      </trkpt>
      <trkpt lat="44.33531" lon="6.31809">
        <ele>1284</ele>
        <time>2020-08-28T06:23:22Z</time>
      </trkpt>
      <trkpt lat="44.33529" lon="6.31806">
        <ele>1284.1</ele>
        <time>2020-08-28T06:23:27Z</time>
      </trkpt>
      <trkpt lat="44.33525" lon="6.31805">
        <ele>1284.7</ele>
        <time>2020-08-28T06:23:33Z</time>
      </trkpt>
      <trkpt lat="44.33518" lon="6.31802">
        <ele>1285.4</ele>
        <time>2020-08-28T06:23:39Z</time>
      </trkpt>
      <trkpt lat="44.3351" lon="6.31802">
        <ele>1286.2</ele>
        <time>2020-08-28T06:23:45Z</time>
      </trkpt>
      <trkpt lat="44.33505" lon="6.31802">
        <ele>1286.7</ele>
        <time>2020-08-28T06:23:50Z</time>
      </trkpt>
      <trkpt lat="44.335" lon="6.318">
        <ele>1286.7</ele>
        <time>2020-08-28T06:23:55Z</time>
      </trkpt>
      <trkpt lat="44.33494" lon="6.318">
        <ele>1299.7</ele>
        <time>2020-08-28T06:24:01Z</time>
      </trkpt>
      <trkpt lat="44.3349" lon="6.31803">
        <ele>1300.1</ele>
        <time>2020-08-28T06:24:07Z</time>
      </trkpt>
      <trkpt lat="44.33482" lon="6.31803">
        <ele>1300.8</ele>
        <time>2020-08-28T06:24:13Z</time>
      </trkpt>
      <trkpt lat="44.33475" lon="6.31799">
        <ele>1301.3</ele>
        <time>2020-08-28T06:24:19Z</time>
      </trkpt>
      <trkpt lat="44.33471" lon="6.31795">
        <ele>1301.5</ele>
        <time>2020-08-28T06:24:24Z</time>
      </trkpt>
      <trkpt lat="44.33462" lon="6.31795">
        <ele>1302.6</ele>
        <time>2020-08-28T06:24:30Z</time>
      </trkpt>
      <trkpt lat="44.33459" lon="6.31793">
        <ele>1302.8</ele>
        <time>2020-08-28T06:24:35Z</time>
      </trkpt>
      <trkpt lat="44.33453" lon="6.31793">
        <ele>1303.5</ele>
        <time>2020-08-28T06:24:41Z</time>
      </trkpt>
      <trkpt lat="44.33444" lon="6.31794">
        <ele>1304.7</ele>
        <time>2020-08-28T06:24:47Z</time>
      </trkpt>
      <trkpt lat="44.33438" lon="6.31794">
        <ele>1305.4</ele>
        <time>2020-08-28T06:24:52Z</time>
      </trkpt>
      <trkpt lat="44.33432" lon="6.3179">
        <ele>1305.4</ele>
        <time>2020-08-28T06:24:58Z</time>
      </trkpt>
      <trkpt lat="44.33423" lon="6.31786">
        <ele>1305.5</ele>
        <time>2020-08-28T06:25:04Z</time>
      </trkpt>
      <trkpt lat="44.33422" lon="6.31788">
        <ele>1305.8</ele>
        <time>2020-08-28T06:25:10Z</time>
      </trkpt>
      <trkpt lat="44.33418" lon="6.31782">
        <ele>1305.2</ele>
        <time>2020-08-28T06:25:16Z</time>
      </trkpt>
      <trkpt lat="44.33412" lon="6.31779">
        <ele>1317.2</ele>
        <time>2020-08-28T06:25:22Z</time>
      </trkpt>
      <trkpt lat="44.33412" lon="6.31774">
        <ele>1315.7</ele>
        <time>2020-08-28T06:25:28Z</time>
      </trkpt>
      <trkpt lat="44.33405" lon="6.3177">
        <ele>1315.5</ele>
        <time>2020-08-28T06:25:34Z</time>
      </trkpt>
      <trkpt lat="44.33402" lon="6.31764">
        <ele>1314.4</ele>
        <time>2020-08-28T06:25:40Z</time>
      </trkpt>
      <trkpt lat="44.33397" lon="6.31758">
        <ele>1314.7</ele>
        <time>2020-08-28T06:25:46Z</time>
      </trkpt>
      <trkpt lat="44.33394" lon="6.31754">
        <ele>1315.1</ele>
        <time>2020-08-28T06:25:52Z</time>
      </trkpt>
      <trkpt lat="44.33393" lon="6.31748">
        <ele>1308.7</ele>
        <time>2020-08-28T06:25:58Z</time>
      </trkpt>
      <trkpt lat="44.33392" lon="6.31744">
        <ele>1308.9</ele>
        <time>2020-08-28T06:26:03Z</time>
      </trkpt>
      <trkpt lat="44.33393" lon="6.31741">
        <ele>1308.9</ele>
        <time>2020-08-28T06:26:08Z</time>
      </trkpt>
      <trkpt lat="44.33396" lon="6.31738">
        <ele>1308.6</ele>
        <time>2020-08-28T06:26:13Z</time>
      </trkpt>
      <trkpt lat="44.33395" lon="6.31733">
        <ele>1309</ele>
        <time>2020-08-28T06:26:18Z</time>
      </trkpt>
      <trkpt lat="44.33397" lon="6.31734">
        <ele>1308.7</ele>
        <time>2020-08-28T06:26:24Z</time>
      </trkpt>
      <trkpt lat="44.33396" lon="6.31732">
        <ele>1309</ele>
        <time>2020-08-28T06:26:29Z</time>
      </trkpt>
      <trkpt lat="44.33395" lon="6.31727">
        <ele>1309.4</ele>
        <time>2020-08-28T06:26:35Z</time>
      </trkpt>
      <trkpt lat="44.33392" lon="6.31726">
        <ele>1309.7</ele>
        <time>2020-08-28T06:26:40Z</time>
      </trkpt>
      <trkpt lat="44.33391" lon="6.31723">
        <ele>1309.9</ele>
        <time>2020-08-28T06:26:46Z</time>
      </trkpt>
      <trkpt lat="44.33393" lon="6.31721">
        <ele>1309.8</ele>
        <time>2020-08-28T06:26:51Z</time>
      </trkpt>
      <trkpt lat="44.33391" lon="6.3172">
        <ele>1310</ele>
        <time>2020-08-28T06:26:57Z</time>
      </trkpt>
      <trkpt lat="44.33387" lon="6.31723">
        <ele>1310.3</ele>
        <time>2020-08-28T06:27:03Z</time>
      </trkpt>
      <trkpt lat="44.33383" lon="6.31722">
        <ele>1310.6</ele>
        <time>2020-08-28T06:27:09Z</time>
      </trkpt>
      <trkpt lat="44.33382" lon="6.31722">
        <ele>1310.7</ele>
        <time>2020-08-28T06:27:14Z</time>
      </trkpt>
      <trkpt lat="44.3338" lon="6.31725">
        <ele>1310.8</ele>
        <time>2020-08-28T06:27:20Z</time>
      </trkpt>
      <trkpt lat="44.33377" lon="6.31724">
        <ele>1311.1</ele>
        <time>2020-08-28T06:27:25Z</time>
      </trkpt>
      <trkpt lat="44.33376" lon="6.31723">
        <ele>1311.2</ele>
        <time>2020-08-28T06:27:31Z</time>
      </trkpt>
      <trkpt lat="44.33379" lon="6.31719">
        <ele>1311</ele>
        <time>2020-08-28T06:27:37Z</time>
      </trkpt>
      <trkpt lat="44.33381" lon="6.31719">
        <ele>1310.8</ele>
        <time>2020-08-28T06:27:42Z</time>
      </trkpt>
      <trkpt lat="44.33379" lon="6.31719">
        <ele>1311</ele>
        <time>2020-08-28T06:27:48Z</time>
      </trkpt>
      <trkpt lat="44.33381" lon="6.31717">
        <ele>1310.8</ele>
        <time>2020-08-28T06:27:54Z</time>
      </trkpt>
      <trkpt lat="44.33379" lon="6.31716">
        <ele>1311</ele>
        <time>2020-08-28T06:27:59Z</time>
      </trkpt>
      <trkpt lat="44.3338" lon="6.31715">
        <ele>1310.9</ele>
        <time>2020-08-28T06:28:05Z</time>
      </trkpt>
      <trkpt lat="44.33379" lon="6.31715">
        <ele>1311</ele>
        <time>2020-08-28T06:28:10Z</time>
      </trkpt>
      <trkpt lat="44.33379" lon="6.31716">
        <ele>1311</ele>
        <time>2020-08-28T06:28:16Z</time>
      </trkpt>
      <trkpt lat="44.33379" lon="6.31716">
        <ele>1311</ele>
        <time>2020-08-28T06:28:21Z</time>
      </trkpt>
      <trkpt lat="44.33378" lon="6.31718">
        <ele>1311.1</ele>
        <time>2020-08-28T06:28:27Z</time>
      </trkpt>
      <trkpt lat="44.33375" lon="6.31721">
        <ele>1311.3</ele>
        <time>2020-08-28T06:28:33Z</time>
      </trkpt>
      <trkpt lat="44.3337" lon="6.31718">
        <ele>1311.7</ele>
        <time>2020-08-28T06:28:38Z</time>
      </trkpt>
      <trkpt lat="44.33368" lon="6.31714">
        <ele>1311.7</ele>
        <time>2020-08-28T06:28:44Z</time>
      </trkpt>
      <trkpt lat="44.33369" lon="6.31712">
        <ele>1311.6</ele>
        <time>2020-08-28T06:28:49Z</time>
      </trkpt>
      <trkpt lat="44.33368" lon="6.3171">
        <ele>1311.7</ele>
        <time>2020-08-28T06:28:54Z</time>
      </trkpt>
      <trkpt lat="44.33369" lon="6.31707">
        <ele>1311.6</ele>
        <time>2020-08-28T06:29:00Z</time>
      </trkpt>
      <trkpt lat="44.33369" lon="6.31704">
        <ele>1311.5</ele>
        <time>2020-08-28T06:29:05Z</time>
      </trkpt>
      <trkpt lat="44.33366" lon="6.31702">
        <ele>1311.7</ele>
        <time>2020-08-28T06:29:10Z</time>
      </trkpt>
      <trkpt lat="44.33363" lon="6.31699">
        <ele>1311.7</ele>
        <time>2020-08-28T06:29:15Z</time>
      </trkpt>
      <trkpt lat="44.3336" lon="6.3169">
        <ele>1311.7</ele>
        <time>2020-08-28T06:29:21Z</time>
      </trkpt>
      <trkpt lat="44.33358" lon="6.31683">
        <ele>1311.7</ele>
        <time>2020-08-28T06:29:26Z</time>
      </trkpt>
      <trkpt lat="44.33357" lon="6.31674">
        <ele>1311.7</ele>
        <time>2020-08-28T06:29:32Z</time>
      </trkpt>
      <trkpt lat="44.33361" lon="6.31663">
        <ele>1317.2</ele>
        <time>2020-08-28T06:29:38Z</time>
      </trkpt>
      <trkpt lat="44.33361" lon="6.3166">
        <ele>1317.4</ele>
        <time>2020-08-28T06:29:44Z</time>
      </trkpt>
      <trkpt lat="44.33359" lon="6.31655">
        <ele>1317.6</ele>
        <time>2020-08-28T06:29:49Z</time>
      </trkpt>
      <trkpt lat="44.33356" lon="6.31653">
        <ele>1317.6</ele>
        <time>2020-08-28T06:29:55Z</time>
      </trkpt>
      <trkpt lat="44.33353" lon="6.31648">
        <ele>1317.9</ele>
        <time>2020-08-28T06:30:01Z</time>
      </trkpt>
      <trkpt lat="44.3335" lon="6.31642">
        <ele>1318.5</ele>
        <time>2020-08-28T06:30:07Z</time>
      </trkpt>
      <trkpt lat="44.33349" lon="6.31639">
        <ele>1318.8</ele>
        <time>2020-08-28T06:30:12Z</time>
      </trkpt>
      <trkpt lat="44.3335" lon="6.31639">
        <ele>1318.9</ele>
        <time>2020-08-28T06:30:18Z</time>
      </trkpt>
      <trkpt lat="44.33353" lon="6.31638">
        <ele>1319.2</ele>
        <time>2020-08-28T06:30:24Z</time>
      </trkpt>
      <trkpt lat="44.33353" lon="6.31637">
        <ele>1319.3</ele>
        <time>2020-08-28T06:30:30Z</time>
      </trkpt>
      <trkpt lat="44.33353" lon="6.31637">
        <ele>1319.3</ele>
        <time>2020-08-28T06:30:36Z</time>
      </trkpt>
      <trkpt lat="44.33353" lon="6.31636">
        <ele>1319.4</ele>
        <time>2020-08-28T06:30:41Z</time>
      </trkpt>
      <trkpt lat="44.33354" lon="6.31636">
        <ele>1319.5</ele>
        <time>2020-08-28T06:30:47Z</time>
      </trkpt>
      <trkpt lat="44.33354" lon="6.31633">
        <ele>1319.8</ele>
        <time>2020-08-28T06:30:53Z</time>
      </trkpt>
      <trkpt lat="44.33355" lon="6.31634">
        <ele>1319.7</ele>
        <time>2020-08-28T06:30:59Z</time>
      </trkpt>
      <trkpt lat="44.33355" lon="6.31631">
        <ele>1320.1</ele>
        <time>2020-08-28T06:31:05Z</time>
      </trkpt>
      <trkpt lat="44.33356" lon="6.31632">
        <ele>1320</ele>
        <time>2020-08-28T06:31:11Z</time>
      </trkpt>
      <trkpt lat="44.33356" lon="6.31627">
        <ele>1320.6</ele>
        <time>2020-08-28T06:31:16Z</time>
      </trkpt>
      <trkpt lat="44.33355" lon="6.31622">
        <ele>1321.2</ele>
        <time>2020-08-28T06:31:22Z</time>
      </trkpt>
      <trkpt lat="44.33353" lon="6.31625">
        <ele>1320.8</ele>
        <time>2020-08-28T06:31:28Z</time>
      </trkpt>
      <trkpt lat="44.33351" lon="6.31626">
        <ele>1320.6</ele>
        <time>2020-08-28T06:31:33Z</time>
      </trkpt>
      <trkpt lat="44.3335" lon="6.31628">
        <ele>1320.3</ele>
        <time>2020-08-28T06:31:38Z</time>
      </trkpt>
      <trkpt lat="44.33349" lon="6.31628">
        <ele>1320.3</ele>
        <time>2020-08-28T06:31:44Z</time>
      </trkpt>
      <trkpt lat="44.33349" lon="6.31626">
        <ele>1320.5</ele>
        <time>2020-08-28T06:31:50Z</time>
      </trkpt>
      <trkpt lat="44.33349" lon="6.31626">
        <ele>1320.5</ele>
        <time>2020-08-28T06:31:55Z</time>
      </trkpt>
      <trkpt lat="44.3335" lon="6.3163">
        <ele>1320.1</ele>
        <time>2020-08-28T06:32:00Z</time>
      </trkpt>
      <trkpt lat="44.33349" lon="6.31632">
        <ele>1319.8</ele>
        <time>2020-08-28T06:32:05Z</time>
      </trkpt>
      <trkpt lat="44.3335" lon="6.31631">
        <ele>1319.9</ele>
        <time>2020-08-28T06:32:10Z</time>
      </trkpt>
      <trkpt lat="44.33352" lon="6.31632">
        <ele>1319.9</ele>
        <time>2020-08-28T06:32:16Z</time>
      </trkpt>
      <trkpt lat="44.33352" lon="6.31633">
        <ele>1319.7</ele>
        <time>2020-08-28T06:32:21Z</time>
      </trkpt>
      <trkpt lat="44.33351" lon="6.31633">
        <ele>1319.7</ele>
        <time>2020-08-28T06:32:27Z</time>
      </trkpt>
      <trkpt lat="44.33351" lon="6.31632">
        <ele>1319.8</ele>
        <time>2020-08-28T06:32:33Z</time>
      </trkpt>
      <trkpt lat="44.33352" lon="6.31635">
        <ele>1319.5</ele>
        <time>2020-08-28T06:32:39Z</time>
      </trkpt>
      <trkpt lat="44.33353" lon="6.31633">
        <ele>1319.8</ele>
        <time>2020-08-28T06:32:45Z</time>
      </trkpt>
      <trkpt lat="44.33353" lon="6.31634">
        <ele>1319.7</ele>
        <time>2020-08-28T06:32:51Z</time>
      </trkpt>
      <trkpt lat="44.33355" lon="6.31633">
        <ele>1319.9</ele>
        <time>2020-08-28T06:32:57Z</time>
      </trkpt>
      <trkpt lat="44.33355" lon="6.31635">
        <ele>1319.6</ele>
        <time>2020-08-28T06:33:03Z</time>
      </trkpt>
      <trkpt lat="44.33355" lon="6.31634">
        <ele>1319.7</ele>
        <time>2020-08-28T06:33:09Z</time>
      </trkpt>
      <trkpt lat="44.33355" lon="6.31634">
        <ele>1319.7</ele>
        <time>2020-08-28T06:33:14Z</time>
      </trkpt>
      <trkpt lat="44.33353" lon="6.31634">
        <ele>1319.7</ele>
        <time>2020-08-28T06:33:20Z</time>
      </trkpt>
      <trkpt lat="44.33351" lon="6.31633">
        <ele>1319.7</ele>
        <time>2020-08-28T06:33:25Z</time>
      </trkpt>
      <trkpt lat="44.33349" lon="6.3163">
        <ele>1320</ele>
        <time>2020-08-28T06:33:31Z</time>
      </trkpt>
      <trkpt lat="44.33345" lon="6.31626">
        <ele>1320.4</ele>
        <time>2020-08-28T06:33:37Z</time>
      </trkpt>
      <trkpt lat="44.33342" lon="6.31621">
        <ele>1321</ele>
        <time>2020-08-28T06:33:42Z</time>
      </trkpt>
      <trkpt lat="44.33339" lon="6.31619">
        <ele>1321.2</ele>
        <time>2020-08-28T06:33:48Z</time>
      </trkpt>
      <trkpt lat="44.33338" lon="6.31619">
        <ele>1321.2</ele>
        <time>2020-08-28T06:33:53Z</time>
      </trkpt>
      <trkpt lat="44.33333" lon="6.31615">
        <ele>1326</ele>
        <time>2020-08-28T06:33:59Z</time>
      </trkpt>
      <trkpt lat="44.33328" lon="6.31613">
        <ele>1326.3</ele>
        <time>2020-08-28T06:34:04Z</time>
      </trkpt>
      <trkpt lat="44.33329" lon="6.31614">
        <ele>1326.2</ele>
        <time>2020-08-28T06:34:10Z</time>
      </trkpt>
      <trkpt lat="44.3333" lon="6.31613">
        <ele>1326.2</ele>
        <time>2020-08-28T06:34:16Z</time>
      </trkpt>
      <trkpt lat="44.33329" lon="6.31612">
        <ele>1326.3</ele>
        <time>2020-08-28T06:34:21Z</time>
      </trkpt>
      <trkpt lat="44.33329" lon="6.31612">
        <ele>1326.3</ele>
        <time>2020-08-28T06:34:27Z</time>
      </trkpt>
      <trkpt lat="44.33325" lon="6.31607">
        <ele>1326.6</ele>
        <time>2020-08-28T06:34:33Z</time>
      </trkpt>
      <trkpt lat="44.33324" lon="6.316">
        <ele>1326.7</ele>
        <time>2020-08-28T06:34:38Z</time>
      </trkpt>
      <trkpt lat="44.3332" lon="6.31592">
        <ele>1326.8</ele>
        <time>2020-08-28T06:34:44Z</time>
      </trkpt>
      <trkpt lat="44.33316" lon="6.3159">
        <ele>1327.2</ele>
        <time>2020-08-28T06:34:50Z</time>
      </trkpt>
      <trkpt lat="44.33314" lon="6.31586">
        <ele>1327.5</ele>
        <time>2020-08-28T06:34:55Z</time>
      </trkpt>
      <trkpt lat="44.33316" lon="6.31582">
        <ele>1331.9</ele>
        <time>2020-08-28T06:35:00Z</time>
      </trkpt>
      <trkpt lat="44.33314" lon="6.31579">
        <ele>1332.6</ele>
        <time>2020-08-28T06:35:06Z</time>
      </trkpt>
      <trkpt lat="44.33311" lon="6.31577">
        <ele>1333.5</ele>
        <time>2020-08-28T06:35:11Z</time>
      </trkpt>
      <trkpt lat="44.33307" lon="6.31575">
        <ele>1334.4</ele>
        <time>2020-08-28T06:35:17Z</time>
      </trkpt>
      <trkpt lat="44.33307" lon="6.31574">
        <ele>1334.5</ele>
        <time>2020-08-28T06:35:23Z</time>
      </trkpt>
      <trkpt lat="44.33307" lon="6.31574">
        <ele>1334.5</ele>
        <time>2020-08-28T06:35:28Z</time>
      </trkpt>
      <trkpt lat="44.33303" lon="6.31574">
        <ele>1335.1</ele>
        <time>2020-08-28T06:35:34Z</time>
      </trkpt>
      <trkpt lat="44.33298" lon="6.31576">
        <ele>1335.7</ele>
        <time>2020-08-28T06:35:40Z</time>
      </trkpt>
      <trkpt lat="44.33291" lon="6.31574">
        <ele>1336.6</ele>
        <time>2020-08-28T06:35:46Z</time>
      </trkpt>
      <trkpt lat="44.33289" lon="6.31572">
        <ele>1336.9</ele>
        <time>2020-08-28T06:35:52Z</time>
      </trkpt>
      <trkpt lat="44.33289" lon="6.3157">
        <ele>1337</ele>
        <time>2020-08-28T06:35:57Z</time>
      </trkpt>
      <trkpt lat="44.33289" lon="6.31571">
        <ele>1336.9</ele>
        <time>2020-08-28T06:36:03Z</time>
      </trkpt>
      <trkpt lat="44.33284" lon="6.31568">
        <ele>1337.5</ele>
        <time>2020-08-28T06:36:09Z</time>
      </trkpt>
      <trkpt lat="44.33281" lon="6.31564">
        <ele>1337.9</ele>
        <time>2020-08-28T06:36:14Z</time>
      </trkpt>
      <trkpt lat="44.33283" lon="6.3156">
        <ele>1337.9</ele>
        <time>2020-08-28T06:36:20Z</time>
      </trkpt>
      <trkpt lat="44.33281" lon="6.3156">
        <ele>1338</ele>
        <time>2020-08-28T06:36:26Z</time>
      </trkpt>
      <trkpt lat="44.3328" lon="6.31558">
        <ele>1338.2</ele>
        <time>2020-08-28T06:36:32Z</time>
      </trkpt>
      <trkpt lat="44.33281" lon="6.3155">
        <ele>1338.6</ele>
        <time>2020-08-28T06:36:37Z</time>
      </trkpt>
      <trkpt lat="44.33281" lon="6.31549">
        <ele>1338.7</ele>
        <time>2020-08-28T06:36:43Z</time>
      </trkpt>
      <trkpt lat="44.3328" lon="6.31548">
        <ele>1338.8</ele>
        <time>2020-08-28T06:36:49Z</time>
      </trkpt>
      <trkpt lat="44.3328" lon="6.31548">
        <ele>1338.8</ele>
        <time>2020-08-28T06:36:56Z</time>
      </trkpt>
      <trkpt lat="44.3328" lon="6.31548">
        <ele>1338.8</ele>
        <time>2020-08-28T06:37:01Z</time>
      </trkpt>
      <trkpt lat="44.3328" lon="6.31548">
        <ele>1338.8</ele>
        <time>2020-08-28T06:37:07Z</time>
      </trkpt>
      <trkpt lat="44.3328" lon="6.31548">
        <ele>1338.8</ele>
        <time>2020-08-28T06:37:12Z</time>
      </trkpt>
      <trkpt lat="44.3328" lon="6.31548">
        <ele>1338.8</ele>
        <time>2020-08-28T06:37:17Z</time>
      </trkpt>
      <trkpt lat="44.3328" lon="6.31548">
        <ele>1338.8</ele>
        <time>2020-08-28T06:37:22Z</time>
      </trkpt>
      <trkpt lat="44.33283" lon="6.31543">
        <ele>1339</ele>
        <time>2020-08-28T06:37:28Z</time>
      </trkpt>
      <trkpt lat="44.33285" lon="6.31532">
        <ele>1339.7</ele>
        <time>2020-08-28T06:37:34Z</time>
      </trkpt>
      <trkpt lat="44.33285" lon="6.31526">
        <ele>1340.1</ele>
        <time>2020-08-28T06:37:40Z</time>
      </trkpt>
      <trkpt lat="44.33285" lon="6.31521">
        <ele>1340.5</ele>
        <time>2020-08-28T06:37:45Z</time>
      </trkpt>
      <trkpt lat="44.33284" lon="6.31519">
        <ele>1340.6</ele>
        <time>2020-08-28T06:37:52Z</time>
      </trkpt>
      <trkpt lat="44.33284" lon="6.3152">
        <ele>1340.5</ele>
        <time>2020-08-28T06:37:58Z</time>
      </trkpt>
      <trkpt lat="44.33284" lon="6.3152">
        <ele>1340.5</ele>
        <time>2020-08-28T06:38:04Z</time>
      </trkpt>
      <trkpt lat="44.33284" lon="6.31519">
        <ele>1340.6</ele>
        <time>2020-08-28T06:38:09Z</time>
      </trkpt>
      <trkpt lat="44.33284" lon="6.31518">
        <ele>1340.7</ele>
        <time>2020-08-28T06:38:14Z</time>
      </trkpt>
      <trkpt lat="44.33284" lon="6.31518">
        <ele>1340.7</ele>
        <time>2020-08-28T06:38:20Z</time>
      </trkpt>
      <trkpt lat="44.33284" lon="6.31518">
        <ele>1340.7</ele>
        <time>2020-08-28T06:38:26Z</time>
      </trkpt>
      <trkpt lat="44.33284" lon="6.31518">
        <ele>1340.7</ele>
        <time>2020-08-28T06:38:32Z</time>
      </trkpt>
      <trkpt lat="44.33284" lon="6.31518">
        <ele>1340.7</ele>
        <time>2020-08-28T06:38:37Z</time>
      </trkpt>
      <trkpt lat="44.33285" lon="6.31517">
        <ele>1340.7</ele>
        <time>2020-08-28T06:38:42Z</time>
      </trkpt>
      <trkpt lat="44.33287" lon="6.31514">
        <ele>1340.8</ele>
        <time>2020-08-28T06:38:47Z</time>
      </trkpt>
      <trkpt lat="44.33284" lon="6.3151">
        <ele>1341.1</ele>
        <time>2020-08-28T06:38:53Z</time>
      </trkpt>
      <trkpt lat="44.33284" lon="6.31507">
        <ele>1341.2</ele>
        <time>2020-08-28T06:38:58Z</time>
      </trkpt>
      <trkpt lat="44.33284" lon="6.31506">
        <ele>1341.3</ele>
        <time>2020-08-28T06:39:04Z</time>
      </trkpt>
      <trkpt lat="44.33284" lon="6.31506">
        <ele>1341.3</ele>
        <time>2020-08-28T06:39:10Z</time>
      </trkpt>
      <trkpt lat="44.33285" lon="6.31504">
        <ele>1341.3</ele>
        <time>2020-08-28T06:39:15Z</time>
      </trkpt>
      <trkpt lat="44.33287" lon="6.31503">
        <ele>1341.3</ele>
        <time>2020-08-28T06:39:20Z</time>
      </trkpt>
      <trkpt lat="44.3329" lon="6.31504">
        <ele>1341.2</ele>
        <time>2020-08-28T06:39:26Z</time>
      </trkpt>
      <trkpt lat="44.33292" lon="6.31506">
        <ele>1341.1</ele>
        <time>2020-08-28T06:39:32Z</time>
      </trkpt>
      <trkpt lat="44.33294" lon="6.31504">
        <ele>1341.2</ele>
        <time>2020-08-28T06:39:37Z</time>
      </trkpt>
      <trkpt lat="44.33297" lon="6.31495">
        <ele>1353.9</ele>
        <time>2020-08-28T06:39:43Z</time>
      </trkpt>
      <trkpt lat="44.33295" lon="6.31493">
        <ele>1354</ele>
        <time>2020-08-28T06:39:49Z</time>
      </trkpt>
      <trkpt lat="44.33295" lon="6.31492">
        <ele>1354.1</ele>
        <time>2020-08-28T06:39:54Z</time>
      </trkpt>
      <trkpt lat="44.33295" lon="6.31492">
        <ele>1354.1</ele>
        <time>2020-08-28T06:40:00Z</time>
      </trkpt>
      <trkpt lat="44.33294" lon="6.31487">
        <ele>1354.6</ele>
        <time>2020-08-28T06:40:06Z</time>
      </trkpt>
      <trkpt lat="44.33295" lon="6.31484">
        <ele>1354.9</ele>
        <time>2020-08-28T06:40:11Z</time>
      </trkpt>
      <trkpt lat="44.33301" lon="6.31484">
        <ele>1354.9</ele>
        <time>2020-08-28T06:40:17Z</time>
      </trkpt>
      <trkpt lat="44.33303" lon="6.31483">
        <ele>1354.9</ele>
        <time>2020-08-28T06:40:22Z</time>
      </trkpt>
      <trkpt lat="44.33302" lon="6.31483">
        <ele>1355</ele>
        <time>2020-08-28T06:40:28Z</time>
      </trkpt>
      <trkpt lat="44.33303" lon="6.31481">
        <ele>1355.2</ele>
        <time>2020-08-28T06:40:34Z</time>
      </trkpt>
      <trkpt lat="44.33302" lon="6.3148">
        <ele>1355.4</ele>
        <time>2020-08-28T06:40:40Z</time>
      </trkpt>
      <trkpt lat="44.33304" lon="6.31481">
        <ele>1355.2</ele>
        <time>2020-08-28T06:40:46Z</time>
      </trkpt>
      <trkpt lat="44.33306" lon="6.3148">
        <ele>1355.2</ele>
        <time>2020-08-28T06:40:52Z</time>
      </trkpt>
      <trkpt lat="44.33312" lon="6.31478">
        <ele>1355.3</ele>
        <time>2020-08-28T06:40:58Z</time>
      </trkpt>
      <trkpt lat="44.33313" lon="6.31478">
        <ele>1355.3</ele>
        <time>2020-08-28T06:41:04Z</time>
      </trkpt>
      <trkpt lat="44.33314" lon="6.31475">
        <ele>1355.8</ele>
        <time>2020-08-28T06:41:09Z</time>
      </trkpt>
      <trkpt lat="44.33319" lon="6.31468">
        <ele>1357.2</ele>
        <time>2020-08-28T06:41:15Z</time>
      </trkpt>
      <trkpt lat="44.33321" lon="6.31462">
        <ele>1358.7</ele>
        <time>2020-08-28T06:41:20Z</time>
      </trkpt>
      <trkpt lat="44.33325" lon="6.3146">
        <ele>1359.2</ele>
        <time>2020-08-28T06:41:26Z</time>
      </trkpt>
      <trkpt lat="44.33328" lon="6.31459">
        <ele>1359.6</ele>
        <time>2020-08-28T06:41:32Z</time>
      </trkpt>
      <trkpt lat="44.33331" lon="6.3146">
        <ele>1359.3</ele>
        <time>2020-08-28T06:41:38Z</time>
      </trkpt>
      <trkpt lat="44.33334" lon="6.31458">
        <ele>1369.4</ele>
        <time>2020-08-28T06:41:44Z</time>
      </trkpt>
      <trkpt lat="44.33336" lon="6.3146">
        <ele>1368.9</ele>
        <time>2020-08-28T06:41:49Z</time>
      </trkpt>
      <trkpt lat="44.33338" lon="6.31459">
        <ele>1369.3</ele>
        <time>2020-08-28T06:41:54Z</time>
      </trkpt>
      <trkpt lat="44.3334" lon="6.31461">
        <ele>1368.9</ele>
        <time>2020-08-28T06:42:00Z</time>
      </trkpt>
      <trkpt lat="44.33345" lon="6.31463">
        <ele>1368.8</ele>
        <time>2020-08-28T06:42:05Z</time>
      </trkpt>
      <trkpt lat="44.33349" lon="6.31463">
        <ele>1369.2</ele>
        <time>2020-08-28T06:42:11Z</time>
      </trkpt>
      <trkpt lat="44.33353" lon="6.31465">
        <ele>1369.2</ele>
        <time>2020-08-28T06:42:16Z</time>
      </trkpt>
      <trkpt lat="44.33357" lon="6.31467">
        <ele>1369.3</ele>
        <time>2020-08-28T06:42:21Z</time>
      </trkpt>
      <trkpt lat="44.33361" lon="6.31473">
        <ele>1368.6</ele>
        <time>2020-08-28T06:42:27Z</time>
      </trkpt>
      <trkpt lat="44.33367" lon="6.31472">
        <ele>1369.9</ele>
        <time>2020-08-28T06:42:32Z</time>
      </trkpt>
      <trkpt lat="44.3337" lon="6.31476">
        <ele>1369.7</ele>
        <time>2020-08-28T06:42:37Z</time>
      </trkpt>
      <trkpt lat="44.33372" lon="6.31478">
        <ele>1369.7</ele>
        <time>2020-08-28T06:42:42Z</time>
      </trkpt>
      <trkpt lat="44.33371" lon="6.31483">
        <ele>1368.7</ele>
        <time>2020-08-28T06:42:48Z</time>
      </trkpt>
      <trkpt lat="44.33371" lon="6.31483">
        <ele>1368.7</ele>
        <time>2020-08-28T06:42:53Z</time>
      </trkpt>
      <trkpt lat="44.33372" lon="6.31483">
        <ele>1368.9</ele>
        <time>2020-08-28T06:42:59Z</time>
      </trkpt>
      <trkpt lat="44.33373" lon="6.31483">
        <ele>1369.1</ele>
        <time>2020-08-28T06:43:04Z</time>
      </trkpt>
      <trkpt lat="44.33374" lon="6.31484">
        <ele>1369.2</ele>
        <time>2020-08-28T06:43:11Z</time>
      </trkpt>
      <trkpt lat="44.3338" lon="6.31482">
        <ele>1370.5</ele>
        <time>2020-08-28T06:43:16Z</time>
      </trkpt>
      <trkpt lat="44.33384" lon="6.31483">
        <ele>1370.9</ele>
        <time>2020-08-28T06:43:21Z</time>
      </trkpt>
      <trkpt lat="44.33387" lon="6.31484">
        <ele>1371.2</ele>
        <time>2020-08-28T06:43:26Z</time>
      </trkpt>
      <trkpt lat="44.33386" lon="6.31485">
        <ele>1370.9</ele>
        <time>2020-08-28T06:43:32Z</time>
      </trkpt>
      <trkpt lat="44.33385" lon="6.31488">
        <ele>1370.5</ele>
        <time>2020-08-28T06:43:38Z</time>
      </trkpt>
      <trkpt lat="44.33385" lon="6.31488">
        <ele>1370.5</ele>
        <time>2020-08-28T06:43:43Z</time>
      </trkpt>
      <trkpt lat="44.33385" lon="6.31488">
        <ele>1370.5</ele>
        <time>2020-08-28T06:43:48Z</time>
      </trkpt>
      <trkpt lat="44.33386" lon="6.31489">
        <ele>1370.5</ele>
        <time>2020-08-28T06:43:54Z</time>
      </trkpt>
      <trkpt lat="44.33386" lon="6.31489">
        <ele>1370.5</ele>
        <time>2020-08-28T06:43:59Z</time>
      </trkpt>
      <trkpt lat="44.33386" lon="6.31489">
        <ele>1370.5</ele>
        <time>2020-08-28T06:44:05Z</time>
      </trkpt>
      <trkpt lat="44.33386" lon="6.31489">
        <ele>1370.5</ele>
        <time>2020-08-28T06:44:11Z</time>
      </trkpt>
      <trkpt lat="44.33385" lon="6.31489">
        <ele>1370.4</ele>
        <time>2020-08-28T06:44:17Z</time>
      </trkpt>
      <trkpt lat="44.33385" lon="6.31489">
        <ele>1370.4</ele>
        <time>2020-08-28T06:44:22Z</time>
      </trkpt>
      <trkpt lat="44.33384" lon="6.31491">
        <ele>1370.1</ele>
        <time>2020-08-28T06:44:28Z</time>
      </trkpt>
      <trkpt lat="44.33382" lon="6.31492">
        <ele>1369.7</ele>
        <time>2020-08-28T06:44:34Z</time>
      </trkpt>
      <trkpt lat="44.33383" lon="6.31491">
        <ele>1369.9</ele>
        <time>2020-08-28T06:44:40Z</time>
      </trkpt>
      <trkpt lat="44.33384" lon="6.31492">
        <ele>1370</ele>
        <time>2020-08-28T06:44:45Z</time>
      </trkpt>
      <trkpt lat="44.33384" lon="6.31492">
        <ele>1370</ele>
        <time>2020-08-28T06:44:51Z</time>
      </trkpt>
      <trkpt lat="44.33384" lon="6.31492">
        <ele>1370</ele>
        <time>2020-08-28T06:44:57Z</time>
      </trkpt>
      <trkpt lat="44.33384" lon="6.31492">
        <ele>1370</ele>
        <time>2020-08-28T06:45:03Z</time>
      </trkpt>
      <trkpt lat="44.33384" lon="6.31492">
        <ele>1370</ele>
        <time>2020-08-28T06:45:09Z</time>
      </trkpt>
      <trkpt lat="44.33384" lon="6.31492">
        <ele>1370</ele>
        <time>2020-08-28T06:45:15Z</time>
      </trkpt>
      <trkpt lat="44.33384" lon="6.31492">
        <ele>1370</ele>
        <time>2020-08-28T06:45:20Z</time>
      </trkpt>
      <trkpt lat="44.33384" lon="6.31492">
        <ele>1370</ele>
        <time>2020-08-28T06:45:26Z</time>
      </trkpt>
      <trkpt lat="44.33384" lon="6.31492">
        <ele>1370</ele>
        <time>2020-08-28T06:45:31Z</time>
      </trkpt>
      <trkpt lat="44.33384" lon="6.31492">
        <ele>1370</ele>
        <time>2020-08-28T06:45:37Z</time>
      </trkpt>
      <trkpt lat="44.33384" lon="6.31492">
        <ele>1370</ele>
        <time>2020-08-28T06:45:42Z</time>
      </trkpt>
      <trkpt lat="44.33384" lon="6.31492">
        <ele>1370</ele>
        <time>2020-08-28T06:45:47Z</time>
      </trkpt>
      <trkpt lat="44.33384" lon="6.31492">
        <ele>1370</ele>
        <time>2020-08-28T06:45:53Z</time>
      </trkpt>
      <trkpt lat="44.33384" lon="6.31492">
        <ele>1370</ele>
        <time>2020-08-28T06:45:59Z</time>
      </trkpt>
      <trkpt lat="44.33384" lon="6.31492">
        <ele>1370</ele>
        <time>2020-08-28T06:46:05Z</time>
      </trkpt>
      <trkpt lat="44.33384" lon="6.31492">
        <ele>1370</ele>
        <time>2020-08-28T06:46:10Z</time>
      </trkpt>
      <trkpt lat="44.33384" lon="6.31492">
        <ele>1370</ele>
        <time>2020-08-28T06:46:15Z</time>
      </trkpt>
      <trkpt lat="44.33384" lon="6.31492">
        <ele>1370</ele>
        <time>2020-08-28T06:46:20Z</time>
      </trkpt>
      <trkpt lat="44.33384" lon="6.31492">
        <ele>1370</ele>
        <time>2020-08-28T06:46:26Z</time>
      </trkpt>
      <trkpt lat="44.33384" lon="6.31492">
        <ele>1370</ele>
        <time>2020-08-28T06:46:31Z</time>
      </trkpt>
      <trkpt lat="44.33384" lon="6.31492">
        <ele>1370</ele>
        <time>2020-08-28T06:46:37Z</time>
      </trkpt>
      <trkpt lat="44.33383" lon="6.31492">
        <ele>1369.8</ele>
        <time>2020-08-28T06:46:42Z</time>
      </trkpt>
      <trkpt lat="44.33383" lon="6.31492">
        <ele>1369.8</ele>
        <time>2020-08-28T06:46:48Z</time>
      </trkpt>
      <trkpt lat="44.33383" lon="6.31492">
        <ele>1369.8</ele>
        <time>2020-08-28T06:46:53Z</time>
      </trkpt>
      <trkpt lat="44.33383" lon="6.31492">
        <ele>1369.8</ele>
        <time>2020-08-28T06:46:59Z</time>
      </trkpt>
      <trkpt lat="44.33383" lon="6.31492">
        <ele>1369.8</ele>
        <time>2020-08-28T06:47:05Z</time>
      </trkpt>
      <trkpt lat="44.33383" lon="6.31492">
        <ele>1369.8</ele>
        <time>2020-08-28T06:47:11Z</time>
      </trkpt>
      <trkpt lat="44.33383" lon="6.31492">
        <ele>1369.8</ele>
        <time>2020-08-28T06:47:17Z</time>
      </trkpt>
      <trkpt lat="44.33383" lon="6.31492">
        <ele>1369.8</ele>
        <time>2020-08-28T06:47:23Z</time>
      </trkpt>
      <trkpt lat="44.33383" lon="6.31492">
        <ele>1369.8</ele>
        <time>2020-08-28T06:47:28Z</time>
      </trkpt>
      <trkpt lat="44.33383" lon="6.31492">
        <ele>1369.8</ele>
        <time>2020-08-28T06:47:34Z</time>
      </trkpt>
      <trkpt lat="44.33387" lon="6.31493">
        <ele>1370.3</ele>
        <time>2020-08-28T06:47:40Z</time>
      </trkpt>
      <trkpt lat="44.33391" lon="6.31494">
        <ele>1370.6</ele>
        <time>2020-08-28T06:47:46Z</time>
      </trkpt>
      <trkpt lat="44.33396" lon="6.31493">
        <ele>1371.1</ele>
        <time>2020-08-28T06:47:51Z</time>
      </trkpt>
      <trkpt lat="44.33399" lon="6.31495">
        <ele>1371.1</ele>
        <time>2020-08-28T06:47:56Z</time>
      </trkpt>
      <trkpt lat="44.33399" lon="6.31498">
        <ele>1370.9</ele>
        <time>2020-08-28T06:48:01Z</time>
      </trkpt>
      <trkpt lat="44.33399" lon="6.31497">
        <ele>1371</ele>
        <time>2020-08-28T06:48:06Z</time>
      </trkpt>
      <trkpt lat="44.33402" lon="6.31491">
        <ele>1371.5</ele>
        <time>2020-08-28T06:48:12Z</time>
      </trkpt>
      <trkpt lat="44.33408" lon="6.31493">
        <ele>1371.3</ele>
        <time>2020-08-28T06:48:18Z</time>
      </trkpt>
      <trkpt lat="44.3341" lon="6.31497">
        <ele>1370.8</ele>
        <time>2020-08-28T06:48:24Z</time>
      </trkpt>
      <trkpt lat="44.33411" lon="6.31502">
        <ele>1364.6</ele>
        <time>2020-08-28T06:48:30Z</time>
      </trkpt>
      <trkpt lat="44.33413" lon="6.31506">
        <ele>1363.7</ele>
        <time>2020-08-28T06:48:35Z</time>
      </trkpt>
      <trkpt lat="44.33416" lon="6.31511">
        <ele>1361</ele>
        <time>2020-08-28T06:48:41Z</time>
      </trkpt>
      <trkpt lat="44.33419" lon="6.31513">
        <ele>1365.9</ele>
        <time>2020-08-28T06:48:47Z</time>
      </trkpt>
      <trkpt lat="44.33424" lon="6.31514">
        <ele>1365.4</ele>
        <time>2020-08-28T06:48:53Z</time>
      </trkpt>
      <trkpt lat="44.33428" lon="6.31515">
        <ele>1365</ele>
        <time>2020-08-28T06:48:59Z</time>
      </trkpt>
      <trkpt lat="44.3343" lon="6.31516">
        <ele>1364.7</ele>
        <time>2020-08-28T06:49:05Z</time>
      </trkpt>
      <trkpt lat="44.3343" lon="6.31517">
        <ele>1364.5</ele>
        <time>2020-08-28T06:49:10Z</time>
      </trkpt>
      <trkpt lat="44.3343" lon="6.31518">
        <ele>1364.3</ele>
        <time>2020-08-28T06:49:15Z</time>
      </trkpt>
      <trkpt lat="44.33432" lon="6.31519">
        <ele>1364</ele>
        <time>2020-08-28T06:49:20Z</time>
      </trkpt>
      <trkpt lat="44.33435" lon="6.31519">
        <ele>1363.9</ele>
        <time>2020-08-28T06:49:26Z</time>
      </trkpt>
      <trkpt lat="44.33436" lon="6.31521">
        <ele>1363.6</ele>
        <time>2020-08-28T06:49:32Z</time>
      </trkpt>
      <trkpt lat="44.33439" lon="6.31522">
        <ele>1363.4</ele>
        <time>2020-08-28T06:49:38Z</time>
      </trkpt>
      <trkpt lat="44.33441" lon="6.31522">
        <ele>1363.4</ele>
        <time>2020-08-28T06:49:43Z</time>
      </trkpt>
      <trkpt lat="44.33446" lon="6.31524">
        <ele>1363.2</ele>
        <time>2020-08-28T06:49:49Z</time>
      </trkpt>
      <trkpt lat="44.33449" lon="6.31524">
        <ele>1363.4</ele>
        <time>2020-08-28T06:49:55Z</time>
      </trkpt>
      <trkpt lat="44.33453" lon="6.31523">
        <ele>1363.8</ele>
        <time>2020-08-28T06:50:00Z</time>
      </trkpt>
      <trkpt lat="44.33454" lon="6.31523">
        <ele>1363.8</ele>
        <time>2020-08-28T06:50:06Z</time>
      </trkpt>
      <trkpt lat="44.33455" lon="6.31523">
        <ele>1363.9</ele>
        <time>2020-08-28T06:50:12Z</time>
      </trkpt>
      <trkpt lat="44.33458" lon="6.31521">
        <ele>1364.5</ele>
        <time>2020-08-28T06:50:18Z</time>
      </trkpt>
      <trkpt lat="44.33461" lon="6.3152">
        <ele>1365</ele>
        <time>2020-08-28T06:50:24Z</time>
      </trkpt>
      <trkpt lat="44.33462" lon="6.31521">
        <ele>1364.9</ele>
        <time>2020-08-28T06:50:29Z</time>
      </trkpt>
      <trkpt lat="44.33467" lon="6.31519">
        <ele>1365.9</ele>
        <time>2020-08-28T06:50:35Z</time>
      </trkpt>
      <trkpt lat="44.33467" lon="6.31516">
        <ele>1366.4</ele>
        <time>2020-08-28T06:50:40Z</time>
      </trkpt>
      <trkpt lat="44.33468" lon="6.31516">
        <ele>1366.6</ele>
        <time>2020-08-28T06:50:45Z</time>
      </trkpt>
      <trkpt lat="44.3347" lon="6.31514">
        <ele>1367.3</ele>
        <time>2020-08-28T06:50:50Z</time>
      </trkpt>
      <trkpt lat="44.33469" lon="6.31513">
        <ele>1367.3</ele>
        <time>2020-08-28T06:50:56Z</time>
      </trkpt>
      <trkpt lat="44.3347" lon="6.31511">
        <ele>1367.8</ele>
        <time>2020-08-28T06:51:01Z</time>
      </trkpt>
      <trkpt lat="44.3347" lon="6.31511">
        <ele>1367.8</ele>
        <time>2020-08-28T06:51:07Z</time>
      </trkpt>
      <trkpt lat="44.3347" lon="6.3151">
        <ele>1367.9</ele>
        <time>2020-08-28T06:51:13Z</time>
      </trkpt>
      <trkpt lat="44.3347" lon="6.31508">
        <ele>1368.2</ele>
        <time>2020-08-28T06:51:19Z</time>
      </trkpt>
      <trkpt lat="44.33471" lon="6.31508">
        <ele>1368.4</ele>
        <time>2020-08-28T06:51:25Z</time>
      </trkpt>
      <trkpt lat="44.33471" lon="6.31506">
        <ele>1368.7</ele>
        <time>2020-08-28T06:51:31Z</time>
      </trkpt>
      <trkpt lat="44.33475" lon="6.31504">
        <ele>1370</ele>
        <time>2020-08-28T06:51:37Z</time>
      </trkpt>
      <trkpt lat="44.33477" lon="6.31504">
        <ele>1370.6</ele>
        <time>2020-08-28T06:51:43Z</time>
      </trkpt>
      <trkpt lat="44.33476" lon="6.31506">
        <ele>1370</ele>
        <time>2020-08-28T06:51:49Z</time>
      </trkpt>
      <trkpt lat="44.33476" lon="6.31504">
        <ele>1370.3</ele>
        <time>2020-08-28T06:51:55Z</time>
      </trkpt>
      <trkpt lat="44.33475" lon="6.31502">
        <ele>1370.2</ele>
        <time>2020-08-28T06:52:01Z</time>
      </trkpt>
      <trkpt lat="44.33474" lon="6.31499">
        <ele>1387.2</ele>
        <time>2020-08-28T06:52:06Z</time>
      </trkpt>
      <trkpt lat="44.33473" lon="6.31498">
        <ele>1387.3</ele>
        <time>2020-08-28T06:52:12Z</time>
      </trkpt>
      <trkpt lat="44.33472" lon="6.31497">
        <ele>1387.3</ele>
        <time>2020-08-28T06:52:18Z</time>
      </trkpt>
      <trkpt lat="44.33469" lon="6.31493">
        <ele>1387.5</ele>
        <time>2020-08-28T06:52:24Z</time>
      </trkpt>
      <trkpt lat="44.33467" lon="6.3149">
        <ele>1387.7</ele>
        <time>2020-08-28T06:52:30Z</time>
      </trkpt>
      <trkpt lat="44.33467" lon="6.31489">
        <ele>1387.8</ele>
        <time>2020-08-28T06:52:35Z</time>
      </trkpt>
      <trkpt lat="44.33465" lon="6.31488">
        <ele>1387.8</ele>
        <time>2020-08-28T06:52:41Z</time>
      </trkpt>
      <trkpt lat="44.33463" lon="6.31488">
        <ele>1387.6</ele>
        <time>2020-08-28T06:52:46Z</time>
      </trkpt>
      <trkpt lat="44.33462" lon="6.31485">
        <ele>1387.9</ele>
        <time>2020-08-28T06:52:52Z</time>
      </trkpt>
      <trkpt lat="44.33462" lon="6.31483">
        <ele>1388.1</ele>
        <time>2020-08-28T06:52:58Z</time>
      </trkpt>
      <trkpt lat="44.33462" lon="6.31482">
        <ele>1388.2</ele>
        <time>2020-08-28T06:53:03Z</time>
      </trkpt>
      <trkpt lat="44.33461" lon="6.31481">
        <ele>1388.3</ele>
        <time>2020-08-28T06:53:08Z</time>
      </trkpt>
      <trkpt lat="44.3346" lon="6.31477">
        <ele>1388.8</ele>
        <time>2020-08-28T06:53:14Z</time>
      </trkpt>
      <trkpt lat="44.3346" lon="6.31477">
        <ele>1388.8</ele>
        <time>2020-08-28T06:53:19Z</time>
      </trkpt>
      <trkpt lat="44.3346" lon="6.31477">
        <ele>1388.8</ele>
        <time>2020-08-28T06:53:25Z</time>
      </trkpt>
      <trkpt lat="44.3346" lon="6.31477">
        <ele>1388.8</ele>
        <time>2020-08-28T06:53:31Z</time>
      </trkpt>
      <trkpt lat="44.3346" lon="6.31477">
        <ele>1388.8</ele>
        <time>2020-08-28T06:53:36Z</time>
      </trkpt>
      <trkpt lat="44.3346" lon="6.31477">
        <ele>1388.8</ele>
        <time>2020-08-28T06:53:42Z</time>
      </trkpt>
      <trkpt lat="44.3346" lon="6.31476">
        <ele>1388.9</ele>
        <time>2020-08-28T06:53:48Z</time>
      </trkpt>
      <trkpt lat="44.3346" lon="6.31476">
        <ele>1388.9</ele>
        <time>2020-08-28T06:53:53Z</time>
      </trkpt>
      <trkpt lat="44.3346" lon="6.31476">
        <ele>1388.9</ele>
        <time>2020-08-28T06:53:58Z</time>
      </trkpt>
      <trkpt lat="44.33459" lon="6.31474">
        <ele>1389.1</ele>
        <time>2020-08-28T06:54:04Z</time>
      </trkpt>
      <trkpt lat="44.33458" lon="6.31473">
        <ele>1389.2</ele>
        <time>2020-08-28T06:54:10Z</time>
      </trkpt>
      <trkpt lat="44.33457" lon="6.31468">
        <ele>1390</ele>
        <time>2020-08-28T06:54:15Z</time>
      </trkpt>
      <trkpt lat="44.33457" lon="6.31467">
        <ele>1390.1</ele>
        <time>2020-08-28T06:54:20Z</time>
      </trkpt>
      <trkpt lat="44.33457" lon="6.31466">
        <ele>1390.3</ele>
        <time>2020-08-28T06:54:26Z</time>
      </trkpt>
      <trkpt lat="44.33456" lon="6.31464">
        <ele>1390.6</ele>
        <time>2020-08-28T06:54:31Z</time>
      </trkpt>
      <trkpt lat="44.33456" lon="6.31463">
        <ele>1390.7</ele>
        <time>2020-08-28T06:54:37Z</time>
      </trkpt>
      <trkpt lat="44.33457" lon="6.31459">
        <ele>1391.5</ele>
        <time>2020-08-28T06:54:42Z</time>
      </trkpt>
      <trkpt lat="44.33456" lon="6.31455">
        <ele>1392.2</ele>
        <time>2020-08-28T06:54:48Z</time>
      </trkpt>
      <trkpt lat="44.33456" lon="6.31455">
        <ele>1392.2</ele>
        <time>2020-08-28T06:54:54Z</time>
      </trkpt>
      <trkpt lat="44.33456" lon="6.31455">
        <ele>1392.2</ele>
        <time>2020-08-28T06:54:59Z</time>
      </trkpt>
      <trkpt lat="44.33456" lon="6.31455">
        <ele>1392.2</ele>
        <time>2020-08-28T06:55:04Z</time>
      </trkpt>
      <trkpt lat="44.33456" lon="6.31454">
        <ele>1392.3</ele>
        <time>2020-08-28T06:55:10Z</time>
      </trkpt>
      <trkpt lat="44.33459" lon="6.31443">
        <ele>1394.4</ele>
        <time>2020-08-28T06:55:15Z</time>
      </trkpt>
      <trkpt lat="44.33459" lon="6.31442">
        <ele>1394.6</ele>
        <time>2020-08-28T06:55:20Z</time>
      </trkpt>
      <trkpt lat="44.33458" lon="6.31441">
        <ele>1394.7</ele>
        <time>2020-08-28T06:55:26Z</time>
      </trkpt>
      <trkpt lat="44.33458" lon="6.31441">
        <ele>1394.7</ele>
        <time>2020-08-28T06:55:32Z</time>
      </trkpt>
      <trkpt lat="44.33458" lon="6.31439">
        <ele>1395</ele>
        <time>2020-08-28T06:55:37Z</time>
      </trkpt>
      <trkpt lat="44.33458" lon="6.31429">
        <ele>1396.3</ele>
        <time>2020-08-28T06:55:43Z</time>
      </trkpt>
      <trkpt lat="44.33458" lon="6.31422">
        <ele>1397</ele>
        <time>2020-08-28T06:55:49Z</time>
      </trkpt>
      <trkpt lat="44.33459" lon="6.31418">
        <ele>1397.4</ele>
        <time>2020-08-28T06:55:54Z</time>
      </trkpt>
      <trkpt lat="44.33459" lon="6.31416">
        <ele>1416.8</ele>
        <time>2020-08-28T06:56:00Z</time>
      </trkpt>
      <trkpt lat="44.33462" lon="6.31413">
        <ele>1417.3</ele>
        <time>2020-08-28T06:56:05Z</time>
      </trkpt>
      <trkpt lat="44.33462" lon="6.31413">
        <ele>1417.3</ele>
        <time>2020-08-28T06:56:10Z</time>
      </trkpt>
      <trkpt lat="44.33462" lon="6.31412">
        <ele>1417.3</ele>
        <time>2020-08-28T06:56:16Z</time>
      </trkpt>
      <trkpt lat="44.33462" lon="6.31412">
        <ele>1417.3</ele>
        <time>2020-08-28T06:56:22Z</time>
      </trkpt>
      <trkpt lat="44.33462" lon="6.31412">
        <ele>1417.3</ele>
        <time>2020-08-28T06:56:27Z</time>
      </trkpt>
      <trkpt lat="44.33462" lon="6.31412">
        <ele>1417.3</ele>
        <time>2020-08-28T06:56:33Z</time>
      </trkpt>
      <trkpt lat="44.33462" lon="6.31412">
        <ele>1417.3</ele>
        <time>2020-08-28T06:56:39Z</time>
      </trkpt>
      <trkpt lat="44.33462" lon="6.31412">
        <ele>1417.3</ele>
        <time>2020-08-28T06:56:44Z</time>
      </trkpt>
      <trkpt lat="44.33462" lon="6.31412">
        <ele>1417.3</ele>
        <time>2020-08-28T06:56:50Z</time>
      </trkpt>
      <trkpt lat="44.33461" lon="6.31408">
        <ele>1417.7</ele>
        <time>2020-08-28T06:56:56Z</time>
      </trkpt>
      <trkpt lat="44.33462" lon="6.31404">
        <ele>1418.2</ele>
        <time>2020-08-28T06:57:02Z</time>
      </trkpt>
      <trkpt lat="44.33461" lon="6.31401">
        <ele>1418.5</ele>
        <time>2020-08-28T06:57:07Z</time>
      </trkpt>
      <trkpt lat="44.33461" lon="6.31401">
        <ele>1418.5</ele>
        <time>2020-08-28T06:57:13Z</time>
      </trkpt>
      <trkpt lat="44.33462" lon="6.314">
        <ele>1418.7</ele>
        <time>2020-08-28T06:57:18Z</time>
      </trkpt>
      <trkpt lat="44.33462" lon="6.314">
        <ele>1418.7</ele>
        <time>2020-08-28T06:57:24Z</time>
      </trkpt>
      <trkpt lat="44.33462" lon="6.314">
        <ele>1418.7</ele>
        <time>2020-08-28T06:57:29Z</time>
      </trkpt>
      <trkpt lat="44.33462" lon="6.314">
        <ele>1418.7</ele>
        <time>2020-08-28T06:57:34Z</time>
      </trkpt>
      <trkpt lat="44.33462" lon="6.314">
        <ele>1418.7</ele>
        <time>2020-08-28T06:57:40Z</time>
      </trkpt>
      <trkpt lat="44.33462" lon="6.314">
        <ele>1418.7</ele>
        <time>2020-08-28T06:57:46Z</time>
      </trkpt>
      <trkpt lat="44.33462" lon="6.314">
        <ele>1418.7</ele>
        <time>2020-08-28T06:57:51Z</time>
      </trkpt>
      <trkpt lat="44.33462" lon="6.314">
        <ele>1418.7</ele>
        <time>2020-08-28T06:57:57Z</time>
      </trkpt>
      <trkpt lat="44.33462" lon="6.31398">
        <ele>1419</ele>
        <time>2020-08-28T06:58:02Z</time>
      </trkpt>
      <trkpt lat="44.33463" lon="6.31394">
        <ele>1419.7</ele>
        <time>2020-08-28T06:58:08Z</time>
      </trkpt>
      <trkpt lat="44.33466" lon="6.31388">
        <ele>1420.8</ele>
        <time>2020-08-28T06:58:13Z</time>
      </trkpt>
      <trkpt lat="44.33465" lon="6.31383">
        <ele>1421.7</ele>
        <time>2020-08-28T06:58:19Z</time>
      </trkpt>
      <trkpt lat="44.33465" lon="6.31381">
        <ele>1422.1</ele>
        <time>2020-08-28T06:58:24Z</time>
      </trkpt>
      <trkpt lat="44.33465" lon="6.31377">
        <ele>1422.8</ele>
        <time>2020-08-28T06:58:30Z</time>
      </trkpt>
      <trkpt lat="44.33466" lon="6.31373">
        <ele>1423.7</ele>
        <time>2020-08-28T06:58:35Z</time>
      </trkpt>
      <trkpt lat="44.33466" lon="6.31372">
        <ele>1423.9</ele>
        <time>2020-08-28T06:58:41Z</time>
      </trkpt>
      <trkpt lat="44.33466" lon="6.31372">
        <ele>1423.9</ele>
        <time>2020-08-28T06:58:46Z</time>
      </trkpt>
      <trkpt lat="44.33465" lon="6.31371">
        <ele>1424</ele>
        <time>2020-08-28T06:58:52Z</time>
      </trkpt>
      <trkpt lat="44.33465" lon="6.31368">
        <ele>1424.6</ele>
        <time>2020-08-28T06:58:57Z</time>
      </trkpt>
      <trkpt lat="44.33465" lon="6.31364">
        <ele>1425.4</ele>
        <time>2020-08-28T06:59:03Z</time>
      </trkpt>
      <trkpt lat="44.33464" lon="6.31364">
        <ele>1425.3</ele>
        <time>2020-08-28T06:59:09Z</time>
      </trkpt>
      <trkpt lat="44.33465" lon="6.31362">
        <ele>1425.7</ele>
        <time>2020-08-28T06:59:15Z</time>
      </trkpt>
      <trkpt lat="44.33467" lon="6.31356">
        <ele>1426.9</ele>
        <time>2020-08-28T06:59:20Z</time>
      </trkpt>
      <trkpt lat="44.33468" lon="6.31353">
        <ele>1427.5</ele>
        <time>2020-08-28T06:59:26Z</time>
      </trkpt>
      <trkpt lat="44.33469" lon="6.3135">
        <ele>1428.1</ele>
        <time>2020-08-28T06:59:31Z</time>
      </trkpt>
      <trkpt lat="44.33469" lon="6.31349">
        <ele>1428.2</ele>
        <time>2020-08-28T06:59:37Z</time>
      </trkpt>
      <trkpt lat="44.33467" lon="6.31349">
        <ele>1428.1</ele>
        <time>2020-08-28T06:59:42Z</time>
      </trkpt>
      <trkpt lat="44.33467" lon="6.31349">
        <ele>1428.1</ele>
        <time>2020-08-28T06:59:47Z</time>
      </trkpt>
      <trkpt lat="44.33468" lon="6.31344">
        <ele>1428.8</ele>
        <time>2020-08-28T06:59:53Z</time>
      </trkpt>
      <trkpt lat="44.3347" lon="6.31337">
        <ele>1429.8</ele>
        <time>2020-08-28T06:59:59Z</time>
      </trkpt>
      <trkpt lat="44.33469" lon="6.31336">
        <ele>1429.8</ele>
        <time>2020-08-28T07:00:05Z</time>
      </trkpt>
      <trkpt lat="44.33472" lon="6.31336">
        <ele>1430.1</ele>
        <time>2020-08-28T07:00:11Z</time>
      </trkpt>
      <trkpt lat="44.33472" lon="6.31336">
        <ele>1430.1</ele>
        <time>2020-08-28T07:00:17Z</time>
      </trkpt>
      <trkpt lat="44.33472" lon="6.31336">
        <ele>1430.1</ele>
        <time>2020-08-28T07:00:22Z</time>
      </trkpt>
      <trkpt lat="44.33472" lon="6.31335">
        <ele>1430.2</ele>
        <time>2020-08-28T07:00:28Z</time>
      </trkpt>
      <trkpt lat="44.33472" lon="6.31335">
        <ele>1430.2</ele>
        <time>2020-08-28T07:00:34Z</time>
      </trkpt>
      <trkpt lat="44.33473" lon="6.31335">
        <ele>1430.4</ele>
        <time>2020-08-28T07:00:39Z</time>
      </trkpt>
      <trkpt lat="44.33475" lon="6.31336">
        <ele>1430.6</ele>
        <time>2020-08-28T07:00:45Z</time>
      </trkpt>
      <trkpt lat="44.33475" lon="6.31337">
        <ele>1430.5</ele>
        <time>2020-08-28T07:00:50Z</time>
      </trkpt>
      <trkpt lat="44.33475" lon="6.31338">
        <ele>1430.4</ele>
        <time>2020-08-28T07:00:55Z</time>
      </trkpt>
      <trkpt lat="44.33475" lon="6.31338">
        <ele>1430.4</ele>
        <time>2020-08-28T07:01:01Z</time>
      </trkpt>
      <trkpt lat="44.33475" lon="6.31337">
        <ele>1430.5</ele>
        <time>2020-08-28T07:01:06Z</time>
      </trkpt>
      <trkpt lat="44.33475" lon="6.31338">
        <ele>1430.4</ele>
        <time>2020-08-28T07:01:12Z</time>
      </trkpt>
      <trkpt lat="44.33475" lon="6.31339">
        <ele>1430.3</ele>
        <time>2020-08-28T07:01:17Z</time>
      </trkpt>
      <trkpt lat="44.33475" lon="6.3134">
        <ele>1430.2</ele>
        <time>2020-08-28T07:01:23Z</time>
      </trkpt>
      <trkpt lat="44.33475" lon="6.3134">
        <ele>1430.2</ele>
        <time>2020-08-28T07:01:29Z</time>
      </trkpt>
      <trkpt lat="44.33475" lon="6.31338">
        <ele>1430.4</ele>
        <time>2020-08-28T07:01:34Z</time>
      </trkpt>
      <trkpt lat="44.33475" lon="6.31336">
        <ele>1430.6</ele>
        <time>2020-08-28T07:01:40Z</time>
      </trkpt>
      <trkpt lat="44.33474" lon="6.31332">
        <ele>1448</ele>
        <time>2020-08-28T07:01:46Z</time>
      </trkpt>
      <trkpt lat="44.33472" lon="6.31329">
        <ele>1448.5</ele>
        <time>2020-08-28T07:01:51Z</time>
      </trkpt>
      <trkpt lat="44.33473" lon="6.31328">
        <ele>1448.4</ele>
        <time>2020-08-28T07:01:57Z</time>
      </trkpt>
      <trkpt lat="44.33473" lon="6.31328">
        <ele>1448.4</ele>
        <time>2020-08-28T07:02:03Z</time>
      </trkpt>
      <trkpt lat="44.33473" lon="6.31327">
        <ele>1448.5</ele>
        <time>2020-08-28T07:02:09Z</time>
      </trkpt>
      <trkpt lat="44.33473" lon="6.31327">
        <ele>1448.5</ele>
        <time>2020-08-28T07:02:15Z</time>
      </trkpt>
      <trkpt lat="44.33474" lon="6.31326">
        <ele>1448.5</ele>
        <time>2020-08-28T07:02:21Z</time>
      </trkpt>
      <trkpt lat="44.33474" lon="6.31327">
        <ele>1448.4</ele>
        <time>2020-08-28T07:02:26Z</time>
      </trkpt>
      <trkpt lat="44.33473" lon="6.3133">
        <ele>1448.3</ele>
        <time>2020-08-28T07:02:32Z</time>
      </trkpt>
      <trkpt lat="44.33474" lon="6.31329">
        <ele>1448.2</ele>
        <time>2020-08-28T07:02:38Z</time>
      </trkpt>
      <trkpt lat="44.33475" lon="6.3133">
        <ele>1448</ele>
        <time>2020-08-28T07:02:43Z</time>
      </trkpt>
      <trkpt lat="44.33475" lon="6.31329">
        <ele>1448.1</ele>
        <time>2020-08-28T07:02:49Z</time>
      </trkpt>
      <trkpt lat="44.33475" lon="6.31329">
        <ele>1448.1</ele>
        <time>2020-08-28T07:02:54Z</time>
      </trkpt>
      <trkpt lat="44.33475" lon="6.31326">
        <ele>1448.4</ele>
        <time>2020-08-28T07:02:59Z</time>
      </trkpt>
      <trkpt lat="44.33477" lon="6.31327">
        <ele>1448</ele>
        <time>2020-08-28T07:03:05Z</time>
      </trkpt>
      <trkpt lat="44.33478" lon="6.31326">
        <ele>1448</ele>
        <time>2020-08-28T07:03:10Z</time>
      </trkpt>
      <trkpt lat="44.33479" lon="6.31325">
        <ele>1448</ele>
        <time>2020-08-28T07:03:16Z</time>
      </trkpt>
      <trkpt lat="44.33479" lon="6.31324">
        <ele>1448.1</ele>
        <time>2020-08-28T07:03:22Z</time>
      </trkpt>
      <trkpt lat="44.3348" lon="6.31324">
        <ele>1448</ele>
        <time>2020-08-28T07:03:28Z</time>
      </trkpt>
      <trkpt lat="44.3348" lon="6.31324">
        <ele>1448</ele>
        <time>2020-08-28T07:03:33Z</time>
      </trkpt>
      <trkpt lat="44.3348" lon="6.31324">
        <ele>1448</ele>
        <time>2020-08-28T07:03:39Z</time>
      </trkpt>
      <trkpt lat="44.3348" lon="6.31323">
        <ele>1448.1</ele>
        <time>2020-08-28T07:03:45Z</time>
      </trkpt>
      <trkpt lat="44.3348" lon="6.31324">
        <ele>1448</ele>
        <time>2020-08-28T07:03:51Z</time>
      </trkpt>
      <trkpt lat="44.3348" lon="6.31326">
        <ele>1447.7</ele>
        <time>2020-08-28T07:03:56Z</time>
      </trkpt>
      <trkpt lat="44.33481" lon="6.31327">
        <ele>1447.4</ele>
        <time>2020-08-28T07:04:01Z</time>
      </trkpt>
      <trkpt lat="44.33481" lon="6.31329">
        <ele>1447.1</ele>
        <time>2020-08-28T07:04:07Z</time>
      </trkpt>
      <trkpt lat="44.33481" lon="6.3133">
        <ele>1447.1</ele>
        <time>2020-08-28T07:04:13Z</time>
      </trkpt>
      <trkpt lat="44.33482" lon="6.3133">
        <ele>1446.9</ele>
        <time>2020-08-28T07:04:19Z</time>
      </trkpt>
      <trkpt lat="44.33483" lon="6.31331">
        <ele>1446.5</ele>
        <time>2020-08-28T07:04:25Z</time>
      </trkpt>
      <trkpt lat="44.33483" lon="6.31329">
        <ele>1446.7</ele>
        <time>2020-08-28T07:04:31Z</time>
      </trkpt>
      <trkpt lat="44.33482" lon="6.31331">
        <ele>1446.8</ele>
        <time>2020-08-28T07:04:36Z</time>
      </trkpt>
      <trkpt lat="44.33484" lon="6.31332">
        <ele>1446.2</ele>
        <time>2020-08-28T07:04:42Z</time>
      </trkpt>
      <trkpt lat="44.33483" lon="6.31332">
        <ele>1446.5</ele>
        <time>2020-08-28T07:04:47Z</time>
      </trkpt>
      <trkpt lat="44.33484" lon="6.31332">
        <ele>1446.2</ele>
        <time>2020-08-28T07:04:53Z</time>
      </trkpt>
      <trkpt lat="44.33484" lon="6.31331">
        <ele>1446.3</ele>
        <time>2020-08-28T07:04:59Z</time>
      </trkpt>
      <trkpt lat="44.33484" lon="6.31331">
        <ele>1446.3</ele>
        <time>2020-08-28T07:05:04Z</time>
      </trkpt>
      <trkpt lat="44.33484" lon="6.31331">
        <ele>1446.3</ele>
        <time>2020-08-28T07:05:09Z</time>
      </trkpt>
      <trkpt lat="44.33484" lon="6.31331">
        <ele>1446.3</ele>
        <time>2020-08-28T07:05:15Z</time>
      </trkpt>
      <trkpt lat="44.33484" lon="6.31331">
        <ele>1446.3</ele>
        <time>2020-08-28T07:05:21Z</time>
      </trkpt>
      <trkpt lat="44.33484" lon="6.31331">
        <ele>1446.3</ele>
        <time>2020-08-28T07:05:26Z</time>
      </trkpt>
      <trkpt lat="44.33484" lon="6.31331">
        <ele>1446.3</ele>
        <time>2020-08-28T07:05:31Z</time>
      </trkpt>
      <trkpt lat="44.33484" lon="6.31331">
        <ele>1446.3</ele>
        <time>2020-08-28T07:05:37Z</time>
      </trkpt>
      <trkpt lat="44.33484" lon="6.31331">
        <ele>1446.3</ele>
        <time>2020-08-28T07:05:42Z</time>
      </trkpt>
      <trkpt lat="44.33484" lon="6.31331">
        <ele>1446.3</ele>
        <time>2020-08-28T07:05:48Z</time>
      </trkpt>
      <trkpt lat="44.33484" lon="6.31331">
        <ele>1446.3</ele>
        <time>2020-08-28T07:05:54Z</time>
      </trkpt>
      <trkpt lat="44.33483" lon="6.31329">
        <ele>1446.7</ele>
        <time>2020-08-28T07:05:59Z</time>
      </trkpt>
      <trkpt lat="44.33482" lon="6.31328">
        <ele>1447.1</ele>
        <time>2020-08-28T07:06:04Z</time>
      </trkpt>
      <trkpt lat="44.33483" lon="6.31327">
        <ele>1447</ele>
        <time>2020-08-28T07:06:09Z</time>
      </trkpt>
      <trkpt lat="44.33483" lon="6.31325">
        <ele>1447.3</ele>
        <time>2020-08-28T07:06:15Z</time>
      </trkpt>
      <trkpt lat="44.33483" lon="6.31324">
        <ele>1447.5</ele>
        <time>2020-08-28T07:06:21Z</time>
      </trkpt>
      <trkpt lat="44.33483" lon="6.31324">
        <ele>1447.5</ele>
        <time>2020-08-28T07:06:27Z</time>
      </trkpt>
      <trkpt lat="44.33483" lon="6.31324">
        <ele>1447.5</ele>
        <time>2020-08-28T07:06:33Z</time>
      </trkpt>
      <trkpt lat="44.33483" lon="6.31324">
        <ele>1447.5</ele>
        <time>2020-08-28T07:06:38Z</time>
      </trkpt>
      <trkpt lat="44.33483" lon="6.31323">
        <ele>1447.6</ele>
        <time>2020-08-28T07:06:43Z</time>
      </trkpt>
      <trkpt lat="44.33484" lon="6.31319">
        <ele>1448.3</ele>
        <time>2020-08-28T07:06:49Z</time>
      </trkpt>
      <trkpt lat="44.33485" lon="6.31319">
        <ele>1448.1</ele>
        <time>2020-08-28T07:06:54Z</time>
      </trkpt>
      <trkpt lat="44.33486" lon="6.3132">
        <ele>1447.7</ele>
        <time>2020-08-28T07:07:00Z</time>
      </trkpt>
      <trkpt lat="44.33485" lon="6.31319">
        <ele>1448.1</ele>
        <time>2020-08-28T07:07:05Z</time>
      </trkpt>
      <trkpt lat="44.33484" lon="6.31318">
        <ele>1448.5</ele>
        <time>2020-08-28T07:07:11Z</time>
      </trkpt>
      <trkpt lat="44.33484" lon="6.31317">
        <ele>1448.7</ele>
        <time>2020-08-28T07:07:17Z</time>
      </trkpt>
      <trkpt lat="44.33483" lon="6.31316">
        <ele>1449</ele>
        <time>2020-08-28T07:07:22Z</time>
      </trkpt>
      <trkpt lat="44.33483" lon="6.31315">
        <ele>1449.2</ele>
        <time>2020-08-28T07:07:28Z</time>
      </trkpt>
      <trkpt lat="44.33483" lon="6.31314">
        <ele>1449.4</ele>
        <time>2020-08-28T07:07:33Z</time>
      </trkpt>
      <trkpt lat="44.33484" lon="6.31313">
        <ele>1449.6</ele>
        <time>2020-08-28T07:07:39Z</time>
      </trkpt>
      <trkpt lat="44.33484" lon="6.31314">
        <ele>1449.3</ele>
        <time>2020-08-28T07:07:45Z</time>
      </trkpt>
      <trkpt lat="44.33484" lon="6.31313">
        <ele>1449.6</ele>
        <time>2020-08-28T07:07:51Z</time>
      </trkpt>
      <trkpt lat="44.33484" lon="6.31313">
        <ele>1449.6</ele>
        <time>2020-08-28T07:07:56Z</time>
      </trkpt>
      <trkpt lat="44.33484" lon="6.31313">
        <ele>1449.6</ele>
        <time>2020-08-28T07:08:02Z</time>
      </trkpt>
      <trkpt lat="44.33484" lon="6.31313">
        <ele>1449.6</ele>
        <time>2020-08-28T07:08:08Z</time>
      </trkpt>
      <trkpt lat="44.33484" lon="6.31313">
        <ele>1449.6</ele>
        <time>2020-08-28T07:08:14Z</time>
      </trkpt>
      <trkpt lat="44.33484" lon="6.31313">
        <ele>1449.6</ele>
        <time>2020-08-28T07:08:19Z</time>
      </trkpt>
      <trkpt lat="44.33484" lon="6.31313">
        <ele>1449.6</ele>
        <time>2020-08-28T07:08:25Z</time>
      </trkpt>
      <trkpt lat="44.33484" lon="6.31313">
        <ele>1449.6</ele>
        <time>2020-08-28T07:08:30Z</time>
      </trkpt>
      <trkpt lat="44.33484" lon="6.31313">
        <ele>1449.6</ele>
        <time>2020-08-28T07:08:36Z</time>
      </trkpt>
      <trkpt lat="44.33484" lon="6.31313">
        <ele>1449.6</ele>
        <time>2020-08-28T07:08:42Z</time>
      </trkpt>
      <trkpt lat="44.33484" lon="6.31313">
        <ele>1449.6</ele>
        <time>2020-08-28T07:08:47Z</time>
      </trkpt>
      <trkpt lat="44.33484" lon="6.31313">
        <ele>1449.6</ele>
        <time>2020-08-28T07:08:53Z</time>
      </trkpt>
      <trkpt lat="44.33484" lon="6.31313">
        <ele>1449.6</ele>
        <time>2020-08-28T07:08:59Z</time>
      </trkpt>
      <trkpt lat="44.33484" lon="6.31313">
        <ele>1449.6</ele>
        <time>2020-08-28T07:09:04Z</time>
      </trkpt>
      <trkpt lat="44.33484" lon="6.31313">
        <ele>1449.6</ele>
        <time>2020-08-28T07:09:10Z</time>
      </trkpt>
      <trkpt lat="44.33484" lon="6.31313">
        <ele>1449.6</ele>
        <time>2020-08-28T07:09:16Z</time>
      </trkpt>
      <trkpt lat="44.33484" lon="6.31313">
        <ele>1449.6</ele>
        <time>2020-08-28T07:09:22Z</time>
      </trkpt>
      <trkpt lat="44.33484" lon="6.31307">
        <ele>1451</ele>
        <time>2020-08-28T07:09:28Z</time>
      </trkpt>
      <trkpt lat="44.33487" lon="6.313">
        <ele>1452.5</ele>
        <time>2020-08-28T07:09:34Z</time>
      </trkpt>
      <trkpt lat="44.33488" lon="6.31298">
        <ele>1453</ele>
        <time>2020-08-28T07:09:40Z</time>
      </trkpt>
      <trkpt lat="44.33488" lon="6.31297">
        <ele>1453.2</ele>
        <time>2020-08-28T07:09:45Z</time>
      </trkpt>
      <trkpt lat="44.33488" lon="6.31297">
        <ele>1453.2</ele>
        <time>2020-08-28T07:09:51Z</time>
      </trkpt>
      <trkpt lat="44.33488" lon="6.31297">
        <ele>1453.2</ele>
        <time>2020-08-28T07:09:56Z</time>
      </trkpt>
      <trkpt lat="44.33488" lon="6.31297">
        <ele>1453.2</ele>
        <time>2020-08-28T07:10:02Z</time>
      </trkpt>
      <trkpt lat="44.33488" lon="6.31297">
        <ele>1453.2</ele>
        <time>2020-08-28T07:10:07Z</time>
      </trkpt>
      <trkpt lat="44.33488" lon="6.31297">
        <ele>1453.2</ele>
        <time>2020-08-28T07:10:13Z</time>
      </trkpt>
      <trkpt lat="44.33488" lon="6.31296">
        <ele>1453.4</ele>
        <time>2020-08-28T07:10:19Z</time>
      </trkpt>
      <trkpt lat="44.33489" lon="6.31294">
        <ele>1453.9</ele>
        <time>2020-08-28T07:10:25Z</time>
      </trkpt>
      <trkpt lat="44.33488" lon="6.31292">
        <ele>1454.4</ele>
        <time>2020-08-28T07:10:30Z</time>
      </trkpt>
      <trkpt lat="44.33488" lon="6.31292">
        <ele>1454.4</ele>
        <time>2020-08-28T07:10:35Z</time>
      </trkpt>
      <trkpt lat="44.33494" lon="6.31287">
        <ele>1455.7</ele>
        <time>2020-08-28T07:10:41Z</time>
      </trkpt>
      <trkpt lat="44.33496" lon="6.31281">
        <ele>1457.3</ele>
        <time>2020-08-28T07:10:47Z</time>
      </trkpt>
      <trkpt lat="44.33498" lon="6.3128">
        <ele>1457.6</ele>
        <time>2020-08-28T07:10:53Z</time>
      </trkpt>
      <trkpt lat="44.33498" lon="6.3128">
        <ele>1457.6</ele>
        <time>2020-08-28T07:10:58Z</time>
      </trkpt>
      <trkpt lat="44.33498" lon="6.31277">
        <ele>1458.5</ele>
        <time>2020-08-28T07:11:04Z</time>
      </trkpt>
      <trkpt lat="44.33501" lon="6.31273">
        <ele>1447.9</ele>
        <time>2020-08-28T07:11:10Z</time>
      </trkpt>
      <trkpt lat="44.33503" lon="6.31267">
        <ele>1451.2</ele>
        <time>2020-08-28T07:11:15Z</time>
      </trkpt>
      <trkpt lat="44.33506" lon="6.3126">
        <ele>1455.4</ele>
        <time>2020-08-28T07:11:21Z</time>
      </trkpt>
      <trkpt lat="44.33506" lon="6.31253">
        <ele>1460.3</ele>
        <time>2020-08-28T07:11:27Z</time>
      </trkpt>
      <trkpt lat="44.33506" lon="6.31251">
        <ele>1461</ele>
        <time>2020-08-28T07:11:33Z</time>
      </trkpt>
      <trkpt lat="44.33506" lon="6.31249">
        <ele>1465.9</ele>
        <time>2020-08-28T07:11:38Z</time>
      </trkpt>
      <trkpt lat="44.33508" lon="6.3125">
        <ele>1464.4</ele>
        <time>2020-08-28T07:11:44Z</time>
      </trkpt>
      <trkpt lat="44.33508" lon="6.31244">
        <ele>1464.4</ele>
        <time>2020-08-28T07:11:49Z</time>
      </trkpt>
      <trkpt lat="44.33509" lon="6.31241">
        <ele>1463.5</ele>
        <time>2020-08-28T07:11:55Z</time>
      </trkpt>
      <trkpt lat="44.33511" lon="6.31237">
        <ele>1462.4</ele>
        <time>2020-08-28T07:12:01Z</time>
      </trkpt>
      <trkpt lat="44.33513" lon="6.31233">
        <ele>1461.5</ele>
        <time>2020-08-28T07:12:07Z</time>
      </trkpt>
      <trkpt lat="44.33515" lon="6.31233">
        <ele>1461</ele>
        <time>2020-08-28T07:12:12Z</time>
      </trkpt>
      <trkpt lat="44.33514" lon="6.31232">
        <ele>1461.2</ele>
        <time>2020-08-28T07:12:17Z</time>
      </trkpt>
      <trkpt lat="44.33513" lon="6.31231">
        <ele>1461.4</ele>
        <time>2020-08-28T07:12:22Z</time>
      </trkpt>
      <trkpt lat="44.33513" lon="6.31232">
        <ele>1461.4</ele>
        <time>2020-08-28T07:12:28Z</time>
      </trkpt>
      <trkpt lat="44.33513" lon="6.31232">
        <ele>1461.4</ele>
        <time>2020-08-28T07:12:33Z</time>
      </trkpt>
      <trkpt lat="44.33513" lon="6.31231">
        <ele>1461.4</ele>
        <time>2020-08-28T07:12:39Z</time>
      </trkpt>
      <trkpt lat="44.33513" lon="6.31231">
        <ele>1461.4</ele>
        <time>2020-08-28T07:12:44Z</time>
      </trkpt>
      <trkpt lat="44.33513" lon="6.31231">
        <ele>1461.4</ele>
        <time>2020-08-28T07:12:49Z</time>
      </trkpt>
      <trkpt lat="44.33514" lon="6.31231">
        <ele>1461.1</ele>
        <time>2020-08-28T07:12:55Z</time>
      </trkpt>
      <trkpt lat="44.33513" lon="6.31231">
        <ele>1461.4</ele>
        <time>2020-08-28T07:13:00Z</time>
      </trkpt>
      <trkpt lat="44.33513" lon="6.31232">
        <ele>1461.4</ele>
        <time>2020-08-28T07:13:06Z</time>
      </trkpt>
      <trkpt lat="44.33516" lon="6.3123">
        <ele>1460.6</ele>
        <time>2020-08-28T07:13:12Z</time>
      </trkpt>
      <trkpt lat="44.33516" lon="6.31232">
        <ele>1460.7</ele>
        <time>2020-08-28T07:13:17Z</time>
      </trkpt>
      <trkpt lat="44.33516" lon="6.31226">
        <ele>1460.6</ele>
        <time>2020-08-28T07:13:23Z</time>
      </trkpt>
      <trkpt lat="44.33517" lon="6.31224">
        <ele>1460.4</ele>
        <time>2020-08-28T07:13:29Z</time>
      </trkpt>
      <trkpt lat="44.33516" lon="6.31221">
        <ele>1460.7</ele>
        <time>2020-08-28T07:13:35Z</time>
      </trkpt>
      <trkpt lat="44.33517" lon="6.3122">
        <ele>1460.5</ele>
        <time>2020-08-28T07:13:40Z</time>
      </trkpt>
      <trkpt lat="44.33517" lon="6.31216">
        <ele>1460.8</ele>
        <time>2020-08-28T07:13:46Z</time>
      </trkpt>
      <trkpt lat="44.33518" lon="6.31217">
        <ele>1460.5</ele>
        <time>2020-08-28T07:13:52Z</time>
      </trkpt>
      <trkpt lat="44.33518" lon="6.31217">
        <ele>1460.5</ele>
        <time>2020-08-28T07:13:57Z</time>
      </trkpt>
      <trkpt lat="44.33518" lon="6.31216">
        <ele>1460.6</ele>
        <time>2020-08-28T07:14:03Z</time>
      </trkpt>
      <trkpt lat="44.33518" lon="6.31216">
        <ele>1460.6</ele>
        <time>2020-08-28T07:14:08Z</time>
      </trkpt>
      <trkpt lat="44.33518" lon="6.31216">
        <ele>1460.6</ele>
        <time>2020-08-28T07:14:14Z</time>
      </trkpt>
      <trkpt lat="44.33518" lon="6.31216">
        <ele>1460.6</ele>
        <time>2020-08-28T07:14:19Z</time>
      </trkpt>
      <trkpt lat="44.33518" lon="6.31216">
        <ele>1460.6</ele>
        <time>2020-08-28T07:14:25Z</time>
      </trkpt>
      <trkpt lat="44.33518" lon="6.31216">
        <ele>1460.6</ele>
        <time>2020-08-28T07:14:30Z</time>
      </trkpt>
      <trkpt lat="44.33518" lon="6.31215">
        <ele>1460.7</ele>
        <time>2020-08-28T07:14:36Z</time>
      </trkpt>
      <trkpt lat="44.33519" lon="6.31213">
        <ele>1460.7</ele>
        <time>2020-08-28T07:14:41Z</time>
      </trkpt>
      <trkpt lat="44.33519" lon="6.3121">
        <ele>1461.1</ele>
        <time>2020-08-28T07:14:47Z</time>
      </trkpt>
      <trkpt lat="44.33519" lon="6.31209">
        <ele>1461.3</ele>
        <time>2020-08-28T07:14:53Z</time>
      </trkpt>
      <trkpt lat="44.33521" lon="6.31209">
        <ele>1460.8</ele>
        <time>2020-08-28T07:14:59Z</time>
      </trkpt>
      <trkpt lat="44.33522" lon="6.31209">
        <ele>1460.6</ele>
        <time>2020-08-28T07:15:04Z</time>
      </trkpt>
      <trkpt lat="44.33522" lon="6.31208">
        <ele>1460.7</ele>
        <time>2020-08-28T07:15:10Z</time>
      </trkpt>
      <trkpt lat="44.33522" lon="6.31208">
        <ele>1460.7</ele>
        <time>2020-08-28T07:15:15Z</time>
      </trkpt>
      <trkpt lat="44.33522" lon="6.31208">
        <ele>1460.7</ele>
        <time>2020-08-28T07:15:20Z</time>
      </trkpt>
      <trkpt lat="44.33525" lon="6.31201">
        <ele>1461.1</ele>
        <time>2020-08-28T07:15:26Z</time>
      </trkpt>
      <trkpt lat="44.3353" lon="6.31194">
        <ele>1460.9</ele>
        <time>2020-08-28T07:15:32Z</time>
      </trkpt>
      <trkpt lat="44.33532" lon="6.3119">
        <ele>1460.8</ele>
        <time>2020-08-28T07:15:37Z</time>
      </trkpt>
      <trkpt lat="44.33533" lon="6.31188">
        <ele>1460.8</ele>
        <time>2020-08-28T07:15:42Z</time>
      </trkpt>
      <trkpt lat="44.33533" lon="6.31185">
        <ele>1461.3</ele>
        <time>2020-08-28T07:15:48Z</time>
      </trkpt>
      <trkpt lat="44.33533" lon="6.3118">
        <ele>1462</ele>
        <time>2020-08-28T07:15:54Z</time>
      </trkpt>
      <trkpt lat="44.33531" lon="6.31177">
        <ele>1463.3</ele>
        <time>2020-08-28T07:16:00Z</time>
      </trkpt>
      <trkpt lat="44.33532" lon="6.3117">
        <ele>1463.5</ele>
        <time>2020-08-28T07:16:06Z</time>
      </trkpt>
      <trkpt lat="44.33532" lon="6.31168">
        <ele>1463.7</ele>
        <time>2020-08-28T07:16:12Z</time>
      </trkpt>
      <trkpt lat="44.33532" lon="6.31164">
        <ele>1474.8</ele>
        <time>2020-08-28T07:16:18Z</time>
      </trkpt>
      <trkpt lat="44.33536" lon="6.31165">
        <ele>1473.1</ele>
        <time>2020-08-28T07:16:23Z</time>
      </trkpt>
      <trkpt lat="44.33537" lon="6.31165">
        <ele>1472.7</ele>
        <time>2020-08-28T07:16:29Z</time>
      </trkpt>
      <trkpt lat="44.33537" lon="6.31163">
        <ele>1472.7</ele>
        <time>2020-08-28T07:16:35Z</time>
      </trkpt>
      <trkpt lat="44.33537" lon="6.31163">
        <ele>1472.7</ele>
        <time>2020-08-28T07:16:41Z</time>
      </trkpt>
      <trkpt lat="44.33536" lon="6.31161">
        <ele>1473.2</ele>
        <time>2020-08-28T07:16:46Z</time>
      </trkpt>
      <trkpt lat="44.33536" lon="6.31155">
        <ele>1473.4</ele>
        <time>2020-08-28T07:16:51Z</time>
      </trkpt>
      <trkpt lat="44.33538" lon="6.31155">
        <ele>1472.6</ele>
        <time>2020-08-28T07:16:57Z</time>
      </trkpt>
      <trkpt lat="44.33538" lon="6.31156">
        <ele>1472.6</ele>
        <time>2020-08-28T07:17:02Z</time>
      </trkpt>
      <trkpt lat="44.33538" lon="6.31153">
        <ele>1472.7</ele>
        <time>2020-08-28T07:17:08Z</time>
      </trkpt>
      <trkpt lat="44.3354" lon="6.3115">
        <ele>1472.1</ele>
        <time>2020-08-28T07:17:14Z</time>
      </trkpt>
      <trkpt lat="44.33539" lon="6.31145">
        <ele>1472.8</ele>
        <time>2020-08-28T07:17:21Z</time>
      </trkpt>
      <trkpt lat="44.33539" lon="6.31143">
        <ele>1472.9</ele>
        <time>2020-08-28T07:17:26Z</time>
      </trkpt>
      <trkpt lat="44.33538" lon="6.31141">
        <ele>1473.4</ele>
        <time>2020-08-28T07:17:34Z</time>
      </trkpt>
      <trkpt lat="44.33538" lon="6.31141">
        <ele>1473.4</ele>
        <time>2020-08-28T07:17:39Z</time>
      </trkpt>
      <trkpt lat="44.33538" lon="6.31141">
        <ele>1473.4</ele>
        <time>2020-08-28T07:17:45Z</time>
      </trkpt>
      <trkpt lat="44.33538" lon="6.31141">
        <ele>1473.4</ele>
        <time>2020-08-28T07:17:51Z</time>
      </trkpt>
      <trkpt lat="44.33537" lon="6.31139">
        <ele>1473.9</ele>
        <time>2020-08-28T07:17:56Z</time>
      </trkpt>
      <trkpt lat="44.33533" lon="6.31133">
        <ele>1475.5</ele>
        <time>2020-08-28T07:18:02Z</time>
      </trkpt>
      <trkpt lat="44.33534" lon="6.3113">
        <ele>1475.5</ele>
        <time>2020-08-28T07:18:08Z</time>
      </trkpt>
      <trkpt lat="44.33534" lon="6.3113">
        <ele>1475.5</ele>
        <time>2020-08-28T07:18:13Z</time>
      </trkpt>
      <trkpt lat="44.33535" lon="6.31128">
        <ele>1475.4</ele>
        <time>2020-08-28T07:18:19Z</time>
      </trkpt>
      <trkpt lat="44.33538" lon="6.31124">
        <ele>1474.9</ele>
        <time>2020-08-28T07:18:24Z</time>
      </trkpt>
      <trkpt lat="44.33538" lon="6.31121">
        <ele>1475.2</ele>
        <time>2020-08-28T07:18:29Z</time>
      </trkpt>
      <trkpt lat="44.33538" lon="6.31119">
        <ele>1475.4</ele>
        <time>2020-08-28T07:18:35Z</time>
      </trkpt>
      <trkpt lat="44.33538" lon="6.31118">
        <ele>1475.5</ele>
        <time>2020-08-28T07:18:40Z</time>
      </trkpt>
      <trkpt lat="44.33538" lon="6.31117">
        <ele>1475.6</ele>
        <time>2020-08-28T07:18:45Z</time>
      </trkpt>
      <trkpt lat="44.33538" lon="6.31117">
        <ele>1475.6</ele>
        <time>2020-08-28T07:18:51Z</time>
      </trkpt>
      <trkpt lat="44.33538" lon="6.31117">
        <ele>1475.6</ele>
        <time>2020-08-28T07:18:57Z</time>
      </trkpt>
      <trkpt lat="44.33535" lon="6.31113">
        <ele>1477</ele>
        <time>2020-08-28T07:19:03Z</time>
      </trkpt>
      <trkpt lat="44.33532" lon="6.31113">
        <ele>1477.9</ele>
        <time>2020-08-28T07:19:09Z</time>
      </trkpt>
      <trkpt lat="44.33531" lon="6.31115">
        <ele>1477.9</ele>
        <time>2020-08-28T07:19:15Z</time>
      </trkpt>
      <trkpt lat="44.33532" lon="6.31116">
        <ele>1477.5</ele>
        <time>2020-08-28T07:19:20Z</time>
      </trkpt>
      <trkpt lat="44.33534" lon="6.31114">
        <ele>1477.1</ele>
        <time>2020-08-28T07:19:26Z</time>
      </trkpt>
      <trkpt lat="44.33532" lon="6.31114">
        <ele>1477.8</ele>
        <time>2020-08-28T07:19:31Z</time>
      </trkpt>
      <trkpt lat="44.33535" lon="6.31115">
        <ele>1476.7</ele>
        <time>2020-08-28T07:19:36Z</time>
      </trkpt>
      <trkpt lat="44.33534" lon="6.31115">
        <ele>1477</ele>
        <time>2020-08-28T07:19:42Z</time>
      </trkpt>
      <trkpt lat="44.33534" lon="6.31116">
        <ele>1476.9</ele>
        <time>2020-08-28T07:19:48Z</time>
      </trkpt>
      <trkpt lat="44.33534" lon="6.31116">
        <ele>1476.9</ele>
        <time>2020-08-28T07:19:54Z</time>
      </trkpt>
      <trkpt lat="44.33534" lon="6.31116">
        <ele>1476.9</ele>
        <time>2020-08-28T07:19:59Z</time>
      </trkpt>
      <trkpt lat="44.33535" lon="6.31116">
        <ele>1476.6</ele>
        <time>2020-08-28T07:20:05Z</time>
      </trkpt>
      <trkpt lat="44.33536" lon="6.31116">
        <ele>1476.3</ele>
        <time>2020-08-28T07:20:10Z</time>
      </trkpt>
      <trkpt lat="44.33538" lon="6.31116">
        <ele>1475.7</ele>
        <time>2020-08-28T07:20:15Z</time>
      </trkpt>
      <trkpt lat="44.33537" lon="6.31113">
        <ele>1476.3</ele>
        <time>2020-08-28T07:20:21Z</time>
      </trkpt>
      <trkpt lat="44.33537" lon="6.31115">
        <ele>1476.1</ele>
        <time>2020-08-28T07:20:27Z</time>
      </trkpt>
      <trkpt lat="44.33538" lon="6.31115">
        <ele>1475.8</ele>
        <time>2020-08-28T07:20:33Z</time>
      </trkpt>
      <trkpt lat="44.33538" lon="6.31115">
        <ele>1475.8</ele>
        <time>2020-08-28T07:20:39Z</time>
      </trkpt>
      <trkpt lat="44.33538" lon="6.31115">
        <ele>1475.8</ele>
        <time>2020-08-28T07:20:44Z</time>
      </trkpt>
      <trkpt lat="44.33536" lon="6.31109">
        <ele>1477.1</ele>
        <time>2020-08-28T07:20:50Z</time>
      </trkpt>
      <trkpt lat="44.33536" lon="6.31109">
        <ele>1477.1</ele>
        <time>2020-08-28T07:20:55Z</time>
      </trkpt>
      <trkpt lat="44.33536" lon="6.31105">
        <ele>1477.6</ele>
        <time>2020-08-28T07:21:01Z</time>
      </trkpt>
      <trkpt lat="44.33536" lon="6.31103">
        <ele>1477.8</ele>
        <time>2020-08-28T07:21:06Z</time>
      </trkpt>
      <trkpt lat="44.33537" lon="6.311">
        <ele>1477.7</ele>
        <time>2020-08-28T07:21:12Z</time>
      </trkpt>
      <trkpt lat="44.33536" lon="6.31099">
        <ele>1478.2</ele>
        <time>2020-08-28T07:21:18Z</time>
      </trkpt>
      <trkpt lat="44.33535" lon="6.31099">
        <ele>1478.6</ele>
        <time>2020-08-28T07:21:23Z</time>
      </trkpt>
      <trkpt lat="44.33533" lon="6.31093">
        <ele>1480.1</ele>
        <time>2020-08-28T07:21:29Z</time>
      </trkpt>
      <trkpt lat="44.33529" lon="6.31087">
        <ele>1482.5</ele>
        <time>2020-08-28T07:21:35Z</time>
      </trkpt>
      <trkpt lat="44.33527" lon="6.31086">
        <ele>1483.5</ele>
        <time>2020-08-28T07:21:41Z</time>
      </trkpt>
      <trkpt lat="44.33526" lon="6.31085">
        <ele>1484.1</ele>
        <time>2020-08-28T07:21:46Z</time>
      </trkpt>
      <trkpt lat="44.33525" lon="6.31086">
        <ele>1484.6</ele>
        <time>2020-08-28T07:21:52Z</time>
      </trkpt>
      <trkpt lat="44.33526" lon="6.31083">
        <ele>1492.4</ele>
        <time>2020-08-28T07:21:58Z</time>
      </trkpt>
      <trkpt lat="44.33526" lon="6.31082">
        <ele>1492.4</ele>
        <time>2020-08-28T07:22:03Z</time>
      </trkpt>
      <trkpt lat="44.33526" lon="6.31081">
        <ele>1492.4</ele>
        <time>2020-08-28T07:22:09Z</time>
      </trkpt>
      <trkpt lat="44.33526" lon="6.31081">
        <ele>1492.4</ele>
        <time>2020-08-28T07:22:14Z</time>
      </trkpt>
      <trkpt lat="44.33525" lon="6.3108">
        <ele>1492.8</ele>
        <time>2020-08-28T07:22:20Z</time>
      </trkpt>
      <trkpt lat="44.33525" lon="6.3108">
        <ele>1492.8</ele>
        <time>2020-08-28T07:22:25Z</time>
      </trkpt>
      <trkpt lat="44.33525" lon="6.3108">
        <ele>1492.8</ele>
        <time>2020-08-28T07:22:30Z</time>
      </trkpt>
      <trkpt lat="44.33525" lon="6.3108">
        <ele>1492.8</ele>
        <time>2020-08-28T07:22:36Z</time>
      </trkpt>
      <trkpt lat="44.33525" lon="6.31082">
        <ele>1492.8</ele>
        <time>2020-08-28T07:22:41Z</time>
      </trkpt>
      <trkpt lat="44.33524" lon="6.31081">
        <ele>1493.2</ele>
        <time>2020-08-28T07:22:47Z</time>
      </trkpt>
      <trkpt lat="44.33524" lon="6.31081">
        <ele>1493.2</ele>
        <time>2020-08-28T07:22:53Z</time>
      </trkpt>
      <trkpt lat="44.33523" lon="6.31083">
        <ele>1493.6</ele>
        <time>2020-08-28T07:22:58Z</time>
      </trkpt>
      <trkpt lat="44.33523" lon="6.31084">
        <ele>1485.8</ele>
        <time>2020-08-28T07:23:04Z</time>
      </trkpt>
      <trkpt lat="44.33523" lon="6.31083">
        <ele>1493.6</ele>
        <time>2020-08-28T07:23:09Z</time>
      </trkpt>
      <trkpt lat="44.33524" lon="6.31083">
        <ele>1493.2</ele>
        <time>2020-08-28T07:23:14Z</time>
      </trkpt>
      <trkpt lat="44.33523" lon="6.31083">
        <ele>1493.6</ele>
        <time>2020-08-28T07:23:20Z</time>
      </trkpt>
      <trkpt lat="44.33523" lon="6.31083">
        <ele>1493.6</ele>
        <time>2020-08-28T07:23:25Z</time>
      </trkpt>
      <trkpt lat="44.33523" lon="6.31083">
        <ele>1493.6</ele>
        <time>2020-08-28T07:23:30Z</time>
      </trkpt>
      <trkpt lat="44.33523" lon="6.31083">
        <ele>1493.6</ele>
        <time>2020-08-28T07:23:35Z</time>
      </trkpt>
      <trkpt lat="44.33522" lon="6.31085">
        <ele>1486.3</ele>
        <time>2020-08-28T07:23:40Z</time>
      </trkpt>
      <trkpt lat="44.33521" lon="6.31086">
        <ele>1486.8</ele>
        <time>2020-08-28T07:23:46Z</time>
      </trkpt>
      <trkpt lat="44.33521" lon="6.31086">
        <ele>1486.8</ele>
        <time>2020-08-28T07:23:52Z</time>
      </trkpt>
      <trkpt lat="44.33521" lon="6.31086">
        <ele>1486.8</ele>
        <time>2020-08-28T07:23:58Z</time>
      </trkpt>
      <trkpt lat="44.33519" lon="6.31085">
        <ele>1488.1</ele>
        <time>2020-08-28T07:24:03Z</time>
      </trkpt>
      <trkpt lat="44.3352" lon="6.31085">
        <ele>1487.5</ele>
        <time>2020-08-28T07:24:09Z</time>
      </trkpt>
      <trkpt lat="44.3352" lon="6.31084">
        <ele>1487.6</ele>
        <time>2020-08-28T07:24:15Z</time>
      </trkpt>
      <trkpt lat="44.33518" lon="6.31083">
        <ele>1495.6</ele>
        <time>2020-08-28T07:24:21Z</time>
      </trkpt>
      <trkpt lat="44.33519" lon="6.31084">
        <ele>1488.2</ele>
        <time>2020-08-28T07:24:27Z</time>
      </trkpt>
      <trkpt lat="44.33519" lon="6.31086">
        <ele>1488</ele>
        <time>2020-08-28T07:24:33Z</time>
      </trkpt>
      <trkpt lat="44.33517" lon="6.31087">
        <ele>1489.2</ele>
        <time>2020-08-28T07:24:38Z</time>
      </trkpt>
      <trkpt lat="44.33517" lon="6.31086">
        <ele>1489.3</ele>
        <time>2020-08-28T07:24:43Z</time>
      </trkpt>
      <trkpt lat="44.33517" lon="6.31089">
        <ele>1488.8</ele>
        <time>2020-08-28T07:24:49Z</time>
      </trkpt>
      <trkpt lat="44.33515" lon="6.31091">
        <ele>1489.6</ele>
        <time>2020-08-28T07:24:55Z</time>
      </trkpt>
      <trkpt lat="44.33514" lon="6.31093">
        <ele>1489.5</ele>
        <time>2020-08-28T07:25:00Z</time>
      </trkpt>
      <trkpt lat="44.33514" lon="6.31093">
        <ele>1489.5</ele>
        <time>2020-08-28T07:25:06Z</time>
      </trkpt>
      <trkpt lat="44.33514" lon="6.31093">
        <ele>1489.5</ele>
        <time>2020-08-28T07:25:11Z</time>
      </trkpt>
      <trkpt lat="44.33514" lon="6.31093">
        <ele>1489.5</ele>
        <time>2020-08-28T07:25:17Z</time>
      </trkpt>
      <trkpt lat="44.33514" lon="6.31093">
        <ele>1489.5</ele>
        <time>2020-08-28T07:25:22Z</time>
      </trkpt>
      <trkpt lat="44.33514" lon="6.31093">
        <ele>1489.5</ele>
        <time>2020-08-28T07:25:28Z</time>
      </trkpt>
      <trkpt lat="44.33514" lon="6.31093">
        <ele>1489.5</ele>
        <time>2020-08-28T07:25:34Z</time>
      </trkpt>
      <trkpt lat="44.33514" lon="6.31093">
        <ele>1489.5</ele>
        <time>2020-08-28T07:25:39Z</time>
      </trkpt>
      <trkpt lat="44.33514" lon="6.31093">
        <ele>1489.5</ele>
        <time>2020-08-28T07:25:45Z</time>
      </trkpt>
      <trkpt lat="44.33514" lon="6.31093">
        <ele>1489.5</ele>
        <time>2020-08-28T07:25:50Z</time>
      </trkpt>
      <trkpt lat="44.33514" lon="6.31093">
        <ele>1489.5</ele>
        <time>2020-08-28T07:25:56Z</time>
      </trkpt>
      <trkpt lat="44.33513" lon="6.31094">
        <ele>1489.7</ele>
        <time>2020-08-28T07:26:01Z</time>
      </trkpt>
      <trkpt lat="44.33515" lon="6.31093">
        <ele>1489</ele>
        <time>2020-08-28T07:26:07Z</time>
      </trkpt>
      <trkpt lat="44.33512" lon="6.31095">
        <ele>1489.8</ele>
        <time>2020-08-28T07:26:13Z</time>
      </trkpt>
      <trkpt lat="44.33512" lon="6.31096">
        <ele>1489.4</ele>
        <time>2020-08-28T07:26:19Z</time>
      </trkpt>
      <trkpt lat="44.33507" lon="6.31095">
        <ele>1492.1</ele>
        <time>2020-08-28T07:26:25Z</time>
      </trkpt>
      <trkpt lat="44.33508" lon="6.31095">
        <ele>1491.7</ele>
        <time>2020-08-28T07:26:30Z</time>
      </trkpt>
      <trkpt lat="44.33508" lon="6.31095">
        <ele>1491.7</ele>
        <time>2020-08-28T07:26:36Z</time>
      </trkpt>
      <trkpt lat="44.33508" lon="6.31093">
        <ele>1492.8</ele>
        <time>2020-08-28T07:26:42Z</time>
      </trkpt>
      <trkpt lat="44.33508" lon="6.31094">
        <ele>1492.2</ele>
        <time>2020-08-28T07:26:47Z</time>
      </trkpt>
      <trkpt lat="44.33508" lon="6.31094">
        <ele>1492.2</ele>
        <time>2020-08-28T07:26:53Z</time>
      </trkpt>
      <trkpt lat="44.33509" lon="6.31097">
        <ele>1490.3</ele>
        <time>2020-08-28T07:26:59Z</time>
      </trkpt>
      <trkpt lat="44.33508" lon="6.31099">
        <ele>1489.6</ele>
        <time>2020-08-28T07:27:05Z</time>
      </trkpt>
      <trkpt lat="44.33509" lon="6.31101">
        <ele>1488.4</ele>
        <time>2020-08-28T07:27:11Z</time>
      </trkpt>
      <trkpt lat="44.33506" lon="6.31105">
        <ele>1487.4</ele>
        <time>2020-08-28T07:27:17Z</time>
      </trkpt>
      <trkpt lat="44.33503" lon="6.31107">
        <ele>1487.1</ele>
        <time>2020-08-28T07:27:23Z</time>
      </trkpt>
      <trkpt lat="44.33503" lon="6.31114">
        <ele>1484.8</ele>
        <time>2020-08-28T07:27:29Z</time>
      </trkpt>
      <trkpt lat="44.33504" lon="6.31116">
        <ele>1484.1</ele>
        <time>2020-08-28T07:27:34Z</time>
      </trkpt>
      <trkpt lat="44.33503" lon="6.3112">
        <ele>1483.3</ele>
        <time>2020-08-28T07:27:39Z</time>
      </trkpt>
      <trkpt lat="44.33502" lon="6.3112">
        <ele>1483.5</ele>
        <time>2020-08-28T07:27:45Z</time>
      </trkpt>
      <trkpt lat="44.33501" lon="6.31119">
        <ele>1483.8</ele>
        <time>2020-08-28T07:27:51Z</time>
      </trkpt>
      <trkpt lat="44.33501" lon="6.31119">
        <ele>1483.8</ele>
        <time>2020-08-28T07:27:57Z</time>
      </trkpt>
      <trkpt lat="44.335" lon="6.3112">
        <ele>1483.7</ele>
        <time>2020-08-28T07:28:02Z</time>
      </trkpt>
      <trkpt lat="44.33499" lon="6.3112">
        <ele>1507.6</ele>
        <time>2020-08-28T07:28:08Z</time>
      </trkpt>
      <trkpt lat="44.33499" lon="6.31119">
        <ele>1507.7</ele>
        <time>2020-08-28T07:28:14Z</time>
      </trkpt>
      <trkpt lat="44.33498" lon="6.31119">
        <ele>1507.8</ele>
        <time>2020-08-28T07:28:20Z</time>
      </trkpt>
      <trkpt lat="44.33496" lon="6.3112">
        <ele>1507.9</ele>
        <time>2020-08-28T07:28:26Z</time>
      </trkpt>
      <trkpt lat="44.33496" lon="6.3112">
        <ele>1507.9</ele>
        <time>2020-08-28T07:28:31Z</time>
      </trkpt>
      <trkpt lat="44.33496" lon="6.3112">
        <ele>1507.9</ele>
        <time>2020-08-28T07:28:36Z</time>
      </trkpt>
      <trkpt lat="44.33496" lon="6.31119">
        <ele>1508</ele>
        <time>2020-08-28T07:28:42Z</time>
      </trkpt>
      <trkpt lat="44.33494" lon="6.31119">
        <ele>1508.1</ele>
        <time>2020-08-28T07:28:47Z</time>
      </trkpt>
      <trkpt lat="44.33491" lon="6.3112">
        <ele>1508.3</ele>
        <time>2020-08-28T07:28:53Z</time>
      </trkpt>
      <trkpt lat="44.3349" lon="6.31124">
        <ele>1507.9</ele>
        <time>2020-08-28T07:28:59Z</time>
      </trkpt>
      <trkpt lat="44.33487" lon="6.31125">
        <ele>1508.1</ele>
        <time>2020-08-28T07:29:04Z</time>
      </trkpt>
      <trkpt lat="44.33485" lon="6.31129">
        <ele>1507.7</ele>
        <time>2020-08-28T07:29:10Z</time>
      </trkpt>
      <trkpt lat="44.33483" lon="6.31131">
        <ele>1507.7</ele>
        <time>2020-08-28T07:29:16Z</time>
      </trkpt>
      <trkpt lat="44.33481" lon="6.31133">
        <ele>1507.6</ele>
        <time>2020-08-28T07:29:22Z</time>
      </trkpt>
      <trkpt lat="44.3348" lon="6.31133">
        <ele>1507.8</ele>
        <time>2020-08-28T07:29:28Z</time>
      </trkpt>
      <trkpt lat="44.33479" lon="6.31135">
        <ele>1507.6</ele>
        <time>2020-08-28T07:29:34Z</time>
      </trkpt>
      <trkpt lat="44.33479" lon="6.3114">
        <ele>1506.7</ele>
        <time>2020-08-28T07:29:40Z</time>
      </trkpt>
      <trkpt lat="44.33477" lon="6.31142">
        <ele>1506.7</ele>
        <time>2020-08-28T07:29:46Z</time>
      </trkpt>
      <trkpt lat="44.33475" lon="6.31145">
        <ele>1506.6</ele>
        <time>2020-08-28T07:29:52Z</time>
      </trkpt>
      <trkpt lat="44.33475" lon="6.31145">
        <ele>1506.6</ele>
        <time>2020-08-28T07:29:57Z</time>
      </trkpt>
      <trkpt lat="44.33475" lon="6.31145">
        <ele>1506.6</ele>
        <time>2020-08-28T07:30:03Z</time>
      </trkpt>
      <trkpt lat="44.33473" lon="6.31146">
        <ele>1506.8</ele>
        <time>2020-08-28T07:30:09Z</time>
      </trkpt>
      <trkpt lat="44.33471" lon="6.31146">
        <ele>1507.3</ele>
        <time>2020-08-28T07:30:15Z</time>
      </trkpt>
      <trkpt lat="44.33472" lon="6.31146">
        <ele>1507.1</ele>
        <time>2020-08-28T07:30:21Z</time>
      </trkpt>
      <trkpt lat="44.33472" lon="6.31146">
        <ele>1507.1</ele>
        <time>2020-08-28T07:30:26Z</time>
      </trkpt>
      <trkpt lat="44.33472" lon="6.31144">
        <ele>1507.4</ele>
        <time>2020-08-28T07:30:32Z</time>
      </trkpt>
      <trkpt lat="44.33473" lon="6.31145">
        <ele>1507</ele>
        <time>2020-08-28T07:30:37Z</time>
      </trkpt>
      <trkpt lat="44.33471" lon="6.31145">
        <ele>1507.4</ele>
        <time>2020-08-28T07:30:43Z</time>
      </trkpt>
      <trkpt lat="44.3347" lon="6.31145">
        <ele>1507.7</ele>
        <time>2020-08-28T07:30:49Z</time>
      </trkpt>
      <trkpt lat="44.33471" lon="6.31147">
        <ele>1507.1</ele>
        <time>2020-08-28T07:30:54Z</time>
      </trkpt>
      <trkpt lat="44.33471" lon="6.31147">
        <ele>1507.1</ele>
        <time>2020-08-28T07:31:00Z</time>
      </trkpt>
      <trkpt lat="44.33471" lon="6.31146">
        <ele>1507.3</ele>
        <time>2020-08-28T07:31:06Z</time>
      </trkpt>
      <trkpt lat="44.3347" lon="6.31145">
        <ele>1507.7</ele>
        <time>2020-08-28T07:31:11Z</time>
      </trkpt>
      <trkpt lat="44.3347" lon="6.31146">
        <ele>1507.5</ele>
        <time>2020-08-28T07:31:17Z</time>
      </trkpt>
      <trkpt lat="44.33468" lon="6.31151">
        <ele>1507.3</ele>
        <time>2020-08-28T07:31:23Z</time>
      </trkpt>
      <trkpt lat="44.33469" lon="6.31154">
        <ele>1506.6</ele>
        <time>2020-08-28T07:31:29Z</time>
      </trkpt>
      <trkpt lat="44.3347" lon="6.31155">
        <ele>1506.2</ele>
        <time>2020-08-28T07:31:35Z</time>
      </trkpt>
      <trkpt lat="44.3347" lon="6.31153">
        <ele>1506.5</ele>
        <time>2020-08-28T07:31:40Z</time>
      </trkpt>
      <trkpt lat="44.33471" lon="6.31152">
        <ele>1506.4</ele>
        <time>2020-08-28T07:31:46Z</time>
      </trkpt>
      <trkpt lat="44.33471" lon="6.31153">
        <ele>1506.2</ele>
        <time>2020-08-28T07:31:52Z</time>
      </trkpt>
      <trkpt lat="44.33469" lon="6.31158">
        <ele>1506.2</ele>
        <time>2020-08-28T07:31:58Z</time>
      </trkpt>
      <trkpt lat="44.33466" lon="6.3116">
        <ele>1506.8</ele>
        <time>2020-08-28T07:32:03Z</time>
      </trkpt>
      <trkpt lat="44.33463" lon="6.31162">
        <ele>1507.3</ele>
        <time>2020-08-28T07:32:09Z</time>
      </trkpt>
      <trkpt lat="44.33462" lon="6.31165">
        <ele>1507.4</ele>
        <time>2020-08-28T07:32:15Z</time>
      </trkpt>
      <trkpt lat="44.33459" lon="6.31167">
        <ele>1490.8</ele>
        <time>2020-08-28T07:32:21Z</time>
      </trkpt>
      <trkpt lat="44.33458" lon="6.31166">
        <ele>1508.2</ele>
        <time>2020-08-28T07:32:27Z</time>
      </trkpt>
      <trkpt lat="44.33457" lon="6.31165">
        <ele>1508.4</ele>
        <time>2020-08-28T07:32:33Z</time>
      </trkpt>
      <trkpt lat="44.33456" lon="6.31165">
        <ele>1508.6</ele>
        <time>2020-08-28T07:32:38Z</time>
      </trkpt>
      <trkpt lat="44.33455" lon="6.31165">
        <ele>1508.8</ele>
        <time>2020-08-28T07:32:44Z</time>
      </trkpt>
      <trkpt lat="44.33455" lon="6.31165">
        <ele>1508.8</ele>
        <time>2020-08-28T07:32:49Z</time>
      </trkpt>
      <trkpt lat="44.33453" lon="6.31166">
        <ele>1509.1</ele>
        <time>2020-08-28T07:32:54Z</time>
      </trkpt>
      <trkpt lat="44.33449" lon="6.31169">
        <ele>1492.8</ele>
        <time>2020-08-28T07:33:00Z</time>
      </trkpt>
      <trkpt lat="44.33449" lon="6.3117">
        <ele>1492.7</ele>
        <time>2020-08-28T07:33:05Z</time>
      </trkpt>
      <trkpt lat="44.33446" lon="6.31169">
        <ele>1493.6</ele>
        <time>2020-08-28T07:33:10Z</time>
      </trkpt>
      <trkpt lat="44.33442" lon="6.3117">
        <ele>1494.7</ele>
        <time>2020-08-28T07:33:15Z</time>
      </trkpt>
      <trkpt lat="44.33439" lon="6.31166">
        <ele>1510.9</ele>
        <time>2020-08-28T07:33:21Z</time>
      </trkpt>
      <trkpt lat="44.33439" lon="6.31164">
        <ele>1511</ele>
        <time>2020-08-28T07:33:27Z</time>
      </trkpt>
      <trkpt lat="44.33438" lon="6.31163">
        <ele>1511.2</ele>
        <time>2020-08-28T07:33:32Z</time>
      </trkpt>
      <trkpt lat="44.33439" lon="6.31164">
        <ele>1511</ele>
        <time>2020-08-28T07:33:37Z</time>
      </trkpt>
      <trkpt lat="44.33438" lon="6.31162">
        <ele>1511.2</ele>
        <time>2020-08-28T07:33:43Z</time>
      </trkpt>
      <trkpt lat="44.33437" lon="6.3116">
        <ele>1511.4</ele>
        <time>2020-08-28T07:33:49Z</time>
      </trkpt>
      <trkpt lat="44.33435" lon="6.31158">
        <ele>1511.7</ele>
        <time>2020-08-28T07:33:55Z</time>
      </trkpt>
      <trkpt lat="44.33436" lon="6.31156">
        <ele>1511.8</ele>
        <time>2020-08-28T07:34:00Z</time>
      </trkpt>
      <trkpt lat="44.33437" lon="6.31153">
        <ele>1512</ele>
        <time>2020-08-28T07:34:05Z</time>
      </trkpt>
      <trkpt lat="44.33441" lon="6.3115">
        <ele>1511.9</ele>
        <time>2020-08-28T07:34:11Z</time>
      </trkpt>
      <trkpt lat="44.33441" lon="6.31146">
        <ele>1512.4</ele>
        <time>2020-08-28T07:34:17Z</time>
      </trkpt>
      <trkpt lat="44.33441" lon="6.31142">
        <ele>1512.9</ele>
        <time>2020-08-28T07:34:22Z</time>
      </trkpt>
      <trkpt lat="44.33442" lon="6.31139">
        <ele>1513.2</ele>
        <time>2020-08-28T07:34:27Z</time>
      </trkpt>
      <trkpt lat="44.33443" lon="6.3114">
        <ele>1512.9</ele>
        <time>2020-08-28T07:34:33Z</time>
      </trkpt>
      <trkpt lat="44.33446" lon="6.31141">
        <ele>1512.4</ele>
        <time>2020-08-28T07:34:39Z</time>
      </trkpt>
      <trkpt lat="44.33446" lon="6.31143">
        <ele>1512.1</ele>
        <time>2020-08-28T07:34:44Z</time>
      </trkpt>
      <trkpt lat="44.33447" lon="6.31143">
        <ele>1512</ele>
        <time>2020-08-28T07:34:50Z</time>
      </trkpt>
      <trkpt lat="44.33447" lon="6.31143">
        <ele>1512</ele>
        <time>2020-08-28T07:34:55Z</time>
      </trkpt>
      <trkpt lat="44.33448" lon="6.31143">
        <ele>1511.9</ele>
        <time>2020-08-28T07:35:01Z</time>
      </trkpt>
      <trkpt lat="44.33448" lon="6.31144">
        <ele>1511.7</ele>
        <time>2020-08-28T07:35:06Z</time>
      </trkpt>
      <trkpt lat="44.33448" lon="6.31144">
        <ele>1511.7</ele>
        <time>2020-08-28T07:35:11Z</time>
      </trkpt>
      <trkpt lat="44.33448" lon="6.31144">
        <ele>1511.7</ele>
        <time>2020-08-28T07:35:17Z</time>
      </trkpt>
      <trkpt lat="44.33448" lon="6.31143">
        <ele>1511.9</ele>
        <time>2020-08-28T07:35:22Z</time>
      </trkpt>
      <trkpt lat="44.33449" lon="6.3114">
        <ele>1512.1</ele>
        <time>2020-08-28T07:35:27Z</time>
      </trkpt>
      <trkpt lat="44.33447" lon="6.31137">
        <ele>1512.8</ele>
        <time>2020-08-28T07:35:33Z</time>
      </trkpt>
      <trkpt lat="44.33446" lon="6.31134">
        <ele>1513.4</ele>
        <time>2020-08-28T07:35:39Z</time>
      </trkpt>
      <trkpt lat="44.33445" lon="6.31134">
        <ele>1513.6</ele>
        <time>2020-08-28T07:35:45Z</time>
      </trkpt>
      <trkpt lat="44.33443" lon="6.31134">
        <ele>1513.8</ele>
        <time>2020-08-28T07:35:50Z</time>
      </trkpt>
      <trkpt lat="44.33441" lon="6.31133">
        <ele>1514.3</ele>
        <time>2020-08-28T07:35:55Z</time>
      </trkpt>
      <trkpt lat="44.33445" lon="6.3113">
        <ele>1514.2</ele>
        <time>2020-08-28T07:36:01Z</time>
      </trkpt>
      <trkpt lat="44.33444" lon="6.31128">
        <ele>1514.7</ele>
        <time>2020-08-28T07:36:06Z</time>
      </trkpt>
      <trkpt lat="44.33443" lon="6.31129">
        <ele>1514.7</ele>
        <time>2020-08-28T07:36:12Z</time>
      </trkpt>
      <trkpt lat="44.33443" lon="6.31127">
        <ele>1515.1</ele>
        <time>2020-08-28T07:36:17Z</time>
      </trkpt>
      <trkpt lat="44.33442" lon="6.31125">
        <ele>1515.6</ele>
        <time>2020-08-28T07:36:23Z</time>
      </trkpt>
      <trkpt lat="44.33442" lon="6.31123">
        <ele>1516</ele>
        <time>2020-08-28T07:36:28Z</time>
      </trkpt>
      <trkpt lat="44.33441" lon="6.31124">
        <ele>1516</ele>
        <time>2020-08-28T07:36:34Z</time>
      </trkpt>
      <trkpt lat="44.33439" lon="6.31123">
        <ele>1516.5</ele>
        <time>2020-08-28T07:36:40Z</time>
      </trkpt>
      <trkpt lat="44.33438" lon="6.31122">
        <ele>1516.9</ele>
        <time>2020-08-28T07:36:45Z</time>
      </trkpt>
      <trkpt lat="44.3344" lon="6.31121">
        <ele>1516.8</ele>
        <time>2020-08-28T07:36:51Z</time>
      </trkpt>
      <trkpt lat="44.33439" lon="6.3112">
        <ele>1517.2</ele>
        <time>2020-08-28T07:36:56Z</time>
      </trkpt>
      <trkpt lat="44.33438" lon="6.31119">
        <ele>1517.7</ele>
        <time>2020-08-28T07:37:01Z</time>
      </trkpt>
      <trkpt lat="44.33438" lon="6.31117">
        <ele>1518.2</ele>
        <time>2020-08-28T07:37:07Z</time>
      </trkpt>
      <trkpt lat="44.33437" lon="6.31115">
        <ele>1518.9</ele>
        <time>2020-08-28T07:37:12Z</time>
      </trkpt>
      <trkpt lat="44.33437" lon="6.31115">
        <ele>1518.9</ele>
        <time>2020-08-28T07:37:18Z</time>
      </trkpt>
      <trkpt lat="44.33438" lon="6.31117">
        <ele>1518.2</ele>
        <time>2020-08-28T07:37:24Z</time>
      </trkpt>
      <trkpt lat="44.33438" lon="6.31117">
        <ele>1518.2</ele>
        <time>2020-08-28T07:37:29Z</time>
      </trkpt>
      <trkpt lat="44.33438" lon="6.31113">
        <ele>1519.2</ele>
        <time>2020-08-28T07:37:34Z</time>
      </trkpt>
      <trkpt lat="44.3344" lon="6.31113">
        <ele>1518.8</ele>
        <time>2020-08-28T07:37:39Z</time>
      </trkpt>
      <trkpt lat="44.33438" lon="6.31114">
        <ele>1518.9</ele>
        <time>2020-08-28T07:37:45Z</time>
      </trkpt>
      <trkpt lat="44.33437" lon="6.31112">
        <ele>1519.7</ele>
        <time>2020-08-28T07:37:50Z</time>
      </trkpt>
      <trkpt lat="44.3344" lon="6.31111">
        <ele>1519.3</ele>
        <time>2020-08-28T07:37:56Z</time>
      </trkpt>
      <trkpt lat="44.33439" lon="6.31111">
        <ele>1519.5</ele>
        <time>2020-08-28T07:38:02Z</time>
      </trkpt>
      <trkpt lat="44.33439" lon="6.31111">
        <ele>1519.5</ele>
        <time>2020-08-28T07:38:08Z</time>
      </trkpt>
      <trkpt lat="44.33439" lon="6.31111">
        <ele>1519.5</ele>
        <time>2020-08-28T07:38:13Z</time>
      </trkpt>
      <trkpt lat="44.33439" lon="6.31111">
        <ele>1519.5</ele>
        <time>2020-08-28T07:38:18Z</time>
      </trkpt>
      <trkpt lat="44.33439" lon="6.31111">
        <ele>1519.5</ele>
        <time>2020-08-28T07:38:24Z</time>
      </trkpt>
      <trkpt lat="44.33439" lon="6.3111">
        <ele>1519.8</ele>
        <time>2020-08-28T07:38:30Z</time>
      </trkpt>
      <trkpt lat="44.33439" lon="6.3111">
        <ele>1519.8</ele>
        <time>2020-08-28T07:38:36Z</time>
      </trkpt>
      <trkpt lat="44.3344" lon="6.3111">
        <ele>1519.5</ele>
        <time>2020-08-28T07:38:41Z</time>
      </trkpt>
      <trkpt lat="44.33442" lon="6.3111">
        <ele>1519</ele>
        <time>2020-08-28T07:38:46Z</time>
      </trkpt>
      <trkpt lat="44.33444" lon="6.31109">
        <ele>1518.7</ele>
        <time>2020-08-28T07:38:52Z</time>
      </trkpt>
      <trkpt lat="44.33445" lon="6.31107">
        <ele>1518.9</ele>
        <time>2020-08-28T07:38:58Z</time>
      </trkpt>
      <trkpt lat="44.33446" lon="6.31106">
        <ele>1518.8</ele>
        <time>2020-08-28T07:39:03Z</time>
      </trkpt>
      <trkpt lat="44.33446" lon="6.31106">
        <ele>1518.8</ele>
        <time>2020-08-28T07:39:09Z</time>
      </trkpt>
      <trkpt lat="44.33446" lon="6.31106">
        <ele>1518.8</ele>
        <time>2020-08-28T07:39:14Z</time>
      </trkpt>
      <trkpt lat="44.33446" lon="6.31106">
        <ele>1518.8</ele>
        <time>2020-08-28T07:39:20Z</time>
      </trkpt>
      <trkpt lat="44.33446" lon="6.31106">
        <ele>1518.8</ele>
        <time>2020-08-28T07:39:26Z</time>
      </trkpt>
      <trkpt lat="44.33446" lon="6.31106">
        <ele>1518.8</ele>
        <time>2020-08-28T07:39:32Z</time>
      </trkpt>
      <trkpt lat="44.33446" lon="6.31106">
        <ele>1518.8</ele>
        <time>2020-08-28T07:39:37Z</time>
      </trkpt>
      <trkpt lat="44.33446" lon="6.31106">
        <ele>1518.8</ele>
        <time>2020-08-28T07:39:43Z</time>
      </trkpt>
      <trkpt lat="44.33446" lon="6.31106">
        <ele>1518.8</ele>
        <time>2020-08-28T07:39:48Z</time>
      </trkpt>
      <trkpt lat="44.33446" lon="6.31106">
        <ele>1518.8</ele>
        <time>2020-08-28T07:39:53Z</time>
      </trkpt>
      <trkpt lat="44.33446" lon="6.31106">
        <ele>1518.8</ele>
        <time>2020-08-28T07:39:59Z</time>
      </trkpt>
      <trkpt lat="44.33446" lon="6.31106">
        <ele>1518.8</ele>
        <time>2020-08-28T07:40:05Z</time>
      </trkpt>
      <trkpt lat="44.33447" lon="6.31109">
        <ele>1517.9</ele>
        <time>2020-08-28T07:40:11Z</time>
      </trkpt>
      <trkpt lat="44.33448" lon="6.31109">
        <ele>1517.6</ele>
        <time>2020-08-28T07:40:16Z</time>
      </trkpt>
      <trkpt lat="44.33448" lon="6.31108">
        <ele>1517.8</ele>
        <time>2020-08-28T07:40:22Z</time>
      </trkpt>
      <trkpt lat="44.33448" lon="6.31108">
        <ele>1517.8</ele>
        <time>2020-08-28T07:40:27Z</time>
      </trkpt>
      <trkpt lat="44.33448" lon="6.31108">
        <ele>1517.8</ele>
        <time>2020-08-28T07:40:32Z</time>
      </trkpt>
      <trkpt lat="44.33448" lon="6.31108">
        <ele>1517.8</ele>
        <time>2020-08-28T07:40:38Z</time>
      </trkpt>
      <trkpt lat="44.33448" lon="6.31108">
        <ele>1517.8</ele>
        <time>2020-08-28T07:40:43Z</time>
      </trkpt>
      <trkpt lat="44.33448" lon="6.31108">
        <ele>1517.8</ele>
        <time>2020-08-28T07:40:48Z</time>
      </trkpt>
      <trkpt lat="44.33448" lon="6.31108">
        <ele>1517.8</ele>
        <time>2020-08-28T07:40:54Z</time>
      </trkpt>
      <trkpt lat="44.33448" lon="6.31108">
        <ele>1517.8</ele>
        <time>2020-08-28T07:41:00Z</time>
      </trkpt>
      <trkpt lat="44.33448" lon="6.31108">
        <ele>1517.8</ele>
        <time>2020-08-28T07:41:05Z</time>
      </trkpt>
      <trkpt lat="44.33448" lon="6.31108">
        <ele>1517.8</ele>
        <time>2020-08-28T07:41:11Z</time>
      </trkpt>
      <trkpt lat="44.33448" lon="6.31108">
        <ele>1517.8</ele>
        <time>2020-08-28T07:41:17Z</time>
      </trkpt>
      <trkpt lat="44.33448" lon="6.31108">
        <ele>1517.8</ele>
        <time>2020-08-28T07:41:23Z</time>
      </trkpt>
      <trkpt lat="44.33448" lon="6.31108">
        <ele>1517.8</ele>
        <time>2020-08-28T07:41:29Z</time>
      </trkpt>
      <trkpt lat="44.33447" lon="6.31108">
        <ele>1518.1</ele>
        <time>2020-08-28T07:41:35Z</time>
      </trkpt>
      <trkpt lat="44.33447" lon="6.31108">
        <ele>1518.1</ele>
        <time>2020-08-28T07:41:41Z</time>
      </trkpt>
      <trkpt lat="44.33444" lon="6.3111">
        <ele>1518.5</ele>
        <time>2020-08-28T07:41:46Z</time>
      </trkpt>
      <trkpt lat="44.33442" lon="6.31109">
        <ele>1519.3</ele>
        <time>2020-08-28T07:41:52Z</time>
      </trkpt>
      <trkpt lat="44.33441" lon="6.31106">
        <ele>1520.3</ele>
        <time>2020-08-28T07:41:58Z</time>
      </trkpt>
      <trkpt lat="44.3344" lon="6.31107">
        <ele>1520.3</ele>
        <time>2020-08-28T07:42:03Z</time>
      </trkpt>
      <trkpt lat="44.3344" lon="6.31107">
        <ele>1520.3</ele>
        <time>2020-08-28T07:42:09Z</time>
      </trkpt>
      <trkpt lat="44.3344" lon="6.31107">
        <ele>1520.3</ele>
        <time>2020-08-28T07:42:14Z</time>
      </trkpt>
      <trkpt lat="44.3344" lon="6.31107">
        <ele>1520.3</ele>
        <time>2020-08-28T07:42:20Z</time>
      </trkpt>
      <trkpt lat="44.3344" lon="6.31104">
        <ele>1521.1</ele>
        <time>2020-08-28T07:42:26Z</time>
      </trkpt>
      <trkpt lat="44.33438" lon="6.31103">
        <ele>1522.1</ele>
        <time>2020-08-28T07:42:32Z</time>
      </trkpt>
      <trkpt lat="44.33438" lon="6.311">
        <ele>1523</ele>
        <time>2020-08-28T07:42:37Z</time>
      </trkpt>
      <trkpt lat="44.3344" lon="6.311">
        <ele>1522.2</ele>
        <time>2020-08-28T07:42:43Z</time>
      </trkpt>
      <trkpt lat="44.3344" lon="6.31099">
        <ele>1522.5</ele>
        <time>2020-08-28T07:42:49Z</time>
      </trkpt>
      <trkpt lat="44.33441" lon="6.31099">
        <ele>1522.1</ele>
        <time>2020-08-28T07:42:54Z</time>
      </trkpt>
      <trkpt lat="44.33442" lon="6.311">
        <ele>1521.5</ele>
        <time>2020-08-28T07:43:00Z</time>
      </trkpt>
      <trkpt lat="44.33442" lon="6.31101">
        <ele>1521.2</ele>
        <time>2020-08-28T07:43:06Z</time>
      </trkpt>
      <trkpt lat="44.33442" lon="6.31101">
        <ele>1521.2</ele>
        <time>2020-08-28T07:43:11Z</time>
      </trkpt>
      <trkpt lat="44.33439" lon="6.311">
        <ele>1522.6</ele>
        <time>2020-08-28T07:43:17Z</time>
      </trkpt>
      <trkpt lat="44.33437" lon="6.311">
        <ele>1523.4</ele>
        <time>2020-08-28T07:43:23Z</time>
      </trkpt>
      <trkpt lat="44.33436" lon="6.311">
        <ele>1523.8</ele>
        <time>2020-08-28T07:43:29Z</time>
      </trkpt>
      <trkpt lat="44.33436" lon="6.311">
        <ele>1523.8</ele>
        <time>2020-08-28T07:43:34Z</time>
      </trkpt>
      <trkpt lat="44.33435" lon="6.31098">
        <ele>1524.8</ele>
        <time>2020-08-28T07:43:40Z</time>
      </trkpt>
      <trkpt lat="44.33435" lon="6.31096">
        <ele>1525.5</ele>
        <time>2020-08-28T07:43:45Z</time>
      </trkpt>
      <trkpt lat="44.33435" lon="6.31096">
        <ele>1525.5</ele>
        <time>2020-08-28T07:43:50Z</time>
      </trkpt>
      <trkpt lat="44.33436" lon="6.31096">
        <ele>1525</ele>
        <time>2020-08-28T07:43:56Z</time>
      </trkpt>
      <trkpt lat="44.33437" lon="6.31097">
        <ele>1524.3</ele>
        <time>2020-08-28T07:44:01Z</time>
      </trkpt>
      <trkpt lat="44.33436" lon="6.31099">
        <ele>1524.1</ele>
        <time>2020-08-28T07:44:06Z</time>
      </trkpt>
      <trkpt lat="44.33436" lon="6.31098">
        <ele>1524.4</ele>
        <time>2020-08-28T07:44:12Z</time>
      </trkpt>
      <trkpt lat="44.33436" lon="6.31098">
        <ele>1524.4</ele>
        <time>2020-08-28T07:44:17Z</time>
      </trkpt>
      <trkpt lat="44.33435" lon="6.31096">
        <ele>1525.5</ele>
        <time>2020-08-28T07:44:23Z</time>
      </trkpt>
      <trkpt lat="44.33434" lon="6.31096">
        <ele>1525.9</ele>
        <time>2020-08-28T07:44:28Z</time>
      </trkpt>
      <trkpt lat="44.33434" lon="6.31097">
        <ele>1525.6</ele>
        <time>2020-08-28T07:44:33Z</time>
      </trkpt>
      <trkpt lat="44.33434" lon="6.31095">
        <ele>1526.3</ele>
        <time>2020-08-28T07:44:38Z</time>
      </trkpt>
      <trkpt lat="44.33433" lon="6.31096">
        <ele>1526.4</ele>
        <time>2020-08-28T07:44:44Z</time>
      </trkpt>
      <trkpt lat="44.33433" lon="6.31096">
        <ele>1526.4</ele>
        <time>2020-08-28T07:44:49Z</time>
      </trkpt>
      <trkpt lat="44.33433" lon="6.31096">
        <ele>1526.4</ele>
        <time>2020-08-28T07:44:55Z</time>
      </trkpt>
      <trkpt lat="44.33433" lon="6.31096">
        <ele>1526.4</ele>
        <time>2020-08-28T07:45:01Z</time>
      </trkpt>
      <trkpt lat="44.33433" lon="6.31096">
        <ele>1526.4</ele>
        <time>2020-08-28T07:45:06Z</time>
      </trkpt>
      <trkpt lat="44.33433" lon="6.31096">
        <ele>1526.4</ele>
        <time>2020-08-28T07:45:11Z</time>
      </trkpt>
      <trkpt lat="44.33433" lon="6.31095">
        <ele>1526.8</ele>
        <time>2020-08-28T07:45:16Z</time>
      </trkpt>
      <trkpt lat="44.33433" lon="6.31095">
        <ele>1526.8</ele>
        <time>2020-08-28T07:45:22Z</time>
      </trkpt>
      <trkpt lat="44.33432" lon="6.31093">
        <ele>1528</ele>
        <time>2020-08-28T07:45:28Z</time>
      </trkpt>
      <trkpt lat="44.33432" lon="6.31092">
        <ele>1528.3</ele>
        <time>2020-08-28T07:45:34Z</time>
      </trkpt>
      <trkpt lat="44.33432" lon="6.31092">
        <ele>1528.3</ele>
        <time>2020-08-28T07:45:39Z</time>
      </trkpt>
      <trkpt lat="44.33435" lon="6.3109">
        <ele>1527.2</ele>
        <time>2020-08-28T07:45:45Z</time>
      </trkpt>
      <trkpt lat="44.33434" lon="6.31089">
        <ele>1528</ele>
        <time>2020-08-28T07:45:50Z</time>
      </trkpt>
      <trkpt lat="44.33432" lon="6.31085">
        <ele>1530</ele>
        <time>2020-08-28T07:45:56Z</time>
      </trkpt>
      <trkpt lat="44.33431" lon="6.31083">
        <ele>1538.3</ele>
        <time>2020-08-28T07:46:02Z</time>
      </trkpt>
      <trkpt lat="44.33431" lon="6.31081">
        <ele>1538.3</ele>
        <time>2020-08-28T07:46:08Z</time>
      </trkpt>
      <trkpt lat="44.33431" lon="6.31081">
        <ele>1538.3</ele>
        <time>2020-08-28T07:46:14Z</time>
      </trkpt>
      <trkpt lat="44.3343" lon="6.31077">
        <ele>1538.4</ele>
        <time>2020-08-28T07:46:20Z</time>
      </trkpt>
      <trkpt lat="44.3343" lon="6.31072">
        <ele>1537.8</ele>
        <time>2020-08-28T07:46:25Z</time>
      </trkpt>
      <trkpt lat="44.33429" lon="6.3107">
        <ele>1537.8</ele>
        <time>2020-08-28T07:46:31Z</time>
      </trkpt>
      <trkpt lat="44.33429" lon="6.31069">
        <ele>1537.7</ele>
        <time>2020-08-28T07:46:36Z</time>
      </trkpt>
      <trkpt lat="44.33429" lon="6.31067">
        <ele>1537.5</ele>
        <time>2020-08-28T07:46:42Z</time>
      </trkpt>
      <trkpt lat="44.33428" lon="6.31067">
        <ele>1537.7</ele>
        <time>2020-08-28T07:46:48Z</time>
      </trkpt>
      <trkpt lat="44.33428" lon="6.31066">
        <ele>1537.6</ele>
        <time>2020-08-28T07:46:53Z</time>
      </trkpt>
      <trkpt lat="44.33428" lon="6.31066">
        <ele>1537.6</ele>
        <time>2020-08-28T07:46:58Z</time>
      </trkpt>
      <trkpt lat="44.33428" lon="6.31066">
        <ele>1537.6</ele>
        <time>2020-08-28T07:47:04Z</time>
      </trkpt>
      <trkpt lat="44.33427" lon="6.31063">
        <ele>1537.5</ele>
        <time>2020-08-28T07:47:10Z</time>
      </trkpt>
      <trkpt lat="44.33426" lon="6.31059">
        <ele>1537.4</ele>
        <time>2020-08-28T07:47:15Z</time>
      </trkpt>
      <trkpt lat="44.33426" lon="6.31056">
        <ele>1537.3</ele>
        <time>2020-08-28T07:47:20Z</time>
      </trkpt>
      <trkpt lat="44.33425" lon="6.31055">
        <ele>1537.4</ele>
        <time>2020-08-28T07:47:26Z</time>
      </trkpt>
      <trkpt lat="44.33425" lon="6.31055">
        <ele>1537.4</ele>
        <time>2020-08-28T07:47:32Z</time>
      </trkpt>
      <trkpt lat="44.33425" lon="6.31054">
        <ele>1537.4</ele>
        <time>2020-08-28T07:47:37Z</time>
      </trkpt>
      <trkpt lat="44.33425" lon="6.31052">
        <ele>1537.4</ele>
        <time>2020-08-28T07:47:43Z</time>
      </trkpt>
      <trkpt lat="44.33425" lon="6.31053">
        <ele>1537.4</ele>
        <time>2020-08-28T07:47:49Z</time>
      </trkpt>
      <trkpt lat="44.33425" lon="6.31053">
        <ele>1537.4</ele>
        <time>2020-08-28T07:47:54Z</time>
      </trkpt>
      <trkpt lat="44.33425" lon="6.31053">
        <ele>1537.4</ele>
        <time>2020-08-28T07:48:00Z</time>
      </trkpt>
      <trkpt lat="44.33425" lon="6.31053">
        <ele>1537.4</ele>
        <time>2020-08-28T07:48:06Z</time>
      </trkpt>
      <trkpt lat="44.33425" lon="6.3105">
        <ele>1537.5</ele>
        <time>2020-08-28T07:48:11Z</time>
      </trkpt>
      <trkpt lat="44.33423" lon="6.31051">
        <ele>1537.7</ele>
        <time>2020-08-28T07:48:17Z</time>
      </trkpt>
      <trkpt lat="44.33423" lon="6.3105">
        <ele>1537.8</ele>
        <time>2020-08-28T07:48:22Z</time>
      </trkpt>
      <trkpt lat="44.33421" lon="6.31049">
        <ele>1538.1</ele>
        <time>2020-08-28T07:48:27Z</time>
      </trkpt>
      <trkpt lat="44.33421" lon="6.31049">
        <ele>1538.1</ele>
        <time>2020-08-28T07:48:33Z</time>
      </trkpt>
      <trkpt lat="44.33421" lon="6.31049">
        <ele>1538.1</ele>
        <time>2020-08-28T07:48:38Z</time>
      </trkpt>
      <trkpt lat="44.33421" lon="6.31049">
        <ele>1538.1</ele>
        <time>2020-08-28T07:48:43Z</time>
      </trkpt>
      <trkpt lat="44.33419" lon="6.31046">
        <ele>1538.5</ele>
        <time>2020-08-28T07:48:49Z</time>
      </trkpt>
      <trkpt lat="44.33418" lon="6.31046">
        <ele>1538.6</ele>
        <time>2020-08-28T07:48:55Z</time>
      </trkpt>
      <trkpt lat="44.33418" lon="6.31041">
        <ele>1539.3</ele>
        <time>2020-08-28T07:49:00Z</time>
      </trkpt>
      <trkpt lat="44.33418" lon="6.31039">
        <ele>1539.6</ele>
        <time>2020-08-28T07:49:05Z</time>
      </trkpt>
      <trkpt lat="44.33417" lon="6.31038">
        <ele>1539.9</ele>
        <time>2020-08-28T07:49:11Z</time>
      </trkpt>
      <trkpt lat="44.33415" lon="6.31037">
        <ele>1552</ele>
        <time>2020-08-28T07:49:16Z</time>
      </trkpt>
      <trkpt lat="44.33414" lon="6.31036">
        <ele>1552.1</ele>
        <time>2020-08-28T07:49:22Z</time>
      </trkpt>
      <trkpt lat="44.33414" lon="6.31035">
        <ele>1552.3</ele>
        <time>2020-08-28T07:49:27Z</time>
      </trkpt>
      <trkpt lat="44.33415" lon="6.31034">
        <ele>1552.5</ele>
        <time>2020-08-28T07:49:33Z</time>
      </trkpt>
      <trkpt lat="44.33415" lon="6.31033">
        <ele>1552.7</ele>
        <time>2020-08-28T07:49:39Z</time>
      </trkpt>
      <trkpt lat="44.33415" lon="6.31033">
        <ele>1552.7</ele>
        <time>2020-08-28T07:49:45Z</time>
      </trkpt>
      <trkpt lat="44.33415" lon="6.31032">
        <ele>1552.9</ele>
        <time>2020-08-28T07:49:51Z</time>
      </trkpt>
      <trkpt lat="44.33415" lon="6.31032">
        <ele>1552.9</ele>
        <time>2020-08-28T07:49:56Z</time>
      </trkpt>
      <trkpt lat="44.33415" lon="6.31032">
        <ele>1552.9</ele>
        <time>2020-08-28T07:50:02Z</time>
      </trkpt>
      <trkpt lat="44.33415" lon="6.31032">
        <ele>1552.9</ele>
        <time>2020-08-28T07:50:08Z</time>
      </trkpt>
      <trkpt lat="44.33416" lon="6.31029">
        <ele>1553.5</ele>
        <time>2020-08-28T07:50:14Z</time>
      </trkpt>
      <trkpt lat="44.33416" lon="6.31027">
        <ele>1553.9</ele>
        <time>2020-08-28T07:50:19Z</time>
      </trkpt>
      <trkpt lat="44.33416" lon="6.31025">
        <ele>1554.4</ele>
        <time>2020-08-28T07:50:25Z</time>
      </trkpt>
      <trkpt lat="44.33416" lon="6.31025">
        <ele>1554.4</ele>
        <time>2020-08-28T07:50:30Z</time>
      </trkpt>
      <trkpt lat="44.33416" lon="6.31022">
        <ele>1555</ele>
        <time>2020-08-28T07:50:35Z</time>
      </trkpt>
      <trkpt lat="44.33415" lon="6.3102">
        <ele>1555.5</ele>
        <time>2020-08-28T07:50:41Z</time>
      </trkpt>
      <trkpt lat="44.33413" lon="6.31019">
        <ele>1555.7</ele>
        <time>2020-08-28T07:50:47Z</time>
      </trkpt>
      <trkpt lat="44.33411" lon="6.31016">
        <ele>1556.3</ele>
        <time>2020-08-28T07:50:53Z</time>
      </trkpt>
      <trkpt lat="44.3341" lon="6.31014">
        <ele>1556.7</ele>
        <time>2020-08-28T07:50:58Z</time>
      </trkpt>
      <trkpt lat="44.33407" lon="6.31011">
        <ele>1557</ele>
        <time>2020-08-28T07:51:04Z</time>
      </trkpt>
      <trkpt lat="44.33405" lon="6.31009">
        <ele>1557.1</ele>
        <time>2020-08-28T07:51:09Z</time>
      </trkpt>
      <trkpt lat="44.33404" lon="6.31009">
        <ele>1556.9</ele>
        <time>2020-08-28T07:51:15Z</time>
      </trkpt>
      <trkpt lat="44.33404" lon="6.31006">
        <ele>1557.4</ele>
        <time>2020-08-28T07:51:21Z</time>
      </trkpt>
      <trkpt lat="44.33403" lon="6.31005">
        <ele>1557.3</ele>
        <time>2020-08-28T07:51:27Z</time>
      </trkpt>
      <trkpt lat="44.33402" lon="6.31003">
        <ele>1557.3</ele>
        <time>2020-08-28T07:51:32Z</time>
      </trkpt>
      <trkpt lat="44.33401" lon="6.31002">
        <ele>1557.2</ele>
        <time>2020-08-28T07:51:37Z</time>
      </trkpt>
      <trkpt lat="44.334" lon="6.30999">
        <ele>1566.6</ele>
        <time>2020-08-28T07:51:43Z</time>
      </trkpt>
      <trkpt lat="44.33399" lon="6.30999">
        <ele>1566.8</ele>
        <time>2020-08-28T07:51:49Z</time>
      </trkpt>
      <trkpt lat="44.33399" lon="6.30999">
        <ele>1566.8</ele>
        <time>2020-08-28T07:51:55Z</time>
      </trkpt>
      <trkpt lat="44.33398" lon="6.30999">
        <ele>1567</ele>
        <time>2020-08-28T07:52:00Z</time>
      </trkpt>
      <trkpt lat="44.33398" lon="6.30996">
        <ele>1567.1</ele>
        <time>2020-08-28T07:52:05Z</time>
      </trkpt>
      <trkpt lat="44.33396" lon="6.30998">
        <ele>1567.4</ele>
        <time>2020-08-28T07:52:11Z</time>
      </trkpt>
      <trkpt lat="44.33395" lon="6.30998">
        <ele>1567.5</ele>
        <time>2020-08-28T07:52:16Z</time>
      </trkpt>
      <trkpt lat="44.33396" lon="6.30994">
        <ele>1567.6</ele>
        <time>2020-08-28T07:52:22Z</time>
      </trkpt>
      <trkpt lat="44.33396" lon="6.30994">
        <ele>1567.6</ele>
        <time>2020-08-28T07:52:28Z</time>
      </trkpt>
      <trkpt lat="44.33397" lon="6.30995">
        <ele>1567.3</ele>
        <time>2020-08-28T07:52:33Z</time>
      </trkpt>
      <trkpt lat="44.33398" lon="6.30992">
        <ele>1567.4</ele>
        <time>2020-08-28T07:52:38Z</time>
      </trkpt>
      <trkpt lat="44.33398" lon="6.30992">
        <ele>1567.4</ele>
        <time>2020-08-28T07:52:44Z</time>
      </trkpt>
      <trkpt lat="44.33398" lon="6.30992">
        <ele>1567.4</ele>
        <time>2020-08-28T07:52:50Z</time>
      </trkpt>
      <trkpt lat="44.33399" lon="6.30989">
        <ele>1567.5</ele>
        <time>2020-08-28T07:52:56Z</time>
      </trkpt>
      <trkpt lat="44.334" lon="6.30988">
        <ele>1567.4</ele>
        <time>2020-08-28T07:53:01Z</time>
      </trkpt>
      <trkpt lat="44.334" lon="6.30988">
        <ele>1567.4</ele>
        <time>2020-08-28T07:53:06Z</time>
      </trkpt>
      <trkpt lat="44.33399" lon="6.30987">
        <ele>1567.7</ele>
        <time>2020-08-28T07:53:12Z</time>
      </trkpt>
      <trkpt lat="44.33399" lon="6.3099">
        <ele>1567.4</ele>
        <time>2020-08-28T07:53:18Z</time>
      </trkpt>
      <trkpt lat="44.334" lon="6.30991">
        <ele>1567.1</ele>
        <time>2020-08-28T07:53:23Z</time>
      </trkpt>
      <trkpt lat="44.334" lon="6.30992">
        <ele>1567</ele>
        <time>2020-08-28T07:53:29Z</time>
      </trkpt>
      <trkpt lat="44.334" lon="6.30992">
        <ele>1567</ele>
        <time>2020-08-28T07:53:34Z</time>
      </trkpt>
      <trkpt lat="44.334" lon="6.30993">
        <ele>1566.9</ele>
        <time>2020-08-28T07:53:39Z</time>
      </trkpt>
      <trkpt lat="44.33402" lon="6.30992">
        <ele>1566.7</ele>
        <time>2020-08-28T07:53:44Z</time>
      </trkpt>
      <trkpt lat="44.33401" lon="6.30992">
        <ele>1566.9</ele>
        <time>2020-08-28T07:53:49Z</time>
      </trkpt>
      <trkpt lat="44.33402" lon="6.3099">
        <ele>1566.9</ele>
        <time>2020-08-28T07:53:55Z</time>
      </trkpt>
      <trkpt lat="44.33402" lon="6.30985">
        <ele>1567.5</ele>
        <time>2020-08-28T07:54:01Z</time>
      </trkpt>
      <trkpt lat="44.33401" lon="6.30986">
        <ele>1567.5</ele>
        <time>2020-08-28T07:54:06Z</time>
      </trkpt>
      <trkpt lat="44.33401" lon="6.30986">
        <ele>1567.5</ele>
        <time>2020-08-28T07:54:13Z</time>
      </trkpt>
      <trkpt lat="44.33402" lon="6.30985">
        <ele>1567.5</ele>
        <time>2020-08-28T07:54:18Z</time>
      </trkpt>
      <trkpt lat="44.33402" lon="6.30984">
        <ele>1567.6</ele>
        <time>2020-08-28T07:54:24Z</time>
      </trkpt>
      <trkpt lat="44.33402" lon="6.30984">
        <ele>1567.6</ele>
        <time>2020-08-28T07:54:30Z</time>
      </trkpt>
      <trkpt lat="44.33403" lon="6.30984">
        <ele>1567.5</ele>
        <time>2020-08-28T07:54:36Z</time>
      </trkpt>
      <trkpt lat="44.33403" lon="6.30987">
        <ele>1567.1</ele>
        <time>2020-08-28T07:54:42Z</time>
      </trkpt>
      <trkpt lat="44.33402" lon="6.30986">
        <ele>1567.4</ele>
        <time>2020-08-28T07:54:47Z</time>
      </trkpt>
      <trkpt lat="44.33402" lon="6.30985">
        <ele>1567.5</ele>
        <time>2020-08-28T07:54:52Z</time>
      </trkpt>
      <trkpt lat="44.33402" lon="6.30985">
        <ele>1567.5</ele>
        <time>2020-08-28T07:54:58Z</time>
      </trkpt>
      <trkpt lat="44.33402" lon="6.30985">
        <ele>1567.5</ele>
        <time>2020-08-28T07:55:04Z</time>
      </trkpt>
      <trkpt lat="44.33402" lon="6.30985">
        <ele>1567.5</ele>
        <time>2020-08-28T07:55:10Z</time>
      </trkpt>
      <trkpt lat="44.33402" lon="6.30985">
        <ele>1567.5</ele>
        <time>2020-08-28T07:55:16Z</time>
      </trkpt>
      <trkpt lat="44.33402" lon="6.30985">
        <ele>1567.5</ele>
        <time>2020-08-28T07:55:21Z</time>
      </trkpt>
      <trkpt lat="44.33402" lon="6.30985">
        <ele>1567.5</ele>
        <time>2020-08-28T07:55:27Z</time>
      </trkpt>
      <trkpt lat="44.33401" lon="6.30982">
        <ele>1567.9</ele>
        <time>2020-08-28T07:55:32Z</time>
      </trkpt>
      <trkpt lat="44.334" lon="6.30977">
        <ele>1568.6</ele>
        <time>2020-08-28T07:55:38Z</time>
      </trkpt>
      <trkpt lat="44.334" lon="6.30977">
        <ele>1568.6</ele>
        <time>2020-08-28T07:55:43Z</time>
      </trkpt>
      <trkpt lat="44.334" lon="6.30977">
        <ele>1568.6</ele>
        <time>2020-08-28T07:55:48Z</time>
      </trkpt>
      <trkpt lat="44.334" lon="6.30977">
        <ele>1568.6</ele>
        <time>2020-08-28T07:55:54Z</time>
      </trkpt>
      <trkpt lat="44.334" lon="6.30977">
        <ele>1568.6</ele>
        <time>2020-08-28T07:55:59Z</time>
      </trkpt>
      <trkpt lat="44.33399" lon="6.30974">
        <ele>1569</ele>
        <time>2020-08-28T07:56:04Z</time>
      </trkpt>
      <trkpt lat="44.33399" lon="6.30969">
        <ele>1569.4</ele>
        <time>2020-08-28T07:56:10Z</time>
      </trkpt>
      <trkpt lat="44.33399" lon="6.30968">
        <ele>1569.5</ele>
        <time>2020-08-28T07:56:15Z</time>
      </trkpt>
      <trkpt lat="44.33398" lon="6.30967">
        <ele>1569.7</ele>
        <time>2020-08-28T07:56:20Z</time>
      </trkpt>
      <trkpt lat="44.33398" lon="6.30964">
        <ele>1569.9</ele>
        <time>2020-08-28T07:56:26Z</time>
      </trkpt>
      <trkpt lat="44.33396" lon="6.30963">
        <ele>1570.1</ele>
        <time>2020-08-28T07:56:31Z</time>
      </trkpt>
      <trkpt lat="44.33396" lon="6.30963">
        <ele>1570.1</ele>
        <time>2020-08-28T07:56:37Z</time>
      </trkpt>
      <trkpt lat="44.33394" lon="6.30961">
        <ele>1570.5</ele>
        <time>2020-08-28T07:56:43Z</time>
      </trkpt>
      <trkpt lat="44.33393" lon="6.3096">
        <ele>1570.6</ele>
        <time>2020-08-28T07:56:49Z</time>
      </trkpt>
      <trkpt lat="44.33391" lon="6.30958">
        <ele>1571</ele>
        <time>2020-08-28T07:56:55Z</time>
      </trkpt>
      <trkpt lat="44.3339" lon="6.30957">
        <ele>1571.2</ele>
        <time>2020-08-28T07:57:01Z</time>
      </trkpt>
      <trkpt lat="44.33388" lon="6.30955">
        <ele>1571.5</ele>
        <time>2020-08-28T07:57:07Z</time>
      </trkpt>
      <trkpt lat="44.33387" lon="6.30952">
        <ele>1571.8</ele>
        <time>2020-08-28T07:57:13Z</time>
      </trkpt>
      <trkpt lat="44.33387" lon="6.30949">
        <ele>1572</ele>
        <time>2020-08-28T07:57:19Z</time>
      </trkpt>
      <trkpt lat="44.33385" lon="6.30946">
        <ele>1572.4</ele>
        <time>2020-08-28T07:57:24Z</time>
      </trkpt>
      <trkpt lat="44.33385" lon="6.30946">
        <ele>1572.4</ele>
        <time>2020-08-28T07:57:30Z</time>
      </trkpt>
      <trkpt lat="44.33386" lon="6.30946">
        <ele>1572.3</ele>
        <time>2020-08-28T07:57:36Z</time>
      </trkpt>
      <trkpt lat="44.33386" lon="6.30947">
        <ele>1572.2</ele>
        <time>2020-08-28T07:57:42Z</time>
      </trkpt>
      <trkpt lat="44.33382" lon="6.30946">
        <ele>1573</ele>
        <time>2020-08-28T07:57:48Z</time>
      </trkpt>
      <trkpt lat="44.33379" lon="6.30943">
        <ele>1573.7</ele>
        <time>2020-08-28T07:57:54Z</time>
      </trkpt>
      <trkpt lat="44.33378" lon="6.30941">
        <ele>1574</ele>
        <time>2020-08-28T07:57:59Z</time>
      </trkpt>
      <trkpt lat="44.33376" lon="6.3094">
        <ele>1574.6</ele>
        <time>2020-08-28T07:58:05Z</time>
      </trkpt>
      <trkpt lat="44.33376" lon="6.3094">
        <ele>1574.6</ele>
        <time>2020-08-28T07:58:11Z</time>
      </trkpt>
      <trkpt lat="44.33374" lon="6.30935">
        <ele>1575.4</ele>
        <time>2020-08-28T07:58:17Z</time>
      </trkpt>
      <trkpt lat="44.33373" lon="6.30931">
        <ele>1576.1</ele>
        <time>2020-08-28T07:58:23Z</time>
      </trkpt>
      <trkpt lat="44.33372" lon="6.30929">
        <ele>1576.5</ele>
        <time>2020-08-28T07:58:28Z</time>
      </trkpt>
      <trkpt lat="44.3337" lon="6.30926">
        <ele>1577.4</ele>
        <time>2020-08-28T07:58:33Z</time>
      </trkpt>
      <trkpt lat="44.33368" lon="6.30926">
        <ele>1578</ele>
        <time>2020-08-28T07:58:39Z</time>
      </trkpt>
      <trkpt lat="44.33365" lon="6.30922">
        <ele>1579.5</ele>
        <time>2020-08-28T07:58:44Z</time>
      </trkpt>
      <trkpt lat="44.33363" lon="6.30922">
        <ele>1580.2</ele>
        <time>2020-08-28T07:58:50Z</time>
      </trkpt>
      <trkpt lat="44.33361" lon="6.30921">
        <ele>1581.1</ele>
        <time>2020-08-28T07:58:55Z</time>
      </trkpt>
      <trkpt lat="44.3336" lon="6.30921">
        <ele>1581.6</ele>
        <time>2020-08-28T07:59:01Z</time>
      </trkpt>
      <trkpt lat="44.33359" lon="6.30919">
        <ele>1582.2</ele>
        <time>2020-08-28T07:59:06Z</time>
      </trkpt>
      <trkpt lat="44.33357" lon="6.30915">
        <ele>1590.7</ele>
        <time>2020-08-28T07:59:12Z</time>
      </trkpt>
      <trkpt lat="44.33353" lon="6.30913">
        <ele>1592.1</ele>
        <time>2020-08-28T07:59:18Z</time>
      </trkpt>
      <trkpt lat="44.33351" lon="6.3091">
        <ele>1592.6</ele>
        <time>2020-08-28T07:59:23Z</time>
      </trkpt>
      <trkpt lat="44.33349" lon="6.30906">
        <ele>1592.9</ele>
        <time>2020-08-28T07:59:29Z</time>
      </trkpt>
      <trkpt lat="44.33349" lon="6.30903">
        <ele>1592.6</ele>
        <time>2020-08-28T07:59:35Z</time>
      </trkpt>
      <trkpt lat="44.33347" lon="6.30899">
        <ele>1592.6</ele>
        <time>2020-08-28T07:59:41Z</time>
      </trkpt>
      <trkpt lat="44.33344" lon="6.30895">
        <ele>1592.7</ele>
        <time>2020-08-28T07:59:46Z</time>
      </trkpt>
      <trkpt lat="44.33343" lon="6.30895">
        <ele>1592.9</ele>
        <time>2020-08-28T07:59:52Z</time>
      </trkpt>
      <trkpt lat="44.33343" lon="6.30894">
        <ele>1592.8</ele>
        <time>2020-08-28T07:59:58Z</time>
      </trkpt>
      <trkpt lat="44.33341" lon="6.30892">
        <ele>1592.9</ele>
        <time>2020-08-28T08:00:04Z</time>
      </trkpt>
      <trkpt lat="44.33341" lon="6.3089">
        <ele>1592.8</ele>
        <time>2020-08-28T08:00:10Z</time>
      </trkpt>
      <trkpt lat="44.3334" lon="6.3089">
        <ele>1592.9</ele>
        <time>2020-08-28T08:00:16Z</time>
      </trkpt>
      <trkpt lat="44.33341" lon="6.3089">
        <ele>1592.8</ele>
        <time>2020-08-28T08:00:21Z</time>
      </trkpt>
      <trkpt lat="44.33339" lon="6.30889">
        <ele>1593</ele>
        <time>2020-08-28T08:00:27Z</time>
      </trkpt>
      <trkpt lat="44.33339" lon="6.30889">
        <ele>1593</ele>
        <time>2020-08-28T08:00:33Z</time>
      </trkpt>
      <trkpt lat="44.3334" lon="6.30888">
        <ele>1592.8</ele>
        <time>2020-08-28T08:00:39Z</time>
      </trkpt>
      <trkpt lat="44.33339" lon="6.30888">
        <ele>1592.9</ele>
        <time>2020-08-28T08:00:44Z</time>
      </trkpt>
      <trkpt lat="44.33337" lon="6.30886">
        <ele>1593.1</ele>
        <time>2020-08-28T08:00:49Z</time>
      </trkpt>
      <trkpt lat="44.33335" lon="6.30887">
        <ele>1593.3</ele>
        <time>2020-08-28T08:00:54Z</time>
      </trkpt>
      <trkpt lat="44.33332" lon="6.30889">
        <ele>1603.4</ele>
        <time>2020-08-28T08:01:00Z</time>
      </trkpt>
      <trkpt lat="44.33332" lon="6.30886">
        <ele>1603.7</ele>
        <time>2020-08-28T08:01:05Z</time>
      </trkpt>
      <trkpt lat="44.33329" lon="6.30884">
        <ele>1603.9</ele>
        <time>2020-08-28T08:01:11Z</time>
      </trkpt>
      <trkpt lat="44.33328" lon="6.30882">
        <ele>1604.1</ele>
        <time>2020-08-28T08:01:17Z</time>
      </trkpt>
      <trkpt lat="44.33328" lon="6.30881">
        <ele>1604.2</ele>
        <time>2020-08-28T08:01:23Z</time>
      </trkpt>
      <trkpt lat="44.33328" lon="6.3088">
        <ele>1604.3</ele>
        <time>2020-08-28T08:01:29Z</time>
      </trkpt>
      <trkpt lat="44.33326" lon="6.30878">
        <ele>1604.5</ele>
        <time>2020-08-28T08:01:34Z</time>
      </trkpt>
      <trkpt lat="44.33324" lon="6.30877">
        <ele>1604.6</ele>
        <time>2020-08-28T08:01:39Z</time>
      </trkpt>
      <trkpt lat="44.33323" lon="6.30876">
        <ele>1604.7</ele>
        <time>2020-08-28T08:01:45Z</time>
      </trkpt>
      <trkpt lat="44.33321" lon="6.30874">
        <ele>1604.9</ele>
        <time>2020-08-28T08:01:50Z</time>
      </trkpt>
      <trkpt lat="44.33319" lon="6.30872">
        <ele>1605.1</ele>
        <time>2020-08-28T08:01:56Z</time>
      </trkpt>
      <trkpt lat="44.33316" lon="6.30871">
        <ele>1605.2</ele>
        <time>2020-08-28T08:02:01Z</time>
      </trkpt>
      <trkpt lat="44.33313" lon="6.30867">
        <ele>1605.6</ele>
        <time>2020-08-28T08:02:07Z</time>
      </trkpt>
      <trkpt lat="44.3331" lon="6.30864">
        <ele>1605.9</ele>
        <time>2020-08-28T08:02:13Z</time>
      </trkpt>
      <trkpt lat="44.33309" lon="6.30857">
        <ele>1606.7</ele>
        <time>2020-08-28T08:02:19Z</time>
      </trkpt>
      <trkpt lat="44.33308" lon="6.30852">
        <ele>1607.2</ele>
        <time>2020-08-28T08:02:25Z</time>
      </trkpt>
      <trkpt lat="44.33308" lon="6.30848">
        <ele>1607.6</ele>
        <time>2020-08-28T08:02:31Z</time>
      </trkpt>
      <trkpt lat="44.33307" lon="6.30848">
        <ele>1607.6</ele>
        <time>2020-08-28T08:02:36Z</time>
      </trkpt>
      <trkpt lat="44.33304" lon="6.30843">
        <ele>1608</ele>
        <time>2020-08-28T08:02:42Z</time>
      </trkpt>
      <trkpt lat="44.33302" lon="6.30842">
        <ele>1608.1</ele>
        <time>2020-08-28T08:02:48Z</time>
      </trkpt>
      <trkpt lat="44.33302" lon="6.30842">
        <ele>1608.1</ele>
        <time>2020-08-28T08:02:53Z</time>
      </trkpt>
      <trkpt lat="44.333" lon="6.30839">
        <ele>1608.3</ele>
        <time>2020-08-28T08:02:58Z</time>
      </trkpt>
      <trkpt lat="44.33297" lon="6.30834">
        <ele>1608.7</ele>
        <time>2020-08-28T08:03:04Z</time>
      </trkpt>
      <trkpt lat="44.33297" lon="6.30834">
        <ele>1608.7</ele>
        <time>2020-08-28T08:03:10Z</time>
      </trkpt>
      <trkpt lat="44.33296" lon="6.30831">
        <ele>1619.4</ele>
        <time>2020-08-28T08:03:16Z</time>
      </trkpt>
      <trkpt lat="44.33293" lon="6.30831">
        <ele>1619.8</ele>
        <time>2020-08-28T08:03:22Z</time>
      </trkpt>
      <trkpt lat="44.33288" lon="6.30827">
        <ele>1620.5</ele>
        <time>2020-08-28T08:03:28Z</time>
      </trkpt>
      <trkpt lat="44.33284" lon="6.30823">
        <ele>1621.1</ele>
        <time>2020-08-28T08:03:34Z</time>
      </trkpt>
      <trkpt lat="44.33284" lon="6.3082">
        <ele>1621.2</ele>
        <time>2020-08-28T08:03:40Z</time>
      </trkpt>
      <trkpt lat="44.33281" lon="6.30814">
        <ele>1621.7</ele>
        <time>2020-08-28T08:03:46Z</time>
      </trkpt>
      <trkpt lat="44.33279" lon="6.30811">
        <ele>1622</ele>
        <time>2020-08-28T08:03:52Z</time>
      </trkpt>
      <trkpt lat="44.33277" lon="6.3081">
        <ele>1622.2</ele>
        <time>2020-08-28T08:03:58Z</time>
      </trkpt>
      <trkpt lat="44.33274" lon="6.30804">
        <ele>1622.8</ele>
        <time>2020-08-28T08:04:04Z</time>
      </trkpt>
      <trkpt lat="44.33274" lon="6.30799">
        <ele>1623.2</ele>
        <time>2020-08-28T08:04:10Z</time>
      </trkpt>
      <trkpt lat="44.33272" lon="6.30793">
        <ele>1623.9</ele>
        <time>2020-08-28T08:04:16Z</time>
      </trkpt>
      <trkpt lat="44.33271" lon="6.30789">
        <ele>1624.4</ele>
        <time>2020-08-28T08:04:21Z</time>
      </trkpt>
      <trkpt lat="44.33272" lon="6.30789">
        <ele>1624.3</ele>
        <time>2020-08-28T08:04:27Z</time>
      </trkpt>
      <trkpt lat="44.33271" lon="6.30789">
        <ele>1624.4</ele>
        <time>2020-08-28T08:04:33Z</time>
      </trkpt>
      <trkpt lat="44.33268" lon="6.30789">
        <ele>1624.8</ele>
        <time>2020-08-28T08:04:38Z</time>
      </trkpt>
      <trkpt lat="44.33266" lon="6.30787">
        <ele>1625.2</ele>
        <time>2020-08-28T08:04:43Z</time>
      </trkpt>
      <trkpt lat="44.33265" lon="6.30784">
        <ele>1625.8</ele>
        <time>2020-08-28T08:04:49Z</time>
      </trkpt>
      <trkpt lat="44.33262" lon="6.30777">
        <ele>1627.4</ele>
        <time>2020-08-28T08:04:54Z</time>
      </trkpt>
      <trkpt lat="44.33262" lon="6.30773">
        <ele>1628.3</ele>
        <time>2020-08-28T08:05:00Z</time>
      </trkpt>
      <trkpt lat="44.33261" lon="6.30769">
        <ele>1629.5</ele>
        <time>2020-08-28T08:05:06Z</time>
      </trkpt>
      <trkpt lat="44.33259" lon="6.30764">
        <ele>1631.4</ele>
        <time>2020-08-28T08:05:12Z</time>
      </trkpt>
      <trkpt lat="44.33258" lon="6.30761">
        <ele>1632.7</ele>
        <time>2020-08-28T08:05:18Z</time>
      </trkpt>
      <trkpt lat="44.33258" lon="6.30758">
        <ele>1633.7</ele>
        <time>2020-08-28T08:05:24Z</time>
      </trkpt>
      <trkpt lat="44.33255" lon="6.30755">
        <ele>1636.1</ele>
        <time>2020-08-28T08:05:30Z</time>
      </trkpt>
      <trkpt lat="44.33255" lon="6.30752">
        <ele>1637.1</ele>
        <time>2020-08-28T08:05:35Z</time>
      </trkpt>
      <trkpt lat="44.33254" lon="6.30749">
        <ele>1639.4</ele>
        <time>2020-08-28T08:05:41Z</time>
      </trkpt>
      <trkpt lat="44.33254" lon="6.30746">
        <ele>1638.9</ele>
        <time>2020-08-28T08:05:46Z</time>
      </trkpt>
      <trkpt lat="44.33252" lon="6.30743">
        <ele>1638.5</ele>
        <time>2020-08-28T08:05:52Z</time>
      </trkpt>
      <trkpt lat="44.33251" lon="6.30744">
        <ele>1638.8</ele>
        <time>2020-08-28T08:05:58Z</time>
      </trkpt>
      <trkpt lat="44.3325" lon="6.30743">
        <ele>1638.6</ele>
        <time>2020-08-28T08:06:03Z</time>
      </trkpt>
      <trkpt lat="44.3325" lon="6.30739">
        <ele>1637.6</ele>
        <time>2020-08-28T08:06:08Z</time>
      </trkpt>
      <trkpt lat="44.33248" lon="6.30736">
        <ele>1643.9</ele>
        <time>2020-08-28T08:06:14Z</time>
      </trkpt>
      <trkpt lat="44.33246" lon="6.30737">
        <ele>1643.9</ele>
        <time>2020-08-28T08:06:20Z</time>
      </trkpt>
      <trkpt lat="44.33241" lon="6.3074">
        <ele>1644</ele>
        <time>2020-08-28T08:06:26Z</time>
      </trkpt>
      <trkpt lat="44.33241" lon="6.30734">
        <ele>1644.6</ele>
        <time>2020-08-28T08:06:32Z</time>
      </trkpt>
      <trkpt lat="44.33239" lon="6.30733">
        <ele>1644.9</ele>
        <time>2020-08-28T08:06:38Z</time>
      </trkpt>
      <trkpt lat="44.33239" lon="6.30731">
        <ele>1645.1</ele>
        <time>2020-08-28T08:06:43Z</time>
      </trkpt>
      <trkpt lat="44.33234" lon="6.30728">
        <ele>1645.7</ele>
        <time>2020-08-28T08:06:49Z</time>
      </trkpt>
      <trkpt lat="44.33233" lon="6.30726">
        <ele>1645.9</ele>
        <time>2020-08-28T08:06:55Z</time>
      </trkpt>
      <trkpt lat="44.33234" lon="6.30725">
        <ele>1645.9</ele>
        <time>2020-08-28T08:07:01Z</time>
      </trkpt>
      <trkpt lat="44.33234" lon="6.30725">
        <ele>1645.9</ele>
        <time>2020-08-28T08:07:07Z</time>
      </trkpt>
      <trkpt lat="44.33233" lon="6.30726">
        <ele>1645.9</ele>
        <time>2020-08-28T08:07:13Z</time>
      </trkpt>
      <trkpt lat="44.3323" lon="6.30725">
        <ele>1646.1</ele>
        <time>2020-08-28T08:07:18Z</time>
      </trkpt>
      <trkpt lat="44.33227" lon="6.30721">
        <ele>1646.6</ele>
        <time>2020-08-28T08:07:24Z</time>
      </trkpt>
      <trkpt lat="44.33227" lon="6.30722">
        <ele>1646.5</ele>
        <time>2020-08-28T08:07:29Z</time>
      </trkpt>
      <trkpt lat="44.33227" lon="6.30721">
        <ele>1646.6</ele>
        <time>2020-08-28T08:07:35Z</time>
      </trkpt>
      <trkpt lat="44.33223" lon="6.30718">
        <ele>1646.9</ele>
        <time>2020-08-28T08:07:41Z</time>
      </trkpt>
      <trkpt lat="44.33219" lon="6.30715">
        <ele>1647.3</ele>
        <time>2020-08-28T08:07:47Z</time>
      </trkpt>
      <trkpt lat="44.33216" lon="6.30708">
        <ele>1647.7</ele>
        <time>2020-08-28T08:07:53Z</time>
      </trkpt>
      <trkpt lat="44.33214" lon="6.30701">
        <ele>1648</ele>
        <time>2020-08-28T08:07:58Z</time>
      </trkpt>
      <trkpt lat="44.3321" lon="6.307">
        <ele>1648.3</ele>
        <time>2020-08-28T08:08:04Z</time>
      </trkpt>
      <trkpt lat="44.3321" lon="6.30699">
        <ele>1648.3</ele>
        <time>2020-08-28T08:08:10Z</time>
      </trkpt>
      <trkpt lat="44.33211" lon="6.30698">
        <ele>1648.2</ele>
        <time>2020-08-28T08:08:16Z</time>
      </trkpt>
      <trkpt lat="44.3321" lon="6.30697">
        <ele>1648.3</ele>
        <time>2020-08-28T08:08:22Z</time>
      </trkpt>
      <trkpt lat="44.33209" lon="6.30701">
        <ele>1648.3</ele>
        <time>2020-08-28T08:08:28Z</time>
      </trkpt>
      <trkpt lat="44.33205" lon="6.30701">
        <ele>1648.7</ele>
        <time>2020-08-28T08:08:34Z</time>
      </trkpt>
      <trkpt lat="44.33204" lon="6.30699">
        <ele>1648.8</ele>
        <time>2020-08-28T08:08:40Z</time>
      </trkpt>
      <trkpt lat="44.33204" lon="6.307">
        <ele>1648.8</ele>
        <time>2020-08-28T08:08:46Z</time>
      </trkpt>
      <trkpt lat="44.33203" lon="6.307">
        <ele>1648.9</ele>
        <time>2020-08-28T08:08:51Z</time>
      </trkpt>
      <trkpt lat="44.33203" lon="6.30701">
        <ele>1648.8</ele>
        <time>2020-08-28T08:08:56Z</time>
      </trkpt>
      <trkpt lat="44.33202" lon="6.307">
        <ele>1648.9</ele>
        <time>2020-08-28T08:09:02Z</time>
      </trkpt>
      <trkpt lat="44.332" lon="6.307">
        <ele>1649.1</ele>
        <time>2020-08-28T08:09:08Z</time>
      </trkpt>
      <trkpt lat="44.33199" lon="6.30695">
        <ele>1649.3</ele>
        <time>2020-08-28T08:09:14Z</time>
      </trkpt>
      <trkpt lat="44.33198" lon="6.30691">
        <ele>1649.6</ele>
        <time>2020-08-28T08:09:19Z</time>
      </trkpt>
      <trkpt lat="44.33196" lon="6.30689">
        <ele>1649.8</ele>
        <time>2020-08-28T08:09:24Z</time>
      </trkpt>
      <trkpt lat="44.33192" lon="6.30689">
        <ele>1650.2</ele>
        <time>2020-08-28T08:09:30Z</time>
      </trkpt>
      <trkpt lat="44.33192" lon="6.30689">
        <ele>1650.2</ele>
        <time>2020-08-28T08:09:35Z</time>
      </trkpt>
      <trkpt lat="44.33192" lon="6.30688">
        <ele>1650.3</ele>
        <time>2020-08-28T08:09:41Z</time>
      </trkpt>
      <trkpt lat="44.33192" lon="6.30687">
        <ele>1650.4</ele>
        <time>2020-08-28T08:09:46Z</time>
      </trkpt>
      <trkpt lat="44.33192" lon="6.30687">
        <ele>1650.4</ele>
        <time>2020-08-28T08:09:52Z</time>
      </trkpt>
      <trkpt lat="44.33192" lon="6.30687">
        <ele>1650.4</ele>
        <time>2020-08-28T08:09:57Z</time>
      </trkpt>
      <trkpt lat="44.33192" lon="6.30687">
        <ele>1650.4</ele>
        <time>2020-08-28T08:10:03Z</time>
      </trkpt>
      <trkpt lat="44.33192" lon="6.30687">
        <ele>1650.4</ele>
        <time>2020-08-28T08:10:08Z</time>
      </trkpt>
      <trkpt lat="44.33192" lon="6.30687">
        <ele>1650.4</ele>
        <time>2020-08-28T08:10:13Z</time>
      </trkpt>
      <trkpt lat="44.33193" lon="6.30687">
        <ele>1650.2</ele>
        <time>2020-08-28T08:10:20Z</time>
      </trkpt>
      <trkpt lat="44.33194" lon="6.30689">
        <ele>1650</ele>
        <time>2020-08-28T08:10:25Z</time>
      </trkpt>
      <trkpt lat="44.33195" lon="6.3069">
        <ele>1649.9</ele>
        <time>2020-08-28T08:10:30Z</time>
      </trkpt>
      <trkpt lat="44.33194" lon="6.30689">
        <ele>1650</ele>
        <time>2020-08-28T08:10:36Z</time>
      </trkpt>
      <trkpt lat="44.33194" lon="6.30688">
        <ele>1650.1</ele>
        <time>2020-08-28T08:10:42Z</time>
      </trkpt>
      <trkpt lat="44.33194" lon="6.30688">
        <ele>1650.1</ele>
        <time>2020-08-28T08:10:47Z</time>
      </trkpt>
      <trkpt lat="44.33194" lon="6.30688">
        <ele>1650.1</ele>
        <time>2020-08-28T08:10:53Z</time>
      </trkpt>
      <trkpt lat="44.33194" lon="6.30688">
        <ele>1650.1</ele>
        <time>2020-08-28T08:10:58Z</time>
      </trkpt>
      <trkpt lat="44.33194" lon="6.30686">
        <ele>1650.2</ele>
        <time>2020-08-28T08:11:04Z</time>
      </trkpt>
      <trkpt lat="44.33194" lon="6.30685">
        <ele>1650.2</ele>
        <time>2020-08-28T08:11:09Z</time>
      </trkpt>
      <trkpt lat="44.33194" lon="6.30685">
        <ele>1650.2</ele>
        <time>2020-08-28T08:11:14Z</time>
      </trkpt>
      <trkpt lat="44.33194" lon="6.30685">
        <ele>1650.2</ele>
        <time>2020-08-28T08:11:20Z</time>
      </trkpt>
      <trkpt lat="44.33194" lon="6.30685">
        <ele>1650.2</ele>
        <time>2020-08-28T08:11:25Z</time>
      </trkpt>
      <trkpt lat="44.33193" lon="6.30683">
        <ele>1650.4</ele>
        <time>2020-08-28T08:11:31Z</time>
      </trkpt>
      <trkpt lat="44.33192" lon="6.30682">
        <ele>1650.6</ele>
        <time>2020-08-28T08:11:37Z</time>
      </trkpt>
      <trkpt lat="44.33192" lon="6.30682">
        <ele>1650.6</ele>
        <time>2020-08-28T08:11:43Z</time>
      </trkpt>
      <trkpt lat="44.33192" lon="6.30682">
        <ele>1650.6</ele>
        <time>2020-08-28T08:11:48Z</time>
      </trkpt>
      <trkpt lat="44.33192" lon="6.30683">
        <ele>1650.6</ele>
        <time>2020-08-28T08:11:54Z</time>
      </trkpt>
      <trkpt lat="44.33192" lon="6.30685">
        <ele>1650.5</ele>
        <time>2020-08-28T08:11:59Z</time>
      </trkpt>
      <trkpt lat="44.33192" lon="6.30685">
        <ele>1650.5</ele>
        <time>2020-08-28T08:12:05Z</time>
      </trkpt>
      <trkpt lat="44.33192" lon="6.30685">
        <ele>1650.5</ele>
        <time>2020-08-28T08:12:10Z</time>
      </trkpt>
      <trkpt lat="44.33191" lon="6.30685">
        <ele>1650.6</ele>
        <time>2020-08-28T08:12:15Z</time>
      </trkpt>
      <trkpt lat="44.33192" lon="6.30685">
        <ele>1650.5</ele>
        <time>2020-08-28T08:12:21Z</time>
      </trkpt>
      <trkpt lat="44.33193" lon="6.30685">
        <ele>1650.3</ele>
        <time>2020-08-28T08:12:26Z</time>
      </trkpt>
      <trkpt lat="44.33193" lon="6.30685">
        <ele>1650.3</ele>
        <time>2020-08-28T08:12:31Z</time>
      </trkpt>
      <trkpt lat="44.33193" lon="6.30685">
        <ele>1650.3</ele>
        <time>2020-08-28T08:12:36Z</time>
      </trkpt>
      <trkpt lat="44.33193" lon="6.30685">
        <ele>1650.3</ele>
        <time>2020-08-28T08:12:42Z</time>
      </trkpt>
      <trkpt lat="44.33193" lon="6.30685">
        <ele>1650.3</ele>
        <time>2020-08-28T08:12:48Z</time>
      </trkpt>
      <trkpt lat="44.33193" lon="6.30685">
        <ele>1650.3</ele>
        <time>2020-08-28T08:12:54Z</time>
      </trkpt>
      <trkpt lat="44.33193" lon="6.30685">
        <ele>1650.3</ele>
        <time>2020-08-28T08:13:00Z</time>
      </trkpt>
      <trkpt lat="44.33193" lon="6.30685">
        <ele>1650.3</ele>
        <time>2020-08-28T08:13:05Z</time>
      </trkpt>
      <trkpt lat="44.33193" lon="6.30685">
        <ele>1650.3</ele>
        <time>2020-08-28T08:13:11Z</time>
      </trkpt>
      <trkpt lat="44.33193" lon="6.30685">
        <ele>1650.3</ele>
        <time>2020-08-28T08:13:17Z</time>
      </trkpt>
      <trkpt lat="44.33193" lon="6.30685">
        <ele>1650.3</ele>
        <time>2020-08-28T08:13:23Z</time>
      </trkpt>
      <trkpt lat="44.33193" lon="6.30685">
        <ele>1650.3</ele>
        <time>2020-08-28T08:13:29Z</time>
      </trkpt>
      <trkpt lat="44.33193" lon="6.30685">
        <ele>1650.3</ele>
        <time>2020-08-28T08:13:35Z</time>
      </trkpt>
      <trkpt lat="44.33193" lon="6.30685">
        <ele>1650.3</ele>
        <time>2020-08-28T08:13:41Z</time>
      </trkpt>
      <trkpt lat="44.33193" lon="6.30685">
        <ele>1650.3</ele>
        <time>2020-08-28T08:13:46Z</time>
      </trkpt>
      <trkpt lat="44.33193" lon="6.30685">
        <ele>1650.3</ele>
        <time>2020-08-28T08:13:52Z</time>
      </trkpt>
      <trkpt lat="44.33193" lon="6.30685">
        <ele>1650.3</ele>
        <time>2020-08-28T08:13:57Z</time>
      </trkpt>
      <trkpt lat="44.33193" lon="6.30685">
        <ele>1650.3</ele>
        <time>2020-08-28T08:14:03Z</time>
      </trkpt>
      <trkpt lat="44.33193" lon="6.30685">
        <ele>1650.3</ele>
        <time>2020-08-28T08:14:09Z</time>
      </trkpt>
      <trkpt lat="44.33193" lon="6.30685">
        <ele>1650.3</ele>
        <time>2020-08-28T08:14:14Z</time>
      </trkpt>
      <trkpt lat="44.33193" lon="6.30685">
        <ele>1650.3</ele>
        <time>2020-08-28T08:14:20Z</time>
      </trkpt>
      <trkpt lat="44.33193" lon="6.30685">
        <ele>1650.3</ele>
        <time>2020-08-28T08:14:26Z</time>
      </trkpt>
      <trkpt lat="44.33193" lon="6.30685">
        <ele>1650.3</ele>
        <time>2020-08-28T08:14:31Z</time>
      </trkpt>
      <trkpt lat="44.33193" lon="6.30685">
        <ele>1650.3</ele>
        <time>2020-08-28T08:14:37Z</time>
      </trkpt>
      <trkpt lat="44.33193" lon="6.30685">
        <ele>1650.3</ele>
        <time>2020-08-28T08:14:42Z</time>
      </trkpt>
      <trkpt lat="44.33193" lon="6.30685">
        <ele>1650.3</ele>
        <time>2020-08-28T08:14:48Z</time>
      </trkpt>
      <trkpt lat="44.33193" lon="6.30685">
        <ele>1650.3</ele>
        <time>2020-08-28T08:14:54Z</time>
      </trkpt>
      <trkpt lat="44.33193" lon="6.30685">
        <ele>1650.3</ele>
        <time>2020-08-28T08:15:00Z</time>
      </trkpt>
      <trkpt lat="44.33193" lon="6.30685">
        <ele>1650.3</ele>
        <time>2020-08-28T08:15:06Z</time>
      </trkpt>
      <trkpt lat="44.33193" lon="6.30685">
        <ele>1650.3</ele>
        <time>2020-08-28T08:15:12Z</time>
      </trkpt>
      <trkpt lat="44.33193" lon="6.30685">
        <ele>1650.3</ele>
        <time>2020-08-28T08:15:17Z</time>
      </trkpt>
      <trkpt lat="44.33192" lon="6.30685">
        <ele>1650.5</ele>
        <time>2020-08-28T08:15:23Z</time>
      </trkpt>
      <trkpt lat="44.33192" lon="6.30685">
        <ele>1650.5</ele>
        <time>2020-08-28T08:15:29Z</time>
      </trkpt>
      <trkpt lat="44.33193" lon="6.30685">
        <ele>1650.3</ele>
        <time>2020-08-28T08:15:35Z</time>
      </trkpt>
      <trkpt lat="44.33192" lon="6.30685">
        <ele>1650.5</ele>
        <time>2020-08-28T08:15:40Z</time>
      </trkpt>
      <trkpt lat="44.33192" lon="6.30685">
        <ele>1650.5</ele>
        <time>2020-08-28T08:15:45Z</time>
      </trkpt>
      <trkpt lat="44.33192" lon="6.30685">
        <ele>1650.5</ele>
        <time>2020-08-28T08:15:51Z</time>
      </trkpt>
      <trkpt lat="44.33192" lon="6.30685">
        <ele>1650.5</ele>
        <time>2020-08-28T08:15:56Z</time>
      </trkpt>
      <trkpt lat="44.33192" lon="6.30685">
        <ele>1650.5</ele>
        <time>2020-08-28T08:16:02Z</time>
      </trkpt>
      <trkpt lat="44.33192" lon="6.30685">
        <ele>1650.5</ele>
        <time>2020-08-28T08:16:08Z</time>
      </trkpt>
      <trkpt lat="44.33192" lon="6.30685">
        <ele>1650.5</ele>
        <time>2020-08-28T08:16:13Z</time>
      </trkpt>
      <trkpt lat="44.33192" lon="6.30685">
        <ele>1650.5</ele>
        <time>2020-08-28T08:16:19Z</time>
      </trkpt>
      <trkpt lat="44.33192" lon="6.30685">
        <ele>1650.5</ele>
        <time>2020-08-28T08:16:24Z</time>
      </trkpt>
      <trkpt lat="44.33192" lon="6.30685">
        <ele>1650.5</ele>
        <time>2020-08-28T08:16:30Z</time>
      </trkpt>
      <trkpt lat="44.33192" lon="6.30685">
        <ele>1650.5</ele>
        <time>2020-08-28T08:16:35Z</time>
      </trkpt>
      <trkpt lat="44.33192" lon="6.30685">
        <ele>1650.5</ele>
        <time>2020-08-28T08:16:41Z</time>
      </trkpt>
      <trkpt lat="44.33192" lon="6.30685">
        <ele>1650.5</ele>
        <time>2020-08-28T08:16:47Z</time>
      </trkpt>
      <trkpt lat="44.33192" lon="6.30685">
        <ele>1650.5</ele>
        <time>2020-08-28T08:16:53Z</time>
      </trkpt>
      <trkpt lat="44.33192" lon="6.30684">
        <ele>1650.5</ele>
        <time>2020-08-28T08:16:59Z</time>
      </trkpt>
      <trkpt lat="44.33191" lon="6.30679">
        <ele>1650.9</ele>
        <time>2020-08-28T08:17:04Z</time>
      </trkpt>
      <trkpt lat="44.33187" lon="6.30674">
        <ele>1651.7</ele>
        <time>2020-08-28T08:17:10Z</time>
      </trkpt>
      <trkpt lat="44.33185" lon="6.30669">
        <ele>1652.3</ele>
        <time>2020-08-28T08:17:15Z</time>
      </trkpt>
      <trkpt lat="44.33184" lon="6.30664">
        <ele>1655.4</ele>
        <time>2020-08-28T08:17:21Z</time>
      </trkpt>
      <trkpt lat="44.33185" lon="6.30664">
        <ele>1655.4</ele>
        <time>2020-08-28T08:17:27Z</time>
      </trkpt>
      <trkpt lat="44.33184" lon="6.30663">
        <ele>1655.5</ele>
        <time>2020-08-28T08:17:33Z</time>
      </trkpt>
      <trkpt lat="44.33184" lon="6.30663">
        <ele>1655.5</ele>
        <time>2020-08-28T08:17:39Z</time>
      </trkpt>
      <trkpt lat="44.33184" lon="6.30663">
        <ele>1655.5</ele>
        <time>2020-08-28T08:17:45Z</time>
      </trkpt>
      <trkpt lat="44.33184" lon="6.30663">
        <ele>1655.5</ele>
        <time>2020-08-28T08:17:50Z</time>
      </trkpt>
      <trkpt lat="44.33184" lon="6.30663">
        <ele>1655.5</ele>
        <time>2020-08-28T08:17:56Z</time>
      </trkpt>
      <trkpt lat="44.33184" lon="6.30663">
        <ele>1655.5</ele>
        <time>2020-08-28T08:18:02Z</time>
      </trkpt>
      <trkpt lat="44.33184" lon="6.30663">
        <ele>1655.5</ele>
        <time>2020-08-28T08:18:08Z</time>
      </trkpt>
      <trkpt lat="44.33184" lon="6.30669">
        <ele>1652.5</ele>
        <time>2020-08-28T08:18:14Z</time>
      </trkpt>
      <trkpt lat="44.33186" lon="6.30675">
        <ele>1651.8</ele>
        <time>2020-08-28T08:18:20Z</time>
      </trkpt>
      <trkpt lat="44.33188" lon="6.30677">
        <ele>1651.4</ele>
        <time>2020-08-28T08:18:26Z</time>
      </trkpt>
      <trkpt lat="44.33188" lon="6.30678">
        <ele>1651.4</ele>
        <time>2020-08-28T08:18:32Z</time>
      </trkpt>
      <trkpt lat="44.33188" lon="6.30678">
        <ele>1651.4</ele>
        <time>2020-08-28T08:18:38Z</time>
      </trkpt>
      <trkpt lat="44.33188" lon="6.30678">
        <ele>1651.4</ele>
        <time>2020-08-28T08:18:43Z</time>
      </trkpt>
      <trkpt lat="44.33188" lon="6.30678">
        <ele>1651.4</ele>
        <time>2020-08-28T08:18:49Z</time>
      </trkpt>
      <trkpt lat="44.33186" lon="6.30679">
        <ele>1651.6</ele>
        <time>2020-08-28T08:18:55Z</time>
      </trkpt>
      <trkpt lat="44.33186" lon="6.30679">
        <ele>1651.6</ele>
        <time>2020-08-28T08:19:01Z</time>
      </trkpt>
      <trkpt lat="44.33187" lon="6.30677">
        <ele>1651.6</ele>
        <time>2020-08-28T08:19:07Z</time>
      </trkpt>
      <trkpt lat="44.33186" lon="6.30677">
        <ele>1651.7</ele>
        <time>2020-08-28T08:19:12Z</time>
      </trkpt>
      <trkpt lat="44.33185" lon="6.30677">
        <ele>1651.9</ele>
        <time>2020-08-28T08:19:17Z</time>
      </trkpt>
      <trkpt lat="44.33185" lon="6.30677">
        <ele>1651.9</ele>
        <time>2020-08-28T08:19:23Z</time>
      </trkpt>
      <trkpt lat="44.33185" lon="6.30677">
        <ele>1651.9</ele>
        <time>2020-08-28T08:19:29Z</time>
      </trkpt>
      <trkpt lat="44.33185" lon="6.30677">
        <ele>1651.9</ele>
        <time>2020-08-28T08:19:34Z</time>
      </trkpt>
      <trkpt lat="44.33185" lon="6.30677">
        <ele>1651.9</ele>
        <time>2020-08-28T08:19:40Z</time>
      </trkpt>
      <trkpt lat="44.33185" lon="6.30677">
        <ele>1651.9</ele>
        <time>2020-08-28T08:19:45Z</time>
      </trkpt>
      <trkpt lat="44.33185" lon="6.30677">
        <ele>1651.9</ele>
        <time>2020-08-28T08:19:51Z</time>
      </trkpt>
      <trkpt lat="44.33185" lon="6.30677">
        <ele>1651.9</ele>
        <time>2020-08-28T08:19:57Z</time>
      </trkpt>
      <trkpt lat="44.33185" lon="6.30677">
        <ele>1651.9</ele>
        <time>2020-08-28T08:20:02Z</time>
      </trkpt>
      <trkpt lat="44.33185" lon="6.30677">
        <ele>1651.9</ele>
        <time>2020-08-28T08:20:07Z</time>
      </trkpt>
      <trkpt lat="44.33185" lon="6.30679">
        <ele>1651.7</ele>
        <time>2020-08-28T08:20:13Z</time>
      </trkpt>
      <trkpt lat="44.33186" lon="6.30678">
        <ele>1651.6</ele>
        <time>2020-08-28T08:20:19Z</time>
      </trkpt>
      <trkpt lat="44.33186" lon="6.30679">
        <ele>1651.6</ele>
        <time>2020-08-28T08:20:25Z</time>
      </trkpt>
      <trkpt lat="44.33186" lon="6.30679">
        <ele>1651.6</ele>
        <time>2020-08-28T08:20:31Z</time>
      </trkpt>
      <trkpt lat="44.33186" lon="6.30679">
        <ele>1651.6</ele>
        <time>2020-08-28T08:20:37Z</time>
      </trkpt>
      <trkpt lat="44.33187" lon="6.30679">
        <ele>1651.4</ele>
        <time>2020-08-28T08:20:43Z</time>
      </trkpt>
      <trkpt lat="44.33187" lon="6.30679">
        <ele>1651.4</ele>
        <time>2020-08-28T08:20:49Z</time>
      </trkpt>
      <trkpt lat="44.33187" lon="6.30679">
        <ele>1651.4</ele>
        <time>2020-08-28T08:20:55Z</time>
      </trkpt>
      <trkpt lat="44.33187" lon="6.30679">
        <ele>1651.4</ele>
        <time>2020-08-28T08:21:01Z</time>
      </trkpt>
      <trkpt lat="44.33189" lon="6.30679">
        <ele>1651.2</ele>
        <time>2020-08-28T08:21:06Z</time>
      </trkpt>
      <trkpt lat="44.33189" lon="6.30679">
        <ele>1651.2</ele>
        <time>2020-08-28T08:21:12Z</time>
      </trkpt>
      <trkpt lat="44.33189" lon="6.30679">
        <ele>1651.2</ele>
        <time>2020-08-28T08:21:17Z</time>
      </trkpt>
      <trkpt lat="44.33189" lon="6.30679">
        <ele>1651.2</ele>
        <time>2020-08-28T08:21:23Z</time>
      </trkpt>
      <trkpt lat="44.33189" lon="6.30679">
        <ele>1651.2</ele>
        <time>2020-08-28T08:21:29Z</time>
      </trkpt>
      <trkpt lat="44.33189" lon="6.30679">
        <ele>1651.2</ele>
        <time>2020-08-28T08:21:35Z</time>
      </trkpt>
      <trkpt lat="44.33189" lon="6.30679">
        <ele>1651.2</ele>
        <time>2020-08-28T08:21:40Z</time>
      </trkpt>
      <trkpt lat="44.33189" lon="6.30678">
        <ele>1651.2</ele>
        <time>2020-08-28T08:21:46Z</time>
      </trkpt>
      <trkpt lat="44.33185" lon="6.30673">
        <ele>1652.1</ele>
        <time>2020-08-28T08:21:52Z</time>
      </trkpt>
      <trkpt lat="44.33184" lon="6.30669">
        <ele>1652.5</ele>
        <time>2020-08-28T08:21:58Z</time>
      </trkpt>
      <trkpt lat="44.33182" lon="6.30663">
        <ele>1655.6</ele>
        <time>2020-08-28T08:22:04Z</time>
      </trkpt>
      <trkpt lat="44.33182" lon="6.30658">
        <ele>1655.6</ele>
        <time>2020-08-28T08:22:10Z</time>
      </trkpt>
      <trkpt lat="44.33181" lon="6.30654">
        <ele>1655.7</ele>
        <time>2020-08-28T08:22:15Z</time>
      </trkpt>
      <trkpt lat="44.33179" lon="6.30648">
        <ele>1655.9</ele>
        <time>2020-08-28T08:22:21Z</time>
      </trkpt>
      <trkpt lat="44.33176" lon="6.30644">
        <ele>1656.1</ele>
        <time>2020-08-28T08:22:27Z</time>
      </trkpt>
      <trkpt lat="44.33175" lon="6.30639">
        <ele>1656.3</ele>
        <time>2020-08-28T08:22:32Z</time>
      </trkpt>
      <trkpt lat="44.33172" lon="6.30634">
        <ele>1656.7</ele>
        <time>2020-08-28T08:22:38Z</time>
      </trkpt>
      <trkpt lat="44.33168" lon="6.30631">
        <ele>1657</ele>
        <time>2020-08-28T08:22:43Z</time>
      </trkpt>
      <trkpt lat="44.33166" lon="6.30628">
        <ele>1663</ele>
        <time>2020-08-28T08:22:48Z</time>
      </trkpt>
      <trkpt lat="44.33164" lon="6.30622">
        <ele>1663.6</ele>
        <time>2020-08-28T08:22:54Z</time>
      </trkpt>
      <trkpt lat="44.33163" lon="6.30619">
        <ele>1663.9</ele>
        <time>2020-08-28T08:22:59Z</time>
      </trkpt>
      <trkpt lat="44.33163" lon="6.30613">
        <ele>1664.5</ele>
        <time>2020-08-28T08:23:05Z</time>
      </trkpt>
      <trkpt lat="44.33163" lon="6.30608">
        <ele>1665</ele>
        <time>2020-08-28T08:23:11Z</time>
      </trkpt>
      <trkpt lat="44.33163" lon="6.30604">
        <ele>1665.4</ele>
        <time>2020-08-28T08:23:16Z</time>
      </trkpt>
      <trkpt lat="44.33163" lon="6.306">
        <ele>1665.8</ele>
        <time>2020-08-28T08:23:22Z</time>
      </trkpt>
      <trkpt lat="44.33163" lon="6.30595">
        <ele>1666.4</ele>
        <time>2020-08-28T08:23:28Z</time>
      </trkpt>
      <trkpt lat="44.33164" lon="6.30588">
        <ele>1667.2</ele>
        <time>2020-08-28T08:23:34Z</time>
      </trkpt>
      <trkpt lat="44.33163" lon="6.30583">
        <ele>1669.1</ele>
        <time>2020-08-28T08:23:39Z</time>
      </trkpt>
      <trkpt lat="44.33162" lon="6.30578">
        <ele>1670</ele>
        <time>2020-08-28T08:23:45Z</time>
      </trkpt>
      <trkpt lat="44.33162" lon="6.30572">
        <ele>1671.1</ele>
        <time>2020-08-28T08:23:50Z</time>
      </trkpt>
      <trkpt lat="44.33162" lon="6.30568">
        <ele>1671.8</ele>
        <time>2020-08-28T08:23:55Z</time>
      </trkpt>
      <trkpt lat="44.33162" lon="6.30564">
        <ele>1672.5</ele>
        <time>2020-08-28T08:24:01Z</time>
      </trkpt>
      <trkpt lat="44.33161" lon="6.30561">
        <ele>1672.9</ele>
        <time>2020-08-28T08:24:06Z</time>
      </trkpt>
      <trkpt lat="44.33161" lon="6.30559">
        <ele>1673.2</ele>
        <time>2020-08-28T08:24:12Z</time>
      </trkpt>
      <trkpt lat="44.33161" lon="6.30555">
        <ele>1673.7</ele>
        <time>2020-08-28T08:24:17Z</time>
      </trkpt>
      <trkpt lat="44.33161" lon="6.30551">
        <ele>1674.2</ele>
        <time>2020-08-28T08:24:23Z</time>
      </trkpt>
      <trkpt lat="44.3316" lon="6.30548">
        <ele>1674.5</ele>
        <time>2020-08-28T08:24:29Z</time>
      </trkpt>
      <trkpt lat="44.3316" lon="6.30542">
        <ele>1675.1</ele>
        <time>2020-08-28T08:24:35Z</time>
      </trkpt>
      <trkpt lat="44.33161" lon="6.30535">
        <ele>1675.7</ele>
        <time>2020-08-28T08:24:41Z</time>
      </trkpt>
      <trkpt lat="44.3316" lon="6.30529">
        <ele>1676.3</ele>
        <time>2020-08-28T08:24:47Z</time>
      </trkpt>
      <trkpt lat="44.33159" lon="6.30525">
        <ele>1676.6</ele>
        <time>2020-08-28T08:24:53Z</time>
      </trkpt>
      <trkpt lat="44.33157" lon="6.30519">
        <ele>1677</ele>
        <time>2020-08-28T08:24:59Z</time>
      </trkpt>
      <trkpt lat="44.33156" lon="6.30515">
        <ele>1677.3</ele>
        <time>2020-08-28T08:25:04Z</time>
      </trkpt>
      <trkpt lat="44.33155" lon="6.3051">
        <ele>1677.6</ele>
        <time>2020-08-28T08:25:10Z</time>
      </trkpt>
      <trkpt lat="44.33156" lon="6.30505">
        <ele>1677.9</ele>
        <time>2020-08-28T08:25:16Z</time>
      </trkpt>
      <trkpt lat="44.33154" lon="6.30502">
        <ele>1677.9</ele>
        <time>2020-08-28T08:25:21Z</time>
      </trkpt>
      <trkpt lat="44.33153" lon="6.30496">
        <ele>1680</ele>
        <time>2020-08-28T08:25:26Z</time>
      </trkpt>
      <trkpt lat="44.33152" lon="6.3049">
        <ele>1680.1</ele>
        <time>2020-08-28T08:25:31Z</time>
      </trkpt>
      <trkpt lat="44.33151" lon="6.30483">
        <ele>1680.4</ele>
        <time>2020-08-28T08:25:38Z</time>
      </trkpt>
      <trkpt lat="44.33148" lon="6.30476">
        <ele>1680.6</ele>
        <time>2020-08-28T08:25:43Z</time>
      </trkpt>
      <trkpt lat="44.33145" lon="6.30472">
        <ele>1680.7</ele>
        <time>2020-08-28T08:25:49Z</time>
      </trkpt>
      <trkpt lat="44.33143" lon="6.30467">
        <ele>1680.8</ele>
        <time>2020-08-28T08:25:54Z</time>
      </trkpt>
      <trkpt lat="44.33141" lon="6.30462">
        <ele>1680.9</ele>
        <time>2020-08-28T08:25:59Z</time>
      </trkpt>
      <trkpt lat="44.3314" lon="6.30457">
        <ele>1680.9</ele>
        <time>2020-08-28T08:26:04Z</time>
      </trkpt>
      <trkpt lat="44.33137" lon="6.30451">
        <ele>1681</ele>
        <time>2020-08-28T08:26:09Z</time>
      </trkpt>
      <trkpt lat="44.3313" lon="6.30445">
        <ele>1681</ele>
        <time>2020-08-28T08:26:15Z</time>
      </trkpt>
      <trkpt lat="44.33127" lon="6.30439">
        <ele>1681</ele>
        <time>2020-08-28T08:26:20Z</time>
      </trkpt>
      <trkpt lat="44.33128" lon="6.30439">
        <ele>1681</ele>
        <time>2020-08-28T08:26:26Z</time>
      </trkpt>
    </trkseg>
  </trk>
</gpx>